<?xml version='1.0' encoding='UTF-8'?>
<gpx version="1.1" creator="https://www.komoot.de" xmlns="http://www.topografix.com/GPX/1/1" xmlns:xsi="http://www.w3.org/2001/XMLSchema-instance" xsi:schemaLocation="http://www.topografix.com/GPX/1/1 http://www.topografix.com/GPX/1/1/gpx.xsd">
  <metadata>
    <name>GPX Download: Staatspark Karlsaue – Brücke über die Fulda Runde von Fuldatal-Ihringshausen</name>
    <author>
      <link href="https://www.komoot.de">
        <text>komoot</text>
        <type>text/html</type>
      </link>
    </author>
  </metadata>
  <wpt lat="51.309501" lon="9.497520">
    <name>Staatspark Karlsaue</name>
    <sym>Flag, Blue</sym>
  </wpt>
  <wpt lat="51.276967" lon="9.491118">
    <name>Brücke über die Fulda</name>
    <sym>Bridge</sym>
  </wpt>
  <wpt lat="51.251014" lon="9.505593">
    <name>Überdachte Fulda-Brücke bei Dennhausen</name>
    <sym>Bridge</sym>
  </wpt>
  <wpt lat="51.252010" lon="9.473430">
    <name>Dorfkirche Dittershausen und Flussblick</name>
    <sym>Flag, Blue</sym>
  </wpt>
  <wpt lat="51.252877" lon="9.472117">
    <name>Blick von der Brücke auf die Fulda</name>
    <sym>Flag, Blue</sym>
  </wpt>
  <wpt lat="51.248138" lon="9.462762">
    <name>Weg entlang der Fulda</name>
    <sym>Flag, Blue</sym>
  </wpt>
  <wpt lat="51.243973" lon="9.461400">
    <name>Fulda-Radweg</name>
    <sym>Flag, Blue</sym>
  </wpt>
  <wpt lat="51.366295" lon="9.491542">
    <name>Radweg von der Frommershäuser Grillhütte nach Simmershausen</name>
    <sym>Flag, Blue</sym>
  </wpt>
  <wpt lat="51.363056" lon="9.489830">
    <name>Hopfenberg</name>
    <sym>Summit</sym>
  </wpt>
  <trk>
    <name>GPX Download: Staatspark Karlsaue – Brücke über die Fulda Runde von Fuldatal-Ihringshausen</name>
    <trkseg>
      <trkpt lat="51.314704" lon="9.504208">
        <ele>140.993153</ele>
        <time>2026-03-20T10:46:36.618Z</time>
      </trkpt>
      <trkpt lat="51.314513" lon="9.504420">
        <ele>140.993153</ele>
        <time>2026-03-20T10:46:40.959Z</time>
      </trkpt>
      <trkpt lat="51.314463" lon="9.504492">
        <ele>140.993153</ele>
        <time>2026-03-20T10:46:42.138Z</time>
      </trkpt>
      <trkpt lat="51.314428" lon="9.504396">
        <ele>140.993153</ele>
        <time>2026-03-20T10:46:44.075Z</time>
      </trkpt>
      <trkpt lat="51.314209" lon="9.504589">
        <ele>140.993153</ele>
        <time>2026-03-20T10:46:50.445Z</time>
      </trkpt>
      <trkpt lat="51.314108" lon="9.504755">
        <ele>140.993153</ele>
        <time>2026-03-20T10:46:54.410Z</time>
      </trkpt>
      <trkpt lat="51.314041" lon="9.504745">
        <ele>140.993153</ele>
        <time>2026-03-20T10:46:56.618Z</time>
      </trkpt>
      <trkpt lat="51.313916" lon="9.504736">
        <ele>140.969499</ele>
        <time>2026-03-20T10:47:01.281Z</time>
      </trkpt>
      <trkpt lat="51.313850" lon="9.504538">
        <ele>140.911420</ele>
        <time>2026-03-20T10:47:06.634Z</time>
      </trkpt>
      <trkpt lat="51.313509" lon="9.503908">
        <ele>140.695718</ele>
        <time>2026-03-20T10:47:16.736Z</time>
      </trkpt>
      <trkpt lat="51.313282" lon="9.503671">
        <ele>140.583476</ele>
        <time>2026-03-20T10:47:22.361Z</time>
      </trkpt>
      <trkpt lat="51.313188" lon="9.503350">
        <ele>140.491726</ele>
        <time>2026-03-20T10:47:27.666Z</time>
      </trkpt>
      <trkpt lat="51.313131" lon="9.503329">
        <ele>140.467505</ele>
        <time>2026-03-20T10:47:28.962Z</time>
      </trkpt>
      <trkpt lat="51.313033" lon="9.503386">
        <ele>140.424326</ele>
        <time>2026-03-20T10:47:33.098Z</time>
      </trkpt>
      <trkpt lat="51.312989" lon="9.503410">
        <ele>140.405076</ele>
        <time>2026-03-20T10:47:34.140Z</time>
      </trkpt>
      <trkpt lat="51.312952" lon="9.503443">
        <ele>140.387535</ele>
        <time>2026-03-20T10:47:35.065Z</time>
      </trkpt>
      <trkpt lat="51.312846" lon="9.503445">
        <ele>140.343639</ele>
        <time>2026-03-20T10:47:37.590Z</time>
      </trkpt>
      <trkpt lat="51.312615" lon="9.503424">
        <ele>140.248377</ele>
        <time>2026-03-20T10:47:42.364Z</time>
      </trkpt>
      <trkpt lat="51.312365" lon="9.503215">
        <ele>140.251957</ele>
        <time>2026-03-20T10:47:47.835Z</time>
      </trkpt>
      <trkpt lat="51.312266" lon="9.503157">
        <ele>140.253295</ele>
        <time>2026-03-20T10:47:49.969Z</time>
      </trkpt>
      <trkpt lat="51.312268" lon="9.503032">
        <ele>140.254287</ele>
        <time>2026-03-20T10:47:51.407Z</time>
      </trkpt>
      <trkpt lat="51.312353" lon="9.502927">
        <ele>140.255650</ele>
        <time>2026-03-20T10:47:53.337Z</time>
      </trkpt>
      <trkpt lat="51.312379" lon="9.502847">
        <ele>140.256365</ele>
        <time>2026-03-20T10:47:54.411Z</time>
      </trkpt>
      <trkpt lat="51.312481" lon="9.502543">
        <ele>140.259102</ele>
        <time>2026-03-20T10:47:58.898Z</time>
      </trkpt>
      <trkpt lat="51.312505" lon="9.502358">
        <ele>140.260601</ele>
        <time>2026-03-20T10:48:01.810Z</time>
      </trkpt>
      <trkpt lat="51.312471" lon="9.502068">
        <ele>140.262942</ele>
        <time>2026-03-20T10:48:06.510Z</time>
      </trkpt>
      <trkpt lat="51.312402" lon="9.501880">
        <ele>140.264671</ele>
        <time>2026-03-20T10:48:10.052Z</time>
      </trkpt>
      <trkpt lat="51.312182" lon="9.501517">
        <ele>140.268682</ele>
        <time>2026-03-20T10:48:18.502Z</time>
      </trkpt>
      <trkpt lat="51.312091" lon="9.501421">
        <ele>140.270066</ele>
        <time>2026-03-20T10:48:21.360Z</time>
      </trkpt>
      <trkpt lat="51.310965" lon="9.500224">
        <ele>140.185044</ele>
        <time>2026-03-20T10:48:51.867Z</time>
      </trkpt>
      <trkpt lat="51.310849" lon="9.500080">
        <ele>140.175034</ele>
        <time>2026-03-20T10:48:54.771Z</time>
      </trkpt>
      <trkpt lat="51.310739" lon="9.499884">
        <ele>140.163808</ele>
        <time>2026-03-20T10:48:58.060Z</time>
      </trkpt>
      <trkpt lat="51.310702" lon="9.499765">
        <ele>140.158144</ele>
        <time>2026-03-20T10:48:59.787Z</time>
      </trkpt>
      <trkpt lat="51.310695" lon="9.499638">
        <ele>140.152711</ele>
        <time>2026-03-20T10:49:01.463Z</time>
      </trkpt>
      <trkpt lat="51.310590" lon="9.499519">
        <ele>140.109146</ele>
        <time>2026-03-20T10:49:04.143Z</time>
      </trkpt>
      <trkpt lat="51.310562" lon="9.499482">
        <ele>140.088036</ele>
        <time>2026-03-20T10:49:04.926Z</time>
      </trkpt>
      <trkpt lat="51.309842" lon="9.498721">
        <ele>139.586409</ele>
        <time>2026-03-20T10:49:23.100Z</time>
      </trkpt>
      <trkpt lat="51.309678" lon="9.498515">
        <ele>139.465201</ele>
        <time>2026-03-20T10:49:27.515Z</time>
      </trkpt>
      <trkpt lat="51.309681" lon="9.497996">
        <ele>139.276604</ele>
        <time>2026-03-20T10:49:34.571Z</time>
      </trkpt>
      <trkpt lat="51.309582" lon="9.497599">
        <ele>139.121291</ele>
        <time>2026-03-20T10:49:40.341Z</time>
      </trkpt>
      <trkpt lat="51.309529" lon="9.497487">
        <ele>139.062416</ele>
        <time>2026-03-20T10:49:42.210Z</time>
      </trkpt>
      <trkpt lat="51.309514" lon="9.497457">
        <ele>139.045121</ele>
        <time>2026-03-20T10:49:42.724Z</time>
      </trkpt>
      <trkpt lat="51.309340" lon="9.497219">
        <ele>138.880250</ele>
        <time>2026-03-20T10:49:47.578Z</time>
      </trkpt>
      <trkpt lat="51.308946" lon="9.496842">
        <ele>138.549618</ele>
        <time>2026-03-20T10:49:57.097Z</time>
      </trkpt>
      <trkpt lat="51.307938" lon="9.495824">
        <ele>137.804378</ele>
        <time>2026-03-20T10:50:20.491Z</time>
      </trkpt>
      <trkpt lat="51.307580" lon="9.495295">
        <ele>137.794368</ele>
        <time>2026-03-20T10:50:30.508Z</time>
      </trkpt>
      <trkpt lat="51.307372" lon="9.494812">
        <ele>137.786838</ele>
        <time>2026-03-20T10:50:38.637Z</time>
      </trkpt>
      <trkpt lat="51.307264" lon="9.494446">
        <ele>137.781642</ele>
        <time>2026-03-20T10:50:44.462Z</time>
      </trkpt>
      <trkpt lat="51.307100" lon="9.493258">
        <ele>138.118618</ele>
        <time>2026-03-20T10:51:02.832Z</time>
      </trkpt>
      <trkpt lat="51.307091" lon="9.493066">
        <ele>138.300008</ele>
        <time>2026-03-20T10:51:06.011Z</time>
      </trkpt>
      <trkpt lat="51.307077" lon="9.492787">
        <ele>138.563699</ele>
        <time>2026-03-20T10:51:10.716Z</time>
      </trkpt>
      <trkpt lat="51.307063" lon="9.492520">
        <ele>138.816122</ele>
        <time>2026-03-20T10:51:15.367Z</time>
      </trkpt>
      <trkpt lat="51.307030" lon="9.492060">
        <ele>139.252331</ele>
        <time>2026-03-20T10:51:23.611Z</time>
      </trkpt>
      <trkpt lat="51.307066" lon="9.490170">
        <ele>140.866193</ele>
        <time>2026-03-20T10:51:59.969Z</time>
      </trkpt>
      <trkpt lat="51.307077" lon="9.489894">
        <ele>141.047724</ele>
        <time>2026-03-20T10:52:05.190Z</time>
      </trkpt>
      <trkpt lat="51.306560" lon="9.490014">
        <ele>141.596243</ele>
        <time>2026-03-20T10:52:19.556Z</time>
      </trkpt>
      <trkpt lat="51.306409" lon="9.490035">
        <ele>141.755386</ele>
        <time>2026-03-20T10:52:23.249Z</time>
      </trkpt>
      <trkpt lat="51.306156" lon="9.489976">
        <ele>142.023837</ele>
        <time>2026-03-20T10:52:29.348Z</time>
      </trkpt>
      <trkpt lat="51.305906" lon="9.489863">
        <ele>142.296608</ele>
        <time>2026-03-20T10:52:35.292Z</time>
      </trkpt>
      <trkpt lat="51.305370" lon="9.489397">
        <ele>142.308607</ele>
        <time>2026-03-20T10:52:48.043Z</time>
      </trkpt>
      <trkpt lat="51.305056" lon="9.488965">
        <ele>142.261668</ele>
        <time>2026-03-20T10:52:56.704Z</time>
      </trkpt>
      <trkpt lat="51.304617" lon="9.488243">
        <ele>142.190306</ele>
        <time>2026-03-20T10:53:10.392Z</time>
      </trkpt>
      <trkpt lat="51.304116" lon="9.487339">
        <ele>142.250232</ele>
        <time>2026-03-20T10:53:27.495Z</time>
      </trkpt>
      <trkpt lat="51.304077" lon="9.487267">
        <ele>142.259510</ele>
        <time>2026-03-20T10:53:28.827Z</time>
      </trkpt>
      <trkpt lat="51.303685" lon="9.486586">
        <ele>142.349665</ele>
        <time>2026-03-20T10:53:42.083Z</time>
      </trkpt>
      <trkpt lat="51.303325" lon="9.486004">
        <ele>142.429403</ele>
        <time>2026-03-20T10:53:53.904Z</time>
      </trkpt>
      <trkpt lat="51.302737" lon="9.485340">
        <ele>142.634532</ele>
        <time>2026-03-20T10:54:11.037Z</time>
      </trkpt>
      <trkpt lat="51.302496" lon="9.485067">
        <ele>142.725413</ele>
        <time>2026-03-20T10:54:18.014Z</time>
      </trkpt>
      <trkpt lat="51.302287" lon="9.484854">
        <ele>142.801678</ele>
        <time>2026-03-20T10:54:23.934Z</time>
      </trkpt>
      <trkpt lat="51.302151" lon="9.484718">
        <ele>142.851037</ele>
        <time>2026-03-20T10:54:27.785Z</time>
      </trkpt>
      <trkpt lat="51.301836" lon="9.484435">
        <ele>142.962220</ele>
        <time>2026-03-20T10:54:36.315Z</time>
      </trkpt>
      <trkpt lat="51.301747" lon="9.484354">
        <ele>142.993732</ele>
        <time>2026-03-20T10:54:38.712Z</time>
      </trkpt>
      <trkpt lat="51.301587" lon="9.484226">
        <ele>143.063776</ele>
        <time>2026-03-20T10:54:42.865Z</time>
      </trkpt>
      <trkpt lat="51.301181" lon="9.483933">
        <ele>143.242709</ele>
        <time>2026-03-20T10:54:52.900Z</time>
      </trkpt>
      <trkpt lat="51.300729" lon="9.483662">
        <ele>143.436625</ele>
        <time>2026-03-20T10:55:03.662Z</time>
      </trkpt>
      <trkpt lat="51.299979" lon="9.483288">
        <ele>143.753277</ele>
        <time>2026-03-20T10:55:23.292Z</time>
      </trkpt>
      <trkpt lat="51.299913" lon="9.483205">
        <ele>143.788195</ele>
        <time>2026-03-20T10:55:25.520Z</time>
      </trkpt>
      <trkpt lat="51.299887" lon="9.483119">
        <ele>143.813035</ele>
        <time>2026-03-20T10:55:27.024Z</time>
      </trkpt>
      <trkpt lat="51.299897" lon="9.482961">
        <ele>143.854330</ele>
        <time>2026-03-20T10:55:29.701Z</time>
      </trkpt>
      <trkpt lat="51.299878" lon="9.482949">
        <ele>143.862826</ele>
        <time>2026-03-20T10:55:30.217Z</time>
      </trkpt>
      <trkpt lat="51.298882" lon="9.482444">
        <ele>144.297372</ele>
        <time>2026-03-20T10:56:04.348Z</time>
      </trkpt>
      <trkpt lat="51.298773" lon="9.482354">
        <ele>144.348389</ele>
        <time>2026-03-20T10:56:07.808Z</time>
      </trkpt>
      <trkpt lat="51.298738" lon="9.482617">
        <ele>144.418311</ele>
        <time>2026-03-20T10:56:12.390Z</time>
      </trkpt>
      <trkpt lat="51.297826" lon="9.483109">
        <ele>144.112662</ele>
        <time>2026-03-20T10:56:31.290Z</time>
      </trkpt>
      <trkpt lat="51.297714" lon="9.483204">
        <ele>144.058525</ele>
        <time>2026-03-20T10:56:33.808Z</time>
      </trkpt>
      <trkpt lat="51.297647" lon="9.483244">
        <ele>144.027985</ele>
        <time>2026-03-20T10:56:35.145Z</time>
      </trkpt>
      <trkpt lat="51.297590" lon="9.483279">
        <ele>144.001912</ele>
        <time>2026-03-20T10:56:36.357Z</time>
      </trkpt>
      <trkpt lat="51.297505" lon="9.483329">
        <ele>143.963238</ele>
        <time>2026-03-20T10:56:38.124Z</time>
      </trkpt>
      <trkpt lat="51.297492" lon="9.483337">
        <ele>143.957290</ele>
        <time>2026-03-20T10:56:38.408Z</time>
      </trkpt>
      <trkpt lat="51.297391" lon="9.483397">
        <ele>143.911281</ele>
        <time>2026-03-20T10:56:40.631Z</time>
      </trkpt>
      <trkpt lat="51.297288" lon="9.483453">
        <ele>143.864825</ele>
        <time>2026-03-20T10:56:42.899Z</time>
      </trkpt>
      <trkpt lat="51.297181" lon="9.483517">
        <ele>143.816042</ele>
        <time>2026-03-20T10:56:45.367Z</time>
      </trkpt>
      <trkpt lat="51.297115" lon="9.483556">
        <ele>143.785996</ele>
        <time>2026-03-20T10:56:46.980Z</time>
      </trkpt>
      <trkpt lat="51.297081" lon="9.483576">
        <ele>143.770526</ele>
        <time>2026-03-20T10:56:47.772Z</time>
      </trkpt>
      <trkpt lat="51.296971" lon="9.483637">
        <ele>143.720809</ele>
        <time>2026-03-20T10:56:50.537Z</time>
      </trkpt>
      <trkpt lat="51.296856" lon="9.483700">
        <ele>143.709819</ele>
        <time>2026-03-20T10:56:53.498Z</time>
      </trkpt>
      <trkpt lat="51.296751" lon="9.483755">
        <ele>143.720571</ele>
        <time>2026-03-20T10:56:56.222Z</time>
      </trkpt>
      <trkpt lat="51.296641" lon="9.483816">
        <ele>143.731901</ele>
        <time>2026-03-20T10:56:59.117Z</time>
      </trkpt>
      <trkpt lat="51.296541" lon="9.483875">
        <ele>143.742273</ele>
        <time>2026-03-20T10:57:01.904Z</time>
      </trkpt>
      <trkpt lat="51.296413" lon="9.483873">
        <ele>143.754729</ele>
        <time>2026-03-20T10:57:05.175Z</time>
      </trkpt>
      <trkpt lat="51.296379" lon="9.483838">
        <ele>143.758664</ele>
        <time>2026-03-20T10:57:06.187Z</time>
      </trkpt>
      <trkpt lat="51.296330" lon="9.483682">
        <ele>143.769287</ele>
        <time>2026-03-20T10:57:08.812Z</time>
      </trkpt>
      <trkpt lat="51.296249" lon="9.483273">
        <ele>143.795392</ele>
        <time>2026-03-20T10:57:15.046Z</time>
      </trkpt>
      <trkpt lat="51.296231" lon="9.483180">
        <ele>143.801316</ele>
        <time>2026-03-20T10:57:16.439Z</time>
      </trkpt>
      <trkpt lat="51.296176" lon="9.483216">
        <ele>143.807099</ele>
        <time>2026-03-20T10:57:17.804Z</time>
      </trkpt>
      <trkpt lat="51.296134" lon="9.483252">
        <ele>143.811736</ele>
        <time>2026-03-20T10:57:18.902Z</time>
      </trkpt>
      <trkpt lat="51.296097" lon="9.483283">
        <ele>143.815800</ele>
        <time>2026-03-20T10:57:19.844Z</time>
      </trkpt>
      <trkpt lat="51.295871" lon="9.483475">
        <ele>143.840703</ele>
        <time>2026-03-20T10:57:25.536Z</time>
      </trkpt>
      <trkpt lat="51.295778" lon="9.483554">
        <ele>143.850951</ele>
        <time>2026-03-20T10:57:27.802Z</time>
      </trkpt>
      <trkpt lat="51.295724" lon="9.483600">
        <ele>143.856905</ele>
        <time>2026-03-20T10:57:29.119Z</time>
      </trkpt>
      <trkpt lat="51.295689" lon="9.483631">
        <ele>143.860798</ele>
        <time>2026-03-20T10:57:29.960Z</time>
      </trkpt>
      <trkpt lat="51.295523" lon="9.483785">
        <ele>143.857922</ele>
        <time>2026-03-20T10:57:33.920Z</time>
      </trkpt>
      <trkpt lat="51.295484" lon="9.483821">
        <ele>143.819758</ele>
        <time>2026-03-20T10:57:34.848Z</time>
      </trkpt>
      <trkpt lat="51.295078" lon="9.484183">
        <ele>143.425796</ele>
        <time>2026-03-20T10:57:43.977Z</time>
      </trkpt>
      <trkpt lat="51.294725" lon="9.484564">
        <ele>143.064857</ele>
        <time>2026-03-20T10:57:52.238Z</time>
      </trkpt>
      <trkpt lat="51.294326" lon="9.485146">
        <ele>142.607155</ele>
        <time>2026-03-20T10:58:02.865Z</time>
      </trkpt>
      <trkpt lat="51.294122" lon="9.485521">
        <ele>142.339740</ele>
        <time>2026-03-20T10:58:08.842Z</time>
      </trkpt>
      <trkpt lat="51.293974" lon="9.485872">
        <ele>142.017186</ele>
        <time>2026-03-20T10:58:13.877Z</time>
      </trkpt>
      <trkpt lat="51.293834" lon="9.486304">
        <ele>141.646456</ele>
        <time>2026-03-20T10:58:19.600Z</time>
      </trkpt>
      <trkpt lat="51.293742" lon="9.486220">
        <ele>141.517374</ele>
        <time>2026-03-20T10:58:23.105Z</time>
      </trkpt>
      <trkpt lat="51.293563" lon="9.486771">
        <ele>141.044275</ele>
        <time>2026-03-20T10:58:35.869Z</time>
      </trkpt>
      <trkpt lat="51.293324" lon="9.487028">
        <ele>140.693350</ele>
        <time>2026-03-20T10:58:45.374Z</time>
      </trkpt>
      <trkpt lat="51.293202" lon="9.487267">
        <ele>140.458278</ele>
        <time>2026-03-20T10:58:51.737Z</time>
      </trkpt>
      <trkpt lat="51.293127" lon="9.487551">
        <ele>140.223382</ele>
        <time>2026-03-20T10:58:58.142Z</time>
      </trkpt>
      <trkpt lat="51.293073" lon="9.487498">
        <ele>140.153328</ele>
        <time>2026-03-20T10:58:59.361Z</time>
      </trkpt>
      <trkpt lat="51.292727" lon="9.487332">
        <ele>139.921256</ele>
        <time>2026-03-20T10:59:06.201Z</time>
      </trkpt>
      <trkpt lat="51.292358" lon="9.487032">
        <ele>139.655317</ele>
        <time>2026-03-20T10:59:14.315Z</time>
      </trkpt>
      <trkpt lat="51.292258" lon="9.486915">
        <ele>139.575714</ele>
        <time>2026-03-20T10:59:16.806Z</time>
      </trkpt>
      <trkpt lat="51.292123" lon="9.487151">
        <ele>139.447217</ele>
        <time>2026-03-20T10:59:20.900Z</time>
      </trkpt>
      <trkpt lat="51.292056" lon="9.487220">
        <ele>139.396020</ele>
        <time>2026-03-20T10:59:22.551Z</time>
      </trkpt>
      <trkpt lat="51.291939" lon="9.487296">
        <ele>139.314890</ele>
        <time>2026-03-20T10:59:25.182Z</time>
      </trkpt>
      <trkpt lat="51.291660" lon="9.487316">
        <ele>139.135470</ele>
        <time>2026-03-20T10:59:31.102Z</time>
      </trkpt>
      <trkpt lat="51.291046" lon="9.487330">
        <ele>139.088858</ele>
        <time>2026-03-20T10:59:44.529Z</time>
      </trkpt>
      <trkpt lat="51.290994" lon="9.487331">
        <ele>139.099340</ele>
        <time>2026-03-20T10:59:45.710Z</time>
      </trkpt>
      <trkpt lat="51.290932" lon="9.487334">
        <ele>139.111841</ele>
        <time>2026-03-20T10:59:47.110Z</time>
      </trkpt>
      <trkpt lat="51.290892" lon="9.487335">
        <ele>139.119904</ele>
        <time>2026-03-20T10:59:47.998Z</time>
      </trkpt>
      <trkpt lat="51.290659" lon="9.487343">
        <ele>139.166876</ele>
        <time>2026-03-20T10:59:53.390Z</time>
      </trkpt>
      <trkpt lat="51.290208" lon="9.487360">
        <ele>139.257799</ele>
        <time>2026-03-20T11:00:04.079Z</time>
      </trkpt>
      <trkpt lat="51.289915" lon="9.487419">
        <ele>139.317319</ele>
        <time>2026-03-20T11:00:11.271Z</time>
      </trkpt>
      <trkpt lat="51.289568" lon="9.487504">
        <ele>139.378360</ele>
        <time>2026-03-20T11:00:20.035Z</time>
      </trkpt>
      <trkpt lat="51.288793" lon="9.487694">
        <ele>139.458782</ele>
        <time>2026-03-20T11:00:37.664Z</time>
      </trkpt>
      <trkpt lat="51.288527" lon="9.487759">
        <ele>139.486382</ele>
        <time>2026-03-20T11:00:43.628Z</time>
      </trkpt>
      <trkpt lat="51.288485" lon="9.487770">
        <ele>139.490748</ele>
        <time>2026-03-20T11:00:44.580Z</time>
      </trkpt>
      <trkpt lat="51.288184" lon="9.487841">
        <ele>139.521956</ele>
        <time>2026-03-20T11:00:51.559Z</time>
      </trkpt>
      <trkpt lat="51.288101" lon="9.487860">
        <ele>139.530556</ele>
        <time>2026-03-20T11:00:53.512Z</time>
      </trkpt>
      <trkpt lat="51.287727" lon="9.487950">
        <ele>139.492929</ele>
        <time>2026-03-20T11:01:01.906Z</time>
      </trkpt>
      <trkpt lat="51.287057" lon="9.488048">
        <ele>139.243583</ele>
        <time>2026-03-20T11:01:15.493Z</time>
      </trkpt>
      <trkpt lat="51.287017" lon="9.488046">
        <ele>139.228752</ele>
        <time>2026-03-20T11:01:16.612Z</time>
      </trkpt>
      <trkpt lat="51.286966" lon="9.488044">
        <ele>139.209845</ele>
        <time>2026-03-20T11:01:18.040Z</time>
      </trkpt>
      <trkpt lat="51.286556" lon="9.487984">
        <ele>139.057260</ele>
        <time>2026-03-20T11:01:29.724Z</time>
      </trkpt>
      <trkpt lat="51.286506" lon="9.487987">
        <ele>139.038716</ele>
        <time>2026-03-20T11:01:31.150Z</time>
      </trkpt>
      <trkpt lat="51.286246" lon="9.488002">
        <ele>138.942295</ele>
        <time>2026-03-20T11:01:38.422Z</time>
      </trkpt>
      <trkpt lat="51.285955" lon="9.488020">
        <ele>138.867369</ele>
        <time>2026-03-20T11:01:46.358Z</time>
      </trkpt>
      <trkpt lat="51.285523" lon="9.487986">
        <ele>138.809153</ele>
        <time>2026-03-20T11:01:58.057Z</time>
      </trkpt>
      <trkpt lat="51.284326" lon="9.487743">
        <ele>138.646750</ele>
        <time>2026-03-20T11:02:33.578Z</time>
      </trkpt>
      <trkpt lat="51.284070" lon="9.487722">
        <ele>138.659359</ele>
        <time>2026-03-20T11:02:41.223Z</time>
      </trkpt>
      <trkpt lat="51.283971" lon="9.487728">
        <ele>138.665747</ele>
        <time>2026-03-20T11:02:44.180Z</time>
      </trkpt>
      <trkpt lat="51.283095" lon="9.487883">
        <ele>138.722572</ele>
        <time>2026-03-20T11:03:10.439Z</time>
      </trkpt>
      <trkpt lat="51.282831" lon="9.487992">
        <ele>138.740152</ele>
        <time>2026-03-20T11:03:18.460Z</time>
      </trkpt>
      <trkpt lat="51.282641" lon="9.488109">
        <ele>138.753279</ele>
        <time>2026-03-20T11:03:24.400Z</time>
      </trkpt>
      <trkpt lat="51.282012" lon="9.488553">
        <ele>138.787772</ele>
        <time>2026-03-20T11:03:44.371Z</time>
      </trkpt>
      <trkpt lat="51.281454" lon="9.488735">
        <ele>138.814867</ele>
        <time>2026-03-20T11:04:01.038Z</time>
      </trkpt>
      <trkpt lat="51.280695" lon="9.488808">
        <ele>138.892523</ele>
        <time>2026-03-20T11:04:23.659Z</time>
      </trkpt>
      <trkpt lat="51.280272" lon="9.488848">
        <ele>139.067536</ele>
        <time>2026-03-20T11:04:36.560Z</time>
      </trkpt>
      <trkpt lat="51.278131" lon="9.489011">
        <ele>140.077954</ele>
        <time>2026-03-20T11:05:43.324Z</time>
      </trkpt>
      <trkpt lat="51.277037" lon="9.489080">
        <ele>140.423104</ele>
        <time>2026-03-20T11:06:18.927Z</time>
      </trkpt>
      <trkpt lat="51.276834" lon="9.489090">
        <ele>140.236821</ele>
        <time>2026-03-20T11:06:25.009Z</time>
      </trkpt>
      <trkpt lat="51.276743" lon="9.489094">
        <ele>140.153324</ele>
        <time>2026-03-20T11:06:27.585Z</time>
      </trkpt>
      <trkpt lat="51.276216" lon="9.489096">
        <ele>139.669951</ele>
        <time>2026-03-20T11:06:37.870Z</time>
      </trkpt>
      <trkpt lat="51.276189" lon="9.489246">
        <ele>139.580392</ele>
        <time>2026-03-20T11:06:39.676Z</time>
      </trkpt>
      <trkpt lat="51.276223" lon="9.489744">
        <ele>139.292954</ele>
        <time>2026-03-20T11:06:45.323Z</time>
      </trkpt>
      <trkpt lat="51.276450" lon="9.490096">
        <ele>139.002882</ele>
        <time>2026-03-20T11:06:50.942Z</time>
      </trkpt>
      <trkpt lat="51.276479" lon="9.490199">
        <ele>138.938074</ele>
        <time>2026-03-20T11:06:52.184Z</time>
      </trkpt>
      <trkpt lat="51.276590" lon="9.490294">
        <ele>138.850968</ele>
        <time>2026-03-20T11:06:54.407Z</time>
      </trkpt>
      <trkpt lat="51.276927" lon="9.490488">
        <ele>138.604038</ele>
        <time>2026-03-20T11:07:00.693Z</time>
      </trkpt>
      <trkpt lat="51.276969" lon="9.490533">
        <ele>138.569181</ele>
        <time>2026-03-20T11:07:01.601Z</time>
      </trkpt>
      <trkpt lat="51.276989" lon="9.490643">
        <ele>138.519780</ele>
        <time>2026-03-20T11:07:02.872Z</time>
      </trkpt>
      <trkpt lat="51.276958" lon="9.491117">
        <ele>138.314251</ele>
        <time>2026-03-20T11:07:08.328Z</time>
      </trkpt>
      <trkpt lat="51.276916" lon="9.491781">
        <ele>138.026438</ele>
        <time>2026-03-20T11:07:16.900Z</time>
      </trkpt>
      <trkpt lat="51.276858" lon="9.491853">
        <ele>137.975813</ele>
        <time>2026-03-20T11:07:18.602Z</time>
      </trkpt>
      <trkpt lat="51.276767" lon="9.491880">
        <ele>137.912007</ele>
        <time>2026-03-20T11:07:20.848Z</time>
      </trkpt>
      <trkpt lat="51.276291" lon="9.491909">
        <ele>137.965357</ele>
        <time>2026-03-20T11:07:33.392Z</time>
      </trkpt>
      <trkpt lat="51.276157" lon="9.491966">
        <ele>138.191976</ele>
        <time>2026-03-20T11:07:37.253Z</time>
      </trkpt>
      <trkpt lat="51.276139" lon="9.492024">
        <ele>138.258169</ele>
        <time>2026-03-20T11:07:38.391Z</time>
      </trkpt>
      <trkpt lat="51.276131" lon="9.492480">
        <ele>138.724554</ele>
        <time>2026-03-20T11:07:46.712Z</time>
      </trkpt>
      <trkpt lat="51.276056" lon="9.494254">
        <ele>140.542380</ele>
        <time>2026-03-20T11:08:20.814Z</time>
      </trkpt>
      <trkpt lat="51.276034" lon="9.494252">
        <ele>140.578393</ele>
        <time>2026-03-20T11:08:21.447Z</time>
      </trkpt>
      <trkpt lat="51.275318" lon="9.494165">
        <ele>141.190038</ele>
        <time>2026-03-20T11:08:40.463Z</time>
      </trkpt>
      <trkpt lat="51.274830" lon="9.494143">
        <ele>141.586011</ele>
        <time>2026-03-20T11:08:52.214Z</time>
      </trkpt>
      <trkpt lat="51.274478" lon="9.494154">
        <ele>141.871571</ele>
        <time>2026-03-20T11:09:00.758Z</time>
      </trkpt>
      <trkpt lat="51.274346" lon="9.494172">
        <ele>141.979024</ele>
        <time>2026-03-20T11:09:03.986Z</time>
      </trkpt>
      <trkpt lat="51.274015" lon="9.494222">
        <ele>142.101405</ele>
        <time>2026-03-20T11:09:12.055Z</time>
      </trkpt>
      <trkpt lat="51.273855" lon="9.494245">
        <ele>142.106603</ele>
        <time>2026-03-20T11:09:15.915Z</time>
      </trkpt>
      <trkpt lat="51.273459" lon="9.494290">
        <ele>142.119449</ele>
        <time>2026-03-20T11:09:25.305Z</time>
      </trkpt>
      <trkpt lat="51.273014" lon="9.494345">
        <ele>142.133891</ele>
        <time>2026-03-20T11:09:35.732Z</time>
      </trkpt>
      <trkpt lat="51.272977" lon="9.494380">
        <ele>142.135282</ele>
        <time>2026-03-20T11:09:36.734Z</time>
      </trkpt>
      <trkpt lat="51.272942" lon="9.494350">
        <ele>142.136567</ele>
        <time>2026-03-20T11:09:37.601Z</time>
      </trkpt>
      <trkpt lat="51.271305" lon="9.494377">
        <ele>141.610015</ele>
        <time>2026-03-20T11:10:10.681Z</time>
      </trkpt>
      <trkpt lat="51.271268" lon="9.494378">
        <ele>141.591967</ele>
        <time>2026-03-20T11:10:11.424Z</time>
      </trkpt>
      <trkpt lat="51.270271" lon="9.494423">
        <ele>141.257017</ele>
        <time>2026-03-20T11:10:32.281Z</time>
      </trkpt>
      <trkpt lat="51.270035" lon="9.494470">
        <ele>141.243972</ele>
        <time>2026-03-20T11:10:37.495Z</time>
      </trkpt>
      <trkpt lat="51.269980" lon="9.494473">
        <ele>141.240954</ele>
        <time>2026-03-20T11:10:38.725Z</time>
      </trkpt>
      <trkpt lat="51.268714" lon="9.494589">
        <ele>141.179847</ele>
        <time>2026-03-20T11:11:07.088Z</time>
      </trkpt>
      <trkpt lat="51.268655" lon="9.494592">
        <ele>141.181050</ele>
        <time>2026-03-20T11:11:08.419Z</time>
      </trkpt>
      <trkpt lat="51.268081" lon="9.494601">
        <ele>141.192745</ele>
        <time>2026-03-20T11:11:21.307Z</time>
      </trkpt>
      <trkpt lat="51.267093" lon="9.494340">
        <ele>141.213148</ele>
        <time>2026-03-20T11:11:43.425Z</time>
      </trkpt>
      <trkpt lat="51.266915" lon="9.494372">
        <ele>141.277881</ele>
        <time>2026-03-20T11:11:47.411Z</time>
      </trkpt>
      <trkpt lat="51.266755" lon="9.494475">
        <ele>141.364191</ele>
        <time>2026-03-20T11:11:51.296Z</time>
      </trkpt>
      <trkpt lat="51.266541" lon="9.494611">
        <ele>141.479426</ele>
        <time>2026-03-20T11:11:56.567Z</time>
      </trkpt>
      <trkpt lat="51.266326" lon="9.494748">
        <ele>141.595241</ele>
        <time>2026-03-20T11:12:02.018Z</time>
      </trkpt>
      <trkpt lat="51.266295" lon="9.494768">
        <ele>141.611969</ele>
        <time>2026-03-20T11:12:02.832Z</time>
      </trkpt>
      <trkpt lat="51.266219" lon="9.494817">
        <ele>141.652975</ele>
        <time>2026-03-20T11:12:04.807Z</time>
      </trkpt>
      <trkpt lat="51.265879" lon="9.495033">
        <ele>141.836050</ele>
        <time>2026-03-20T11:12:13.836Z</time>
      </trkpt>
      <trkpt lat="51.265849" lon="9.495053">
        <ele>141.852315</ele>
        <time>2026-03-20T11:12:14.670Z</time>
      </trkpt>
      <trkpt lat="51.265727" lon="9.495144">
        <ele>141.919682</ele>
        <time>2026-03-20T11:12:18.098Z</time>
      </trkpt>
      <trkpt lat="51.265617" lon="9.495233">
        <ele>141.981375</ele>
        <time>2026-03-20T11:12:21.343Z</time>
      </trkpt>
      <trkpt lat="51.265319" lon="9.495468">
        <ele>142.173103</ele>
        <time>2026-03-20T11:12:30.208Z</time>
      </trkpt>
      <trkpt lat="51.265179" lon="9.495572">
        <ele>142.309131</ele>
        <time>2026-03-20T11:12:34.256Z</time>
      </trkpt>
      <trkpt lat="51.265023" lon="9.495711">
        <ele>142.466501</ele>
        <time>2026-03-20T11:12:38.930Z</time>
      </trkpt>
      <trkpt lat="51.264950" lon="9.495845">
        <ele>142.564454</ele>
        <time>2026-03-20T11:12:41.829Z</time>
      </trkpt>
      <trkpt lat="51.264928" lon="9.495953">
        <ele>142.627072</ele>
        <time>2026-03-20T11:12:43.699Z</time>
      </trkpt>
      <trkpt lat="51.264809" lon="9.495958">
        <ele>142.731958</ele>
        <time>2026-03-20T11:12:46.800Z</time>
      </trkpt>
      <trkpt lat="51.264604" lon="9.496134">
        <ele>142.936996</ele>
        <time>2026-03-20T11:12:52.833Z</time>
      </trkpt>
      <trkpt lat="51.264478" lon="9.496285">
        <ele>143.075760</ele>
        <time>2026-03-20T11:12:56.910Z</time>
      </trkpt>
      <trkpt lat="51.264457" lon="9.496312">
        <ele>143.099508</ele>
        <time>2026-03-20T11:12:57.609Z</time>
      </trkpt>
      <trkpt lat="51.264272" lon="9.496578">
        <ele>143.318772</ele>
        <time>2026-03-20T11:13:03.850Z</time>
      </trkpt>
      <trkpt lat="51.263717" lon="9.497389">
        <ele>143.897272</ele>
        <time>2026-03-20T11:13:22.584Z</time>
      </trkpt>
      <trkpt lat="51.263651" lon="9.497473">
        <ele>143.949472</ele>
        <time>2026-03-20T11:13:24.797Z</time>
      </trkpt>
      <trkpt lat="51.263435" lon="9.497730">
        <ele>144.116076</ele>
        <time>2026-03-20T11:13:31.896Z</time>
      </trkpt>
      <trkpt lat="51.263300" lon="9.497932">
        <ele>144.230493</ele>
        <time>2026-03-20T11:13:36.760Z</time>
      </trkpt>
      <trkpt lat="51.263280" lon="9.497970">
        <ele>144.249716</ele>
        <time>2026-03-20T11:13:37.553Z</time>
      </trkpt>
      <trkpt lat="51.263203" lon="9.498104">
        <ele>144.320148</ele>
        <time>2026-03-20T11:13:40.445Z</time>
      </trkpt>
      <trkpt lat="51.263191" lon="9.498117">
        <ele>144.329117</ele>
        <time>2026-03-20T11:13:40.809Z</time>
      </trkpt>
      <trkpt lat="51.262843" lon="9.498448">
        <ele>144.579666</ele>
        <time>2026-03-20T11:13:51.072Z</time>
      </trkpt>
      <trkpt lat="51.262801" lon="9.498493">
        <ele>144.610950</ele>
        <time>2026-03-20T11:13:52.358Z</time>
      </trkpt>
      <trkpt lat="51.262614" lon="9.498736">
        <ele>144.760064</ele>
        <time>2026-03-20T11:13:58.382Z</time>
      </trkpt>
      <trkpt lat="51.262284" lon="9.498954">
        <ele>144.811815</ele>
        <time>2026-03-20T11:14:06.008Z</time>
      </trkpt>
      <trkpt lat="51.261620" lon="9.499356">
        <ele>144.811967</ele>
        <time>2026-03-20T11:14:19.920Z</time>
      </trkpt>
      <trkpt lat="51.261080" lon="9.499352">
        <ele>144.812083</ele>
        <time>2026-03-20T11:14:31.742Z</time>
      </trkpt>
      <trkpt lat="51.260717" lon="9.499555">
        <ele>144.902894</ele>
        <time>2026-03-20T11:14:42.126Z</time>
      </trkpt>
      <trkpt lat="51.260279" lon="9.499904">
        <ele>145.308396</ele>
        <time>2026-03-20T11:14:55.651Z</time>
      </trkpt>
      <trkpt lat="51.259681" lon="9.500478">
        <ele>145.886363</ele>
        <time>2026-03-20T11:15:15.084Z</time>
      </trkpt>
      <trkpt lat="51.259049" lon="9.501126">
        <ele>146.263630</ele>
        <time>2026-03-20T11:15:31.998Z</time>
      </trkpt>
      <trkpt lat="51.258674" lon="9.501593">
        <ele>146.189636</ele>
        <time>2026-03-20T11:15:41.306Z</time>
      </trkpt>
      <trkpt lat="51.257586" lon="9.502717">
        <ele>145.914249</ele>
        <time>2026-03-20T11:16:10.207Z</time>
      </trkpt>
      <trkpt lat="51.255541" lon="9.504936">
        <ele>145.202855</ele>
        <time>2026-03-20T11:17:00.356Z</time>
      </trkpt>
      <trkpt lat="51.255160" lon="9.505350">
        <ele>145.233793</ele>
        <time>2026-03-20T11:17:11.223Z</time>
      </trkpt>
      <trkpt lat="51.254793" lon="9.505735">
        <ele>145.263272</ele>
        <time>2026-03-20T11:17:22.608Z</time>
      </trkpt>
      <trkpt lat="51.254502" lon="9.505977">
        <ele>145.463408</ele>
        <time>2026-03-20T11:17:31.657Z</time>
      </trkpt>
      <trkpt lat="51.253574" lon="9.506531">
        <ele>146.075003</ele>
        <time>2026-03-20T11:17:56.939Z</time>
      </trkpt>
      <trkpt lat="51.253115" lon="9.506963">
        <ele>146.323718</ele>
        <time>2026-03-20T11:18:09.150Z</time>
      </trkpt>
      <trkpt lat="51.253031" lon="9.506974">
        <ele>146.236267</ele>
        <time>2026-03-20T11:18:11.091Z</time>
      </trkpt>
      <trkpt lat="51.252873" lon="9.506902">
        <ele>146.065787</ele>
        <time>2026-03-20T11:18:14.881Z</time>
      </trkpt>
      <trkpt lat="51.252770" lon="9.506877">
        <ele>145.957687</ele>
        <time>2026-03-20T11:18:17.324Z</time>
      </trkpt>
      <trkpt lat="51.251366" lon="9.507202">
        <ele>144.471444</ele>
        <time>2026-03-20T11:18:43.874Z</time>
      </trkpt>
      <trkpt lat="51.251331" lon="9.507001">
        <ele>144.248378</ele>
        <time>2026-03-20T11:18:46.902Z</time>
      </trkpt>
      <trkpt lat="51.251035" lon="9.505629">
        <ele>142.696761</ele>
        <time>2026-03-20T11:19:02.156Z</time>
      </trkpt>
      <trkpt lat="51.250993" lon="9.505523">
        <ele>142.562628</ele>
        <time>2026-03-20T11:19:03.476Z</time>
      </trkpt>
      <trkpt lat="51.250949" lon="9.505516">
        <ele>142.487095</ele>
        <time>2026-03-20T11:19:04.182Z</time>
      </trkpt>
      <trkpt lat="51.250829" lon="9.505738">
        <ele>142.173472</ele>
        <time>2026-03-20T11:19:07.558Z</time>
      </trkpt>
      <trkpt lat="51.250753" lon="9.505826">
        <ele>142.013138</ele>
        <time>2026-03-20T11:19:09.442Z</time>
      </trkpt>
      <trkpt lat="51.250522" lon="9.505958">
        <ele>141.594061</ele>
        <time>2026-03-20T11:19:14.549Z</time>
      </trkpt>
      <trkpt lat="51.250290" lon="9.505993">
        <ele>141.411489</ele>
        <time>2026-03-20T11:19:19.807Z</time>
      </trkpt>
      <trkpt lat="51.249790" lon="9.506035">
        <ele>141.326635</ele>
        <time>2026-03-20T11:19:31.590Z</time>
      </trkpt>
      <trkpt lat="51.249139" lon="9.505901">
        <ele>141.215396</ele>
        <time>2026-03-20T11:19:46.050Z</time>
      </trkpt>
      <trkpt lat="51.248485" lon="9.505356">
        <ele>141.204047</ele>
        <time>2026-03-20T11:20:01.194Z</time>
      </trkpt>
      <trkpt lat="51.247743" lon="9.504500">
        <ele>141.489536</ele>
        <time>2026-03-20T11:20:20.625Z</time>
      </trkpt>
      <trkpt lat="51.247543" lon="9.504234">
        <ele>141.570712</ele>
        <time>2026-03-20T11:20:27.264Z</time>
      </trkpt>
      <trkpt lat="51.247546" lon="9.504084">
        <ele>141.600015</ele>
        <time>2026-03-20T11:20:29.769Z</time>
      </trkpt>
      <trkpt lat="51.248012" lon="9.502412">
        <ele>143.297973</ele>
        <time>2026-03-20T11:21:03.393Z</time>
      </trkpt>
      <trkpt lat="51.248527" lon="9.500500">
        <ele>145.150907</ele>
        <time>2026-03-20T11:21:44.164Z</time>
      </trkpt>
      <trkpt lat="51.248631" lon="9.500042">
        <ele>145.210775</ele>
        <time>2026-03-20T11:21:52.003Z</time>
      </trkpt>
      <trkpt lat="51.248870" lon="9.499173">
        <ele>145.327409</ele>
        <time>2026-03-20T11:22:04.102Z</time>
      </trkpt>
      <trkpt lat="51.249029" lon="9.498671">
        <ele>145.396541</ele>
        <time>2026-03-20T11:22:10.881Z</time>
      </trkpt>
      <trkpt lat="51.249089" lon="9.498400">
        <ele>145.431862</ele>
        <time>2026-03-20T11:22:14.273Z</time>
      </trkpt>
      <trkpt lat="51.249120" lon="9.498066">
        <ele>145.482909</ele>
        <time>2026-03-20T11:22:18.273Z</time>
      </trkpt>
      <trkpt lat="51.249195" lon="9.497668">
        <ele>145.546372</ele>
        <time>2026-03-20T11:22:23.258Z</time>
      </trkpt>
      <trkpt lat="51.249667" lon="9.496522">
        <ele>145.755830</ele>
        <time>2026-03-20T11:22:42.745Z</time>
      </trkpt>
      <trkpt lat="51.250411" lon="9.495319">
        <ele>146.493477</ele>
        <time>2026-03-20T11:23:13.487Z</time>
      </trkpt>
      <trkpt lat="51.250712" lon="9.494904">
        <ele>146.919431</ele>
        <time>2026-03-20T11:23:24.072Z</time>
      </trkpt>
      <trkpt lat="51.251075" lon="9.494435">
        <ele>147.419584</ele>
        <time>2026-03-20T11:23:35.966Z</time>
      </trkpt>
      <trkpt lat="51.251980" lon="9.493764">
        <ele>147.322966</ele>
        <time>2026-03-20T11:24:01.224Z</time>
      </trkpt>
      <trkpt lat="51.252096" lon="9.493587">
        <ele>147.204028</ele>
        <time>2026-03-20T11:24:04.141Z</time>
      </trkpt>
      <trkpt lat="51.252223" lon="9.493510">
        <ele>147.103306</ele>
        <time>2026-03-20T11:24:06.667Z</time>
      </trkpt>
      <trkpt lat="51.252475" lon="9.493334">
        <ele>146.899378</ele>
        <time>2026-03-20T11:24:11.711Z</time>
      </trkpt>
      <trkpt lat="51.252598" lon="9.493059">
        <ele>146.742514</ele>
        <time>2026-03-20T11:24:15.466Z</time>
      </trkpt>
      <trkpt lat="51.252718" lon="9.492626">
        <ele>146.522744</ele>
        <time>2026-03-20T11:24:20.761Z</time>
      </trkpt>
      <trkpt lat="51.252347" lon="9.490780">
        <ele>146.439370</ele>
        <time>2026-03-20T11:24:42.968Z</time>
      </trkpt>
      <trkpt lat="51.252166" lon="9.490105">
        <ele>146.428604</ele>
        <time>2026-03-20T11:24:56.782Z</time>
      </trkpt>
      <trkpt lat="51.251890" lon="9.489579">
        <ele>146.954572</ele>
        <time>2026-03-20T11:25:11.396Z</time>
      </trkpt>
      <trkpt lat="51.251642" lon="9.489110">
        <ele>147.850795</ele>
        <time>2026-03-20T11:25:25.136Z</time>
      </trkpt>
      <trkpt lat="51.251419" lon="9.488694">
        <ele>148.650314</ele>
        <time>2026-03-20T11:25:36.851Z</time>
      </trkpt>
      <trkpt lat="51.251185" lon="9.488225">
        <ele>149.525827</ele>
        <time>2026-03-20T11:25:48.923Z</time>
      </trkpt>
      <trkpt lat="51.251450" lon="9.487863">
        <ele>150.338965</ele>
        <time>2026-03-20T11:25:59.310Z</time>
      </trkpt>
      <trkpt lat="51.251766" lon="9.487416">
        <ele>150.702047</ele>
        <time>2026-03-20T11:26:10.333Z</time>
      </trkpt>
      <trkpt lat="51.252067" lon="9.486927">
        <ele>150.820532</ele>
        <time>2026-03-20T11:26:19.875Z</time>
      </trkpt>
      <trkpt lat="51.252473" lon="9.486170">
        <ele>150.992751</ele>
        <time>2026-03-20T11:26:33.621Z</time>
      </trkpt>
      <trkpt lat="51.252659" lon="9.485703">
        <ele>151.088376</ele>
        <time>2026-03-20T11:26:41.219Z</time>
      </trkpt>
      <trkpt lat="51.253004" lon="9.484720">
        <ele>151.142591</ele>
        <time>2026-03-20T11:26:56.851Z</time>
      </trkpt>
      <trkpt lat="51.253145" lon="9.484118">
        <ele>151.160763</ele>
        <time>2026-03-20T11:27:06.249Z</time>
      </trkpt>
      <trkpt lat="51.253269" lon="9.483483">
        <ele>151.179569</ele>
        <time>2026-03-20T11:27:16.033Z</time>
      </trkpt>
      <trkpt lat="51.253577" lon="9.481870">
        <ele>150.989595</ele>
        <time>2026-03-20T11:27:38.777Z</time>
      </trkpt>
      <trkpt lat="51.253746" lon="9.481051">
        <ele>150.826450</ele>
        <time>2026-03-20T11:27:50.240Z</time>
      </trkpt>
      <trkpt lat="51.253762" lon="9.480969">
        <ele>150.810201</ele>
        <time>2026-03-20T11:27:51.385Z</time>
      </trkpt>
      <trkpt lat="51.253870" lon="9.480161">
        <ele>150.653895</ele>
        <time>2026-03-20T11:28:02.083Z</time>
      </trkpt>
      <trkpt lat="51.253886" lon="9.479619">
        <ele>150.428207</ele>
        <time>2026-03-20T11:28:08.825Z</time>
      </trkpt>
      <trkpt lat="51.253881" lon="9.479085">
        <ele>150.204615</ele>
        <time>2026-03-20T11:28:15.415Z</time>
      </trkpt>
      <trkpt lat="51.253816" lon="9.478468">
        <ele>149.942665</ele>
        <time>2026-03-20T11:28:23.116Z</time>
      </trkpt>
      <trkpt lat="51.253703" lon="9.477800">
        <ele>149.652960</ele>
        <time>2026-03-20T11:28:31.631Z</time>
      </trkpt>
      <trkpt lat="51.253519" lon="9.476731">
        <ele>149.531296</ele>
        <time>2026-03-20T11:28:45.907Z</time>
      </trkpt>
      <trkpt lat="51.253417" lon="9.476215">
        <ele>149.602371</ele>
        <time>2026-03-20T11:28:53.426Z</time>
      </trkpt>
      <trkpt lat="51.253288" lon="9.475755">
        <ele>149.668578</ele>
        <time>2026-03-20T11:29:01.039Z</time>
      </trkpt>
      <trkpt lat="51.253113" lon="9.475325">
        <ele>149.735947</ele>
        <time>2026-03-20T11:29:09.129Z</time>
      </trkpt>
      <trkpt lat="51.252616" lon="9.474319">
        <ele>149.326566</ele>
        <time>2026-03-20T11:29:30.080Z</time>
      </trkpt>
      <trkpt lat="51.252190" lon="9.473512">
        <ele>148.429167</ele>
        <time>2026-03-20T11:29:42.681Z</time>
      </trkpt>
      <trkpt lat="51.252082" lon="9.473380">
        <ele>148.244491</ele>
        <time>2026-03-20T11:29:45.038Z</time>
      </trkpt>
      <trkpt lat="51.252028" lon="9.473420">
        <ele>148.163652</ele>
        <time>2026-03-20T11:29:46.086Z</time>
      </trkpt>
      <trkpt lat="51.252015" lon="9.473439">
        <ele>148.139723</ele>
        <time>2026-03-20T11:29:46.388Z</time>
      </trkpt>
      <trkpt lat="51.252028" lon="9.473420">
        <ele>148.115795</ele>
        <time>2026-03-20T11:29:46.672Z</time>
      </trkpt>
      <trkpt lat="51.252082" lon="9.473380">
        <ele>148.034956</ele>
        <time>2026-03-20T11:29:47.670Z</time>
      </trkpt>
      <trkpt lat="51.252152" lon="9.473161">
        <ele>147.825923</ele>
        <time>2026-03-20T11:29:50.242Z</time>
      </trkpt>
      <trkpt lat="51.252371" lon="9.472903">
        <ele>147.456376</ele>
        <time>2026-03-20T11:29:54.711Z</time>
      </trkpt>
      <trkpt lat="51.252492" lon="9.472738">
        <ele>147.127691</ele>
        <time>2026-03-20T11:29:57.258Z</time>
      </trkpt>
      <trkpt lat="51.252891" lon="9.472141">
        <ele>145.803862</ele>
        <time>2026-03-20T11:30:06.106Z</time>
      </trkpt>
      <trkpt lat="51.253407" lon="9.471369">
        <ele>144.091912</ele>
        <time>2026-03-20T11:30:17.914Z</time>
      </trkpt>
      <trkpt lat="51.253615" lon="9.471088">
        <ele>143.432261</ele>
        <time>2026-03-20T11:30:22.999Z</time>
      </trkpt>
      <trkpt lat="51.253638" lon="9.471220">
        <ele>143.224579</ele>
        <time>2026-03-20T11:30:24.601Z</time>
      </trkpt>
      <trkpt lat="51.253613" lon="9.471353">
        <ele>143.027898</ele>
        <time>2026-03-20T11:30:26.247Z</time>
      </trkpt>
      <trkpt lat="51.253472" lon="9.471503">
        <ele>143.016369</ele>
        <time>2026-03-20T11:30:29.549Z</time>
      </trkpt>
      <trkpt lat="51.253386" lon="9.471554">
        <ele>143.010125</ele>
        <time>2026-03-20T11:30:31.470Z</time>
      </trkpt>
      <trkpt lat="51.253289" lon="9.471504">
        <ele>143.003188</ele>
        <time>2026-03-20T11:30:33.542Z</time>
      </trkpt>
      <trkpt lat="51.253011" lon="9.471213">
        <ele>142.980568</ele>
        <time>2026-03-20T11:30:40.792Z</time>
      </trkpt>
      <trkpt lat="51.252746" lon="9.470876">
        <ele>142.957516</ele>
        <time>2026-03-20T11:30:47.799Z</time>
      </trkpt>
      <trkpt lat="51.252239" lon="9.470069">
        <ele>142.908807</ele>
        <time>2026-03-20T11:31:04.836Z</time>
      </trkpt>
      <trkpt lat="51.251582" lon="9.468951">
        <ele>144.445007</ele>
        <time>2026-03-20T11:31:31.899Z</time>
      </trkpt>
      <trkpt lat="51.251570" lon="9.468865">
        <ele>144.537589</ele>
        <time>2026-03-20T11:31:33.672Z</time>
      </trkpt>
      <trkpt lat="51.251594" lon="9.468751">
        <ele>144.663969</ele>
        <time>2026-03-20T11:31:35.711Z</time>
      </trkpt>
      <trkpt lat="51.251821" lon="9.468330">
        <ele>145.247841</ele>
        <time>2026-03-20T11:31:46.161Z</time>
      </trkpt>
      <trkpt lat="51.251824" lon="9.468199">
        <ele>145.385580</ele>
        <time>2026-03-20T11:31:48.786Z</time>
      </trkpt>
      <trkpt lat="51.251747" lon="9.468090">
        <ele>145.558285</ele>
        <time>2026-03-20T11:31:52.113Z</time>
      </trkpt>
      <trkpt lat="51.251530" lon="9.467879">
        <ele>145.990957</ele>
        <time>2026-03-20T11:32:00.159Z</time>
      </trkpt>
      <trkpt lat="51.250605" lon="9.466838">
        <ele>148.089386</ele>
        <time>2026-03-20T11:32:35.390Z</time>
      </trkpt>
      <trkpt lat="51.249856" lon="9.466207">
        <ele>149.511056</ele>
        <time>2026-03-20T11:32:58.396Z</time>
      </trkpt>
      <trkpt lat="51.249296" lon="9.465810">
        <ele>150.223257</ele>
        <time>2026-03-20T11:33:14.517Z</time>
      </trkpt>
      <trkpt lat="51.249002" lon="9.465462">
        <ele>150.648609</ele>
        <time>2026-03-20T11:33:24.322Z</time>
      </trkpt>
      <trkpt lat="51.248841" lon="9.465158">
        <ele>150.938366</ele>
        <time>2026-03-20T11:33:31.006Z</time>
      </trkpt>
      <trkpt lat="51.248356" lon="9.464646">
        <ele>151.522592</ele>
        <time>2026-03-20T11:33:46.757Z</time>
      </trkpt>
      <trkpt lat="51.248050" lon="9.464425">
        <ele>151.776584</ele>
        <time>2026-03-20T11:33:56.352Z</time>
      </trkpt>
      <trkpt lat="51.247636" lon="9.463996">
        <ele>152.149810</ele>
        <time>2026-03-20T11:34:09.001Z</time>
      </trkpt>
      <trkpt lat="51.247357" lon="9.463705">
        <ele>152.401821</ele>
        <time>2026-03-20T11:34:16.576Z</time>
      </trkpt>
      <trkpt lat="51.246307" lon="9.462732">
        <ele>153.131449</ele>
        <time>2026-03-20T11:34:44.687Z</time>
      </trkpt>
      <trkpt lat="51.245258" lon="9.461992">
        <ele>153.771417</ele>
        <time>2026-03-20T11:35:13.788Z</time>
      </trkpt>
      <trkpt lat="51.244943" lon="9.461840">
        <ele>154.033959</ele>
        <time>2026-03-20T11:35:21.977Z</time>
      </trkpt>
      <trkpt lat="51.244256" lon="9.461436">
        <ele>154.618050</ele>
        <time>2026-03-20T11:35:39.916Z</time>
      </trkpt>
      <trkpt lat="51.243974" lon="9.461390">
        <ele>154.844216</ele>
        <time>2026-03-20T11:35:47.097Z</time>
      </trkpt>
      <trkpt lat="51.243758" lon="9.461354">
        <ele>155.017490</ele>
        <time>2026-03-20T11:35:52.699Z</time>
      </trkpt>
      <trkpt lat="51.242650" lon="9.461001">
        <ele>156.662628</ele>
        <time>2026-03-20T11:36:24.819Z</time>
      </trkpt>
      <trkpt lat="51.242323" lon="9.460971">
        <ele>157.157253</ele>
        <time>2026-03-20T11:36:35.083Z</time>
      </trkpt>
      <trkpt lat="51.241937" lon="9.461018">
        <ele>157.741853</ele>
        <time>2026-03-20T11:36:46.957Z</time>
      </trkpt>
      <trkpt lat="51.241796" lon="9.461002">
        <ele>157.533281</ele>
        <time>2026-03-20T11:36:50.914Z</time>
      </trkpt>
      <trkpt lat="51.241488" lon="9.460834">
        <ele>156.671525</ele>
        <time>2026-03-20T11:36:59.104Z</time>
      </trkpt>
      <trkpt lat="51.241137" lon="9.460868">
        <ele>155.740443</ele>
        <time>2026-03-20T11:37:05.921Z</time>
      </trkpt>
      <trkpt lat="51.240960" lon="9.460929">
        <ele>155.261000</ele>
        <time>2026-03-20T11:37:08.975Z</time>
      </trkpt>
      <trkpt lat="51.240457" lon="9.461293">
        <ele>153.798855</ele>
        <time>2026-03-20T11:37:17.378Z</time>
      </trkpt>
      <trkpt lat="51.239724" lon="9.462591">
        <ele>149.590822</ele>
        <time>2026-03-20T11:37:33.199Z</time>
      </trkpt>
      <trkpt lat="51.239324" lon="9.463340">
        <ele>146.958819</ele>
        <time>2026-03-20T11:37:42.699Z</time>
      </trkpt>
      <trkpt lat="51.237921" lon="9.465721">
        <ele>144.509166</ele>
        <time>2026-03-20T11:38:25.409Z</time>
      </trkpt>
      <trkpt lat="51.237037" lon="9.467597">
        <ele>144.593642</ele>
        <time>2026-03-20T11:38:57.804Z</time>
      </trkpt>
      <trkpt lat="51.236814" lon="9.467979">
        <ele>144.629804</ele>
        <time>2026-03-20T11:39:05.700Z</time>
      </trkpt>
      <trkpt lat="51.236694" lon="9.468092">
        <ele>144.654167</ele>
        <time>2026-03-20T11:39:09.180Z</time>
      </trkpt>
      <trkpt lat="51.236387" lon="9.468186">
        <ele>144.932552</ele>
        <time>2026-03-20T11:39:17.130Z</time>
      </trkpt>
      <trkpt lat="51.235759" lon="9.468192">
        <ele>145.491843</ele>
        <time>2026-03-20T11:39:33.180Z</time>
      </trkpt>
      <trkpt lat="51.235512" lon="9.468199">
        <ele>145.711849</ele>
        <time>2026-03-20T11:39:39.465Z</time>
      </trkpt>
      <trkpt lat="51.234867" lon="9.468284">
        <ele>146.293680</ele>
        <time>2026-03-20T11:39:57.146Z</time>
      </trkpt>
      <trkpt lat="51.234420" lon="9.468219">
        <ele>146.744803</ele>
        <time>2026-03-20T11:40:08.970Z</time>
      </trkpt>
      <trkpt lat="51.234392" lon="9.468198">
        <ele>146.775893</ele>
        <time>2026-03-20T11:40:09.770Z</time>
      </trkpt>
      <trkpt lat="51.234314" lon="9.467965">
        <ele>146.942164</ele>
        <time>2026-03-20T11:40:14.022Z</time>
      </trkpt>
      <trkpt lat="51.234217" lon="9.467710">
        <ele>147.129931</ele>
        <time>2026-03-20T11:40:18.671Z</time>
      </trkpt>
      <trkpt lat="51.234118" lon="9.467669">
        <ele>147.232723</ele>
        <time>2026-03-20T11:40:21.069Z</time>
      </trkpt>
      <trkpt lat="51.233984" lon="9.467718">
        <ele>147.370887</ele>
        <time>2026-03-20T11:40:24.379Z</time>
      </trkpt>
      <trkpt lat="51.233879" lon="9.467700">
        <ele>147.477025</ele>
        <time>2026-03-20T11:40:27.017Z</time>
      </trkpt>
      <trkpt lat="51.233584" lon="9.467289">
        <ele>147.870482</ele>
        <time>2026-03-20T11:40:37.132Z</time>
      </trkpt>
      <trkpt lat="51.233510" lon="9.467240">
        <ele>147.950996</ele>
        <time>2026-03-20T11:40:39.358Z</time>
      </trkpt>
      <trkpt lat="51.233457" lon="9.467358">
        <ele>148.042386</ele>
        <time>2026-03-20T11:40:41.794Z</time>
      </trkpt>
      <trkpt lat="51.233261" lon="9.467607">
        <ele>149.158953</ele>
        <time>2026-03-20T11:40:48.613Z</time>
      </trkpt>
      <trkpt lat="51.233200" lon="9.467769">
        <ele>149.705576</ele>
        <time>2026-03-20T11:40:52.099Z</time>
      </trkpt>
      <trkpt lat="51.233137" lon="9.468057">
        <ele>150.587724</ele>
        <time>2026-03-20T11:40:58.180Z</time>
      </trkpt>
      <trkpt lat="51.233114" lon="9.468110">
        <ele>150.774190</ele>
        <time>2026-03-20T11:40:59.518Z</time>
      </trkpt>
      <trkpt lat="51.232957" lon="9.468248">
        <ele>151.601790</ele>
        <time>2026-03-20T11:41:05.928Z</time>
      </trkpt>
      <trkpt lat="51.232794" lon="9.468250">
        <ele>152.354562</ele>
        <time>2026-03-20T11:41:12.344Z</time>
      </trkpt>
      <trkpt lat="51.232613" lon="9.468153">
        <ele>153.236244</ele>
        <time>2026-03-20T11:41:20.499Z</time>
      </trkpt>
      <trkpt lat="51.232119" lon="9.467440">
        <ele>156.311207</ele>
        <time>2026-03-20T11:41:54.566Z</time>
      </trkpt>
      <trkpt lat="51.231898" lon="9.467176">
        <ele>158.220219</ele>
        <time>2026-03-20T11:42:09.868Z</time>
      </trkpt>
      <trkpt lat="51.231514" lon="9.466743">
        <ele>161.514610</ele>
        <time>2026-03-20T11:42:36.206Z</time>
      </trkpt>
      <trkpt lat="51.231439" lon="9.466577">
        <ele>162.412914</ele>
        <time>2026-03-20T11:42:43.139Z</time>
      </trkpt>
      <trkpt lat="51.231367" lon="9.466161">
        <ele>164.306941</ele>
        <time>2026-03-20T11:42:57.500Z</time>
      </trkpt>
      <trkpt lat="51.231297" lon="9.466004">
        <ele>165.152731</ele>
        <time>2026-03-20T11:43:03.927Z</time>
      </trkpt>
      <trkpt lat="51.230861" lon="9.466159">
        <ele>168.283123</ele>
        <time>2026-03-20T11:43:25.240Z</time>
      </trkpt>
      <trkpt lat="51.230679" lon="9.466184">
        <ele>169.227194</ele>
        <time>2026-03-20T11:43:32.782Z</time>
      </trkpt>
      <trkpt lat="51.230354" lon="9.466162">
        <ele>170.225825</ele>
        <time>2026-03-20T11:43:44.729Z</time>
      </trkpt>
      <trkpt lat="51.230265" lon="9.466193">
        <ele>170.505475</ele>
        <time>2026-03-20T11:43:47.881Z</time>
      </trkpt>
      <trkpt lat="51.230227" lon="9.466202">
        <ele>170.623409</ele>
        <time>2026-03-20T11:43:49.184Z</time>
      </trkpt>
      <trkpt lat="51.230088" lon="9.466277">
        <ele>171.073832</ele>
        <time>2026-03-20T11:43:53.786Z</time>
      </trkpt>
      <trkpt lat="51.230065" lon="9.466290">
        <ele>171.148733</ele>
        <time>2026-03-20T11:43:54.514Z</time>
      </trkpt>
      <trkpt lat="51.229597" lon="9.466546">
        <ele>172.667421</ele>
        <time>2026-03-20T11:44:09.626Z</time>
      </trkpt>
      <trkpt lat="51.229278" lon="9.466688">
        <ele>173.684072</ele>
        <time>2026-03-20T11:44:19.773Z</time>
      </trkpt>
      <trkpt lat="51.229168" lon="9.466731">
        <ele>174.031737</ele>
        <time>2026-03-20T11:44:23.383Z</time>
      </trkpt>
      <trkpt lat="51.229082" lon="9.466688">
        <ele>174.308392</ele>
        <time>2026-03-20T11:44:26.220Z</time>
      </trkpt>
      <trkpt lat="51.229040" lon="9.466626">
        <ele>174.483981</ele>
        <time>2026-03-20T11:44:28.027Z</time>
      </trkpt>
      <trkpt lat="51.228972" lon="9.466311">
        <ele>175.334563</ele>
        <time>2026-03-20T11:44:34.834Z</time>
      </trkpt>
      <trkpt lat="51.228892" lon="9.465523">
        <ele>177.374781</ele>
        <time>2026-03-20T11:44:52.811Z</time>
      </trkpt>
      <trkpt lat="51.228887" lon="9.465476">
        <ele>177.496622</ele>
        <time>2026-03-20T11:44:54.013Z</time>
      </trkpt>
      <trkpt lat="51.228826" lon="9.465063">
        <ele>178.581107</ele>
        <time>2026-03-20T11:45:04.966Z</time>
      </trkpt>
      <trkpt lat="51.228321" lon="9.463086">
        <ele>183.893827</ele>
        <time>2026-03-20T11:46:01.668Z</time>
      </trkpt>
      <trkpt lat="51.227813" lon="9.460878">
        <ele>189.225801</ele>
        <time>2026-03-20T11:46:53.947Z</time>
      </trkpt>
      <trkpt lat="51.227657" lon="9.460333">
        <ele>190.157459</ele>
        <time>2026-03-20T11:47:06.321Z</time>
      </trkpt>
      <trkpt lat="51.227590" lon="9.460099">
        <ele>190.557496</ele>
        <time>2026-03-20T11:47:11.524Z</time>
      </trkpt>
      <trkpt lat="51.227236" lon="9.459045">
        <ele>192.417019</ele>
        <time>2026-03-20T11:47:34.769Z</time>
      </trkpt>
      <trkpt lat="51.226881" lon="9.458089">
        <ele>193.866577</ele>
        <time>2026-03-20T11:47:55.840Z</time>
      </trkpt>
      <trkpt lat="51.226621" lon="9.457391">
        <ele>194.774099</ele>
        <time>2026-03-20T11:48:10.928Z</time>
      </trkpt>
      <trkpt lat="51.226144" lon="9.456031">
        <ele>196.432991</ele>
        <time>2026-03-20T11:48:39.611Z</time>
      </trkpt>
      <trkpt lat="51.225953" lon="9.455398">
        <ele>196.788075</ele>
        <time>2026-03-20T11:48:51.243Z</time>
      </trkpt>
      <trkpt lat="51.225764" lon="9.454589">
        <ele>197.224429</ele>
        <time>2026-03-20T11:49:04.693Z</time>
      </trkpt>
      <trkpt lat="51.225575" lon="9.453670">
        <ele>197.713255</ele>
        <time>2026-03-20T11:49:19.451Z</time>
      </trkpt>
      <trkpt lat="51.225303" lon="9.452731">
        <ele>198.056248</ele>
        <time>2026-03-20T11:49:34.758Z</time>
      </trkpt>
      <trkpt lat="51.225117" lon="9.452227">
        <ele>198.225344</ele>
        <time>2026-03-20T11:49:43.630Z</time>
      </trkpt>
      <trkpt lat="51.224140" lon="9.449739">
        <ele>199.420903</ele>
        <time>2026-03-20T11:50:28.306Z</time>
      </trkpt>
      <trkpt lat="51.223747" lon="9.448346">
        <ele>200.258103</ele>
        <time>2026-03-20T11:50:53.670Z</time>
      </trkpt>
      <trkpt lat="51.223263" lon="9.446452">
        <ele>201.894811</ele>
        <time>2026-03-20T11:51:29.389Z</time>
      </trkpt>
      <trkpt lat="51.222769" lon="9.444065">
        <ele>203.147696</ele>
        <time>2026-03-20T11:52:11.371Z</time>
      </trkpt>
      <trkpt lat="51.222756" lon="9.444001">
        <ele>203.173556</ele>
        <time>2026-03-20T11:52:12.404Z</time>
      </trkpt>
      <trkpt lat="51.221913" lon="9.441230">
        <ele>203.042374</ele>
        <time>2026-03-20T11:52:53.537Z</time>
      </trkpt>
      <trkpt lat="51.221117" lon="9.438733">
        <ele>201.679627</ele>
        <time>2026-03-20T11:53:28.047Z</time>
      </trkpt>
      <trkpt lat="51.220754" lon="9.437641">
        <ele>200.852120</ele>
        <time>2026-03-20T11:53:42.918Z</time>
      </trkpt>
      <trkpt lat="51.220468" lon="9.436688">
        <ele>199.942057</ele>
        <time>2026-03-20T11:53:55.083Z</time>
      </trkpt>
      <trkpt lat="51.220313" lon="9.436051">
        <ele>199.353532</ele>
        <time>2026-03-20T11:54:02.885Z</time>
      </trkpt>
      <trkpt lat="51.220272" lon="9.435459">
        <ele>198.840597</ele>
        <time>2026-03-20T11:54:09.809Z</time>
      </trkpt>
      <trkpt lat="51.220239" lon="9.435085">
        <ele>198.486919</ele>
        <time>2026-03-20T11:54:14.210Z</time>
      </trkpt>
      <trkpt lat="51.220079" lon="9.434794">
        <ele>198.106965</ele>
        <time>2026-03-20T11:54:18.721Z</time>
      </trkpt>
      <trkpt lat="51.219891" lon="9.434413">
        <ele>197.631031</ele>
        <time>2026-03-20T11:54:24.485Z</time>
      </trkpt>
      <trkpt lat="51.219747" lon="9.434020">
        <ele>197.184261</ele>
        <time>2026-03-20T11:54:29.882Z</time>
      </trkpt>
      <trkpt lat="51.219387" lon="9.432734">
        <ele>195.832608</ele>
        <time>2026-03-20T11:54:45.586Z</time>
      </trkpt>
      <trkpt lat="51.219097" lon="9.431663">
        <ele>195.039932</ele>
        <time>2026-03-20T11:54:58.272Z</time>
      </trkpt>
      <trkpt lat="51.218308" lon="9.428709">
        <ele>195.110871</ele>
        <time>2026-03-20T11:55:40.787Z</time>
      </trkpt>
      <trkpt lat="51.218149" lon="9.428391">
        <ele>195.404579</ele>
        <time>2026-03-20T11:55:49.302Z</time>
      </trkpt>
      <trkpt lat="51.217494" lon="9.427475">
        <ele>196.124677</ele>
        <time>2026-03-20T11:56:19.908Z</time>
      </trkpt>
      <trkpt lat="51.217240" lon="9.427171">
        <ele>196.221122</ele>
        <time>2026-03-20T11:56:30.941Z</time>
      </trkpt>
      <trkpt lat="51.216436" lon="9.426250">
        <ele>196.521760</ele>
        <time>2026-03-20T11:56:52.172Z</time>
      </trkpt>
      <trkpt lat="51.216153" lon="9.425868">
        <ele>195.635106</ele>
        <time>2026-03-20T11:56:57.972Z</time>
      </trkpt>
      <trkpt lat="51.215918" lon="9.425496">
        <ele>194.182317</ele>
        <time>2026-03-20T11:57:03.011Z</time>
      </trkpt>
      <trkpt lat="51.215673" lon="9.425018">
        <ele>192.483971</ele>
        <time>2026-03-20T11:57:08.752Z</time>
      </trkpt>
      <trkpt lat="51.215018" lon="9.423739">
        <ele>188.152926</ele>
        <time>2026-03-20T11:57:24.388Z</time>
      </trkpt>
      <trkpt lat="51.214494" lon="9.422716">
        <ele>185.569362</ele>
        <time>2026-03-20T11:57:38.131Z</time>
      </trkpt>
      <trkpt lat="51.214400" lon="9.422475">
        <ele>185.014315</ele>
        <time>2026-03-20T11:57:41.067Z</time>
      </trkpt>
      <trkpt lat="51.214276" lon="9.421782">
        <ele>183.605255</ele>
        <time>2026-03-20T11:57:48.643Z</time>
      </trkpt>
      <trkpt lat="51.214132" lon="9.421518">
        <ele>183.005348</ele>
        <time>2026-03-20T11:57:52.370Z</time>
      </trkpt>
      <trkpt lat="51.214087" lon="9.421429">
        <ele>182.917414</ele>
        <time>2026-03-20T11:57:53.599Z</time>
      </trkpt>
      <trkpt lat="51.213862" lon="9.420871">
        <ele>182.407214</ele>
        <time>2026-03-20T11:58:00.752Z</time>
      </trkpt>
      <trkpt lat="51.214010" lon="9.420345">
        <ele>181.963891</ele>
        <time>2026-03-20T11:58:07.196Z</time>
      </trkpt>
      <trkpt lat="51.214196" lon="9.419791">
        <ele>181.480643</ele>
        <time>2026-03-20T11:58:14.804Z</time>
      </trkpt>
      <trkpt lat="51.214153" lon="9.419691">
        <ele>181.387391</ele>
        <time>2026-03-20T11:58:16.448Z</time>
      </trkpt>
      <trkpt lat="51.214226" lon="9.419425">
        <ele>181.164119</ele>
        <time>2026-03-20T11:58:20.560Z</time>
      </trkpt>
      <trkpt lat="51.214196" lon="9.419058">
        <ele>180.879570</ele>
        <time>2026-03-20T11:58:25.966Z</time>
      </trkpt>
      <trkpt lat="51.214532" lon="9.418870">
        <ele>180.852951</ele>
        <time>2026-03-20T11:58:34.211Z</time>
      </trkpt>
      <trkpt lat="51.214730" lon="9.418682">
        <ele>180.853223</ele>
        <time>2026-03-20T11:58:39.624Z</time>
      </trkpt>
      <trkpt lat="51.214924" lon="9.418429">
        <ele>180.853519</ele>
        <time>2026-03-20T11:58:45.302Z</time>
      </trkpt>
      <trkpt lat="51.215168" lon="9.417949">
        <ele>180.853976</ele>
        <time>2026-03-20T11:58:53.712Z</time>
      </trkpt>
      <trkpt lat="51.215412" lon="9.417366">
        <ele>180.854495</ele>
        <time>2026-03-20T11:59:03.390Z</time>
      </trkpt>
      <trkpt lat="51.215540" lon="9.416934">
        <ele>180.860033</ele>
        <time>2026-03-20T11:59:09.876Z</time>
      </trkpt>
      <trkpt lat="51.215592" lon="9.416654">
        <ele>180.866927</ele>
        <time>2026-03-20T11:59:13.844Z</time>
      </trkpt>
      <trkpt lat="51.215620" lon="9.416410">
        <ele>180.872782</ele>
        <time>2026-03-20T11:59:17.238Z</time>
      </trkpt>
      <trkpt lat="51.215624" lon="9.416350">
        <ele>180.874206</ele>
        <time>2026-03-20T11:59:18.059Z</time>
      </trkpt>
      <trkpt lat="51.215634" lon="9.416050">
        <ele>180.881297</ele>
        <time>2026-03-20T11:59:22.112Z</time>
      </trkpt>
      <trkpt lat="51.215607" lon="9.414927">
        <ele>180.907824</ele>
        <time>2026-03-20T11:59:37.567Z</time>
      </trkpt>
      <trkpt lat="51.215557" lon="9.414207">
        <ele>181.017966</ele>
        <time>2026-03-20T11:59:48.425Z</time>
      </trkpt>
      <trkpt lat="51.215527" lon="9.413894">
        <ele>181.307569</ele>
        <time>2026-03-20T11:59:53.123Z</time>
      </trkpt>
      <trkpt lat="51.215580" lon="9.413868">
        <ele>181.388526</ele>
        <time>2026-03-20T11:59:54.432Z</time>
      </trkpt>
      <trkpt lat="51.215600" lon="9.413804">
        <ele>181.453941</ele>
        <time>2026-03-20T11:59:55.522Z</time>
      </trkpt>
      <trkpt lat="51.215542" lon="9.413074">
        <ele>182.126951</ele>
        <time>2026-03-20T12:00:07.064Z</time>
      </trkpt>
      <trkpt lat="51.215535" lon="9.412387">
        <ele>182.755367</ele>
        <time>2026-03-20T12:00:19.255Z</time>
      </trkpt>
      <trkpt lat="51.215584" lon="9.411978">
        <ele>183.136221</ele>
        <time>2026-03-20T12:00:27.321Z</time>
      </trkpt>
      <trkpt lat="51.217062" lon="9.410779">
        <ele>187.700498</ele>
        <time>2026-03-20T12:01:25.073Z</time>
      </trkpt>
      <trkpt lat="51.218566" lon="9.409542">
        <ele>191.867081</ele>
        <time>2026-03-20T12:02:21.976Z</time>
      </trkpt>
      <trkpt lat="51.218578" lon="9.409452">
        <ele>191.998331</ele>
        <time>2026-03-20T12:02:23.683Z</time>
      </trkpt>
      <trkpt lat="51.218000" lon="9.406268">
        <ele>194.794772</ele>
        <time>2026-03-20T12:03:17.862Z</time>
      </trkpt>
      <trkpt lat="51.218013" lon="9.406083">
        <ele>194.919855</ele>
        <time>2026-03-20T12:03:20.913Z</time>
      </trkpt>
      <trkpt lat="51.216360" lon="9.397064">
        <ele>202.822389</ele>
        <time>2026-03-20T12:06:05.302Z</time>
      </trkpt>
      <trkpt lat="51.216312" lon="9.396601">
        <ele>203.023084</ele>
        <time>2026-03-20T12:06:12.585Z</time>
      </trkpt>
      <trkpt lat="51.216190" lon="9.393595">
        <ele>205.454569</ele>
        <time>2026-03-20T12:06:57.476Z</time>
      </trkpt>
      <trkpt lat="51.216238" lon="9.392978">
        <ele>206.281029</ele>
        <time>2026-03-20T12:07:09.923Z</time>
      </trkpt>
      <trkpt lat="51.216802" lon="9.393046">
        <ele>207.481320</ele>
        <time>2026-03-20T12:07:30.810Z</time>
      </trkpt>
      <trkpt lat="51.216974" lon="9.393085">
        <ele>208.104695</ele>
        <time>2026-03-20T12:07:37.815Z</time>
      </trkpt>
      <trkpt lat="51.217303" lon="9.393133">
        <ele>209.482175</ele>
        <time>2026-03-20T12:07:51.567Z</time>
      </trkpt>
      <trkpt lat="51.217414" lon="9.393201">
        <ele>209.977892</ele>
        <time>2026-03-20T12:07:56.629Z</time>
      </trkpt>
      <trkpt lat="51.217574" lon="9.393649">
        <ele>211.324729</ele>
        <time>2026-03-20T12:08:10.477Z</time>
      </trkpt>
      <trkpt lat="51.217717" lon="9.393727">
        <ele>211.954805</ele>
        <time>2026-03-20T12:08:16.882Z</time>
      </trkpt>
      <trkpt lat="51.217801" lon="9.393764">
        <ele>212.318128</ele>
        <time>2026-03-20T12:08:20.521Z</time>
      </trkpt>
      <trkpt lat="51.218606" lon="9.393529">
        <ele>215.181189</ele>
        <time>2026-03-20T12:08:51.041Z</time>
      </trkpt>
      <trkpt lat="51.219264" lon="9.393294">
        <ele>215.598753</ele>
        <time>2026-03-20T12:09:10.680Z</time>
      </trkpt>
      <trkpt lat="51.219386" lon="9.393223">
        <ele>215.679170</ele>
        <time>2026-03-20T12:09:13.843Z</time>
      </trkpt>
      <trkpt lat="51.219900" lon="9.392706">
        <ele>216.055387</ele>
        <time>2026-03-20T12:09:26.198Z</time>
      </trkpt>
      <trkpt lat="51.220678" lon="9.391871">
        <ele>214.936915</ele>
        <time>2026-03-20T12:09:42.524Z</time>
      </trkpt>
      <trkpt lat="51.221260" lon="9.390930">
        <ele>213.453872</ele>
        <time>2026-03-20T12:09:56.753Z</time>
      </trkpt>
      <trkpt lat="51.221336" lon="9.390727">
        <ele>213.188658</ele>
        <time>2026-03-20T12:09:59.600Z</time>
      </trkpt>
      <trkpt lat="51.221401" lon="9.390101">
        <ele>212.434955</ele>
        <time>2026-03-20T12:10:07.768Z</time>
      </trkpt>
      <trkpt lat="51.221478" lon="9.389726">
        <ele>211.955257</ele>
        <time>2026-03-20T12:10:12.775Z</time>
      </trkpt>
      <trkpt lat="51.221370" lon="9.389512">
        <ele>211.621192</ele>
        <time>2026-03-20T12:10:16.212Z</time>
      </trkpt>
      <trkpt lat="51.221344" lon="9.389399">
        <ele>211.474860</ele>
        <time>2026-03-20T12:10:17.688Z</time>
      </trkpt>
      <trkpt lat="51.221323" lon="9.388937">
        <ele>210.911803</ele>
        <time>2026-03-20T12:10:23.278Z</time>
      </trkpt>
      <trkpt lat="51.221393" lon="9.388550">
        <ele>210.422164</ele>
        <time>2026-03-20T12:10:27.954Z</time>
      </trkpt>
      <trkpt lat="51.221446" lon="9.388269">
        <ele>210.065446</ele>
        <time>2026-03-20T12:10:31.215Z</time>
      </trkpt>
      <trkpt lat="51.221494" lon="9.387940">
        <ele>209.654827</ele>
        <time>2026-03-20T12:10:34.833Z</time>
      </trkpt>
      <trkpt lat="51.221507" lon="9.387844">
        <ele>209.535439</ele>
        <time>2026-03-20T12:10:35.872Z</time>
      </trkpt>
      <trkpt lat="51.221526" lon="9.387593">
        <ele>209.010946</ele>
        <time>2026-03-20T12:10:38.476Z</time>
      </trkpt>
      <trkpt lat="51.221514" lon="9.387267">
        <ele>208.282404</ele>
        <time>2026-03-20T12:10:41.736Z</time>
      </trkpt>
      <trkpt lat="51.221496" lon="9.387152">
        <ele>208.017955</ele>
        <time>2026-03-20T12:10:42.907Z</time>
      </trkpt>
      <trkpt lat="51.221480" lon="9.387050">
        <ele>207.783370</ele>
        <time>2026-03-20T12:10:43.926Z</time>
      </trkpt>
      <trkpt lat="51.221294" lon="9.386524">
        <ele>206.435777</ele>
        <time>2026-03-20T12:10:49.898Z</time>
      </trkpt>
      <trkpt lat="51.221222" lon="9.386436">
        <ele>206.112794</ele>
        <time>2026-03-20T12:10:51.349Z</time>
      </trkpt>
      <trkpt lat="51.221219" lon="9.386223">
        <ele>205.637480</ele>
        <time>2026-03-20T12:10:53.416Z</time>
      </trkpt>
      <trkpt lat="51.221206" lon="9.385473">
        <ele>203.963622</ele>
        <time>2026-03-20T12:11:01.113Z</time>
      </trkpt>
      <trkpt lat="51.221273" lon="9.385435">
        <ele>203.710356</ele>
        <time>2026-03-20T12:11:02.345Z</time>
      </trkpt>
      <trkpt lat="51.221311" lon="9.385124">
        <ele>203.074265</ele>
        <time>2026-03-20T12:11:05.775Z</time>
      </trkpt>
      <trkpt lat="51.221364" lon="9.384561">
        <ele>202.959969</ele>
        <time>2026-03-20T12:11:12.444Z</time>
      </trkpt>
      <trkpt lat="51.221478" lon="9.383995">
        <ele>202.840609</ele>
        <time>2026-03-20T12:11:20.468Z</time>
      </trkpt>
      <trkpt lat="51.221412" lon="9.383863">
        <ele>202.806700</ele>
        <time>2026-03-20T12:11:22.825Z</time>
      </trkpt>
      <trkpt lat="51.221357" lon="9.383781">
        <ele>202.782579</ele>
        <time>2026-03-20T12:11:24.659Z</time>
      </trkpt>
      <trkpt lat="51.221153" lon="9.383351">
        <ele>202.674283</ele>
        <time>2026-03-20T12:11:32.742Z</time>
      </trkpt>
      <trkpt lat="51.221037" lon="9.383109">
        <ele>202.613103</ele>
        <time>2026-03-20T12:11:37.319Z</time>
      </trkpt>
      <trkpt lat="51.220925" lon="9.382799">
        <ele>202.541256</ele>
        <time>2026-03-20T12:11:42.691Z</time>
      </trkpt>
      <trkpt lat="51.220837" lon="9.382693">
        <ele>202.505921</ele>
        <time>2026-03-20T12:11:45.229Z</time>
      </trkpt>
      <trkpt lat="51.220721" lon="9.382616">
        <ele>202.591940</ele>
        <time>2026-03-20T12:11:48.003Z</time>
      </trkpt>
      <trkpt lat="51.220414" lon="9.382458">
        <ele>202.822671</ele>
        <time>2026-03-20T12:11:55.789Z</time>
      </trkpt>
      <trkpt lat="51.220007" lon="9.382406">
        <ele>203.114738</ele>
        <time>2026-03-20T12:12:06.212Z</time>
      </trkpt>
      <trkpt lat="51.219220" lon="9.382379">
        <ele>203.677826</ele>
        <time>2026-03-20T12:12:26.078Z</time>
      </trkpt>
      <trkpt lat="51.218873" lon="9.382342">
        <ele>204.004226</ele>
        <time>2026-03-20T12:12:35.177Z</time>
      </trkpt>
      <trkpt lat="51.218638" lon="9.382105">
        <ele>204.317174</ele>
        <time>2026-03-20T12:12:42.602Z</time>
      </trkpt>
      <trkpt lat="51.218607" lon="9.381594">
        <ele>204.679215</ele>
        <time>2026-03-20T12:12:51.302Z</time>
      </trkpt>
      <trkpt lat="51.218585" lon="9.381106">
        <ele>205.024241</ele>
        <time>2026-03-20T12:12:59.573Z</time>
      </trkpt>
      <trkpt lat="51.218501" lon="9.380756">
        <ele>205.288559</ele>
        <time>2026-03-20T12:13:05.972Z</time>
      </trkpt>
      <trkpt lat="51.218436" lon="9.380601">
        <ele>205.420101</ele>
        <time>2026-03-20T12:13:09.203Z</time>
      </trkpt>
      <trkpt lat="51.218361" lon="9.380509">
        <ele>205.526588</ele>
        <time>2026-03-20T12:13:11.826Z</time>
      </trkpt>
      <trkpt lat="51.218362" lon="9.380395">
        <ele>205.606989</ele>
        <time>2026-03-20T12:13:13.794Z</time>
      </trkpt>
      <trkpt lat="51.218296" lon="9.380161">
        <ele>205.787965</ele>
        <time>2026-03-20T12:13:18.255Z</time>
      </trkpt>
      <trkpt lat="51.218051" lon="9.379558">
        <ele>206.024026</ele>
        <time>2026-03-20T12:13:30.248Z</time>
      </trkpt>
      <trkpt lat="51.217682" lon="9.378645">
        <ele>206.356560</ele>
        <time>2026-03-20T12:13:46.445Z</time>
      </trkpt>
      <trkpt lat="51.216809" lon="9.376878">
        <ele>207.009611</ele>
        <time>2026-03-20T12:14:18.398Z</time>
      </trkpt>
      <trkpt lat="51.216689" lon="9.376648">
        <ele>207.091879</ele>
        <time>2026-03-20T12:14:22.876Z</time>
      </trkpt>
      <trkpt lat="51.216167" lon="9.376039">
        <ele>207.375556</ele>
        <time>2026-03-20T12:14:38.897Z</time>
      </trkpt>
      <trkpt lat="51.216003" lon="9.375765">
        <ele>207.479713</ele>
        <time>2026-03-20T12:14:45.026Z</time>
      </trkpt>
      <trkpt lat="51.215876" lon="9.375436">
        <ele>207.583068</ele>
        <time>2026-03-20T12:14:51.325Z</time>
      </trkpt>
      <trkpt lat="51.215765" lon="9.374956">
        <ele>207.719734</ele>
        <time>2026-03-20T12:14:59.352Z</time>
      </trkpt>
      <trkpt lat="51.215683" lon="9.374340">
        <ele>207.887943</ele>
        <time>2026-03-20T12:15:08.917Z</time>
      </trkpt>
      <trkpt lat="51.215591" lon="9.373965">
        <ele>207.995514</ele>
        <time>2026-03-20T12:15:14.857Z</time>
      </trkpt>
      <trkpt lat="51.215277" lon="9.373147">
        <ele>208.251329</ele>
        <time>2026-03-20T12:15:28.620Z</time>
      </trkpt>
      <trkpt lat="51.215064" lon="9.372457">
        <ele>208.229300</ele>
        <time>2026-03-20T12:15:39.259Z</time>
      </trkpt>
      <trkpt lat="51.214720" lon="9.371123">
        <ele>208.187986</ele>
        <time>2026-03-20T12:15:58.845Z</time>
      </trkpt>
      <trkpt lat="51.214326" lon="9.369923">
        <ele>208.479792</ele>
        <time>2026-03-20T12:16:17.417Z</time>
      </trkpt>
      <trkpt lat="51.214040" lon="9.369205">
        <ele>208.859136</ele>
        <time>2026-03-20T12:16:29.925Z</time>
      </trkpt>
      <trkpt lat="51.213975" lon="9.368960">
        <ele>208.977758</ele>
        <time>2026-03-20T12:16:34.064Z</time>
      </trkpt>
      <trkpt lat="51.213932" lon="9.368741">
        <ele>209.080079</ele>
        <time>2026-03-20T12:16:37.770Z</time>
      </trkpt>
      <trkpt lat="51.213921" lon="9.368464">
        <ele>209.203823</ele>
        <time>2026-03-20T12:16:42.421Z</time>
      </trkpt>
      <trkpt lat="51.214101" lon="9.367361">
        <ele>210.455734</ele>
        <time>2026-03-20T12:17:03.566Z</time>
      </trkpt>
      <trkpt lat="51.214129" lon="9.366909">
        <ele>211.231510</ele>
        <time>2026-03-20T12:17:12.916Z</time>
      </trkpt>
      <trkpt lat="51.214140" lon="9.366753">
        <ele>211.499638</ele>
        <time>2026-03-20T12:17:16.257Z</time>
      </trkpt>
      <trkpt lat="51.214014" lon="9.364776">
        <ele>214.979977</ele>
        <time>2026-03-20T12:18:00.007Z</time>
      </trkpt>
      <trkpt lat="51.213935" lon="9.364024">
        <ele>216.490152</ele>
        <time>2026-03-20T12:18:16.639Z</time>
      </trkpt>
      <trkpt lat="51.213447" lon="9.359946">
        <ele>225.414155</ele>
        <time>2026-03-20T12:19:47.181Z</time>
      </trkpt>
      <trkpt lat="51.213287" lon="9.358640">
        <ele>229.802371</ele>
        <time>2026-03-20T12:20:22.933Z</time>
      </trkpt>
      <trkpt lat="51.213279" lon="9.358090">
        <ele>231.967444</ele>
        <time>2026-03-20T12:20:39.167Z</time>
      </trkpt>
      <trkpt lat="51.213296" lon="9.357889">
        <ele>232.765644</ele>
        <time>2026-03-20T12:20:45.496Z</time>
      </trkpt>
      <trkpt lat="51.213367" lon="9.357569">
        <ele>234.101643</ele>
        <time>2026-03-20T12:20:56.276Z</time>
      </trkpt>
      <trkpt lat="51.213633" lon="9.356834">
        <ele>237.442207</ele>
        <time>2026-03-20T12:21:23.620Z</time>
      </trkpt>
      <trkpt lat="51.213654" lon="9.356700">
        <ele>237.996773</ele>
        <time>2026-03-20T12:21:28.137Z</time>
      </trkpt>
      <trkpt lat="51.213652" lon="9.356389">
        <ele>239.348044</ele>
        <time>2026-03-20T12:21:38.181Z</time>
      </trkpt>
      <trkpt lat="51.213562" lon="9.355927">
        <ele>241.450114</ele>
        <time>2026-03-20T12:21:53.738Z</time>
      </trkpt>
      <trkpt lat="51.213439" lon="9.355587">
        <ele>243.155957</ele>
        <time>2026-03-20T12:22:06.305Z</time>
      </trkpt>
      <trkpt lat="51.213108" lon="9.355004">
        <ele>246.574493</ele>
        <time>2026-03-20T12:22:31.673Z</time>
      </trkpt>
      <trkpt lat="51.212996" lon="9.354740">
        <ele>247.959797</ele>
        <time>2026-03-20T12:22:41.592Z</time>
      </trkpt>
      <trkpt lat="51.212920" lon="9.354499">
        <ele>249.132079</ele>
        <time>2026-03-20T12:22:49.700Z</time>
      </trkpt>
      <trkpt lat="51.212795" lon="9.353928">
        <ele>251.487346</ele>
        <time>2026-03-20T12:23:07.267Z</time>
      </trkpt>
      <trkpt lat="51.212762" lon="9.353583">
        <ele>252.709287</ele>
        <time>2026-03-20T12:23:17.234Z</time>
      </trkpt>
      <trkpt lat="51.212781" lon="9.353051">
        <ele>254.574992</ele>
        <time>2026-03-20T12:23:32.278Z</time>
      </trkpt>
      <trkpt lat="51.212880" lon="9.352521">
        <ele>256.511409</ele>
        <time>2026-03-20T12:23:47.650Z</time>
      </trkpt>
      <trkpt lat="51.213470" lon="9.350143">
        <ele>263.626828</ele>
        <time>2026-03-20T12:24:56.584Z</time>
      </trkpt>
      <trkpt lat="51.213499" lon="9.349916">
        <ele>264.142934</ele>
        <time>2026-03-20T12:25:02.318Z</time>
      </trkpt>
      <trkpt lat="51.213465" lon="9.349439">
        <ele>265.212422</ele>
        <time>2026-03-20T12:25:13.016Z</time>
      </trkpt>
      <trkpt lat="51.213346" lon="9.349100">
        <ele>266.078119</ele>
        <time>2026-03-20T12:25:20.451Z</time>
      </trkpt>
      <trkpt lat="51.213256" lon="9.348959">
        <ele>266.526572</ele>
        <time>2026-03-20T12:25:23.876Z</time>
      </trkpt>
      <trkpt lat="51.212935" lon="9.348612">
        <ele>266.097270</ele>
        <time>2026-03-20T12:25:32.762Z</time>
      </trkpt>
      <trkpt lat="51.212316" lon="9.347991">
        <ele>264.425241</ele>
        <time>2026-03-20T12:25:45.453Z</time>
      </trkpt>
      <trkpt lat="51.212085" lon="9.347678">
        <ele>263.732279</ele>
        <time>2026-03-20T12:25:50.236Z</time>
      </trkpt>
      <trkpt lat="51.211891" lon="9.347258">
        <ele>262.984659</ele>
        <time>2026-03-20T12:25:55.276Z</time>
      </trkpt>
      <trkpt lat="51.211191" lon="9.345259">
        <ele>257.047424</ele>
        <time>2026-03-20T12:26:17.479Z</time>
      </trkpt>
      <trkpt lat="51.210700" lon="9.343901">
        <ele>253.163240</ele>
        <time>2026-03-20T12:26:32.706Z</time>
      </trkpt>
      <trkpt lat="51.210489" lon="9.343233">
        <ele>251.482259</ele>
        <time>2026-03-20T12:26:40.093Z</time>
      </trkpt>
      <trkpt lat="51.210443" lon="9.342765">
        <ele>250.417808</ele>
        <time>2026-03-20T12:26:44.849Z</time>
      </trkpt>
      <trkpt lat="51.210489" lon="9.342428">
        <ele>249.642810</ele>
        <time>2026-03-20T12:26:48.366Z</time>
      </trkpt>
      <trkpt lat="51.210782" lon="9.341333">
        <ele>247.479547</ele>
        <time>2026-03-20T12:27:00.837Z</time>
      </trkpt>
      <trkpt lat="51.210808" lon="9.341104">
        <ele>247.134937</ele>
        <time>2026-03-20T12:27:03.369Z</time>
      </trkpt>
      <trkpt lat="51.210796" lon="9.340958">
        <ele>246.916898</ele>
        <time>2026-03-20T12:27:05.001Z</time>
      </trkpt>
      <trkpt lat="51.210732" lon="9.340667">
        <ele>246.460224</ele>
        <time>2026-03-20T12:27:08.425Z</time>
      </trkpt>
      <trkpt lat="51.210072" lon="9.338591">
        <ele>242.528483</ele>
        <time>2026-03-20T12:27:33.805Z</time>
      </trkpt>
      <trkpt lat="51.209535" lon="9.336984">
        <ele>238.747078</ele>
        <time>2026-03-20T12:27:51.974Z</time>
      </trkpt>
      <trkpt lat="51.209371" lon="9.336577">
        <ele>237.642470</ele>
        <time>2026-03-20T12:27:56.646Z</time>
      </trkpt>
      <trkpt lat="51.208494" lon="9.335244">
        <ele>232.850290</ele>
        <time>2026-03-20T12:28:15.344Z</time>
      </trkpt>
      <trkpt lat="51.207892" lon="9.334166">
        <ele>230.709346</ele>
        <time>2026-03-20T12:28:30.016Z</time>
      </trkpt>
      <trkpt lat="51.207517" lon="9.333421">
        <ele>230.164133</ele>
        <time>2026-03-20T12:28:41.434Z</time>
      </trkpt>
      <trkpt lat="51.207422" lon="9.333238">
        <ele>230.028546</ele>
        <time>2026-03-20T12:28:44.842Z</time>
      </trkpt>
      <trkpt lat="51.207353" lon="9.333086">
        <ele>229.921458</ele>
        <time>2026-03-20T12:28:47.768Z</time>
      </trkpt>
      <trkpt lat="51.207293" lon="9.332954">
        <ele>229.828419</ele>
        <time>2026-03-20T12:28:50.343Z</time>
      </trkpt>
      <trkpt lat="51.207140" lon="9.332617">
        <ele>229.590982</ele>
        <time>2026-03-20T12:28:57.231Z</time>
      </trkpt>
      <trkpt lat="51.207073" lon="9.332418">
        <ele>229.602188</ele>
        <time>2026-03-20T12:29:01.068Z</time>
      </trkpt>
      <trkpt lat="51.206881" lon="9.331478">
        <ele>231.036347</ele>
        <time>2026-03-20T12:29:19.183Z</time>
      </trkpt>
      <trkpt lat="51.206828" lon="9.331360">
        <ele>231.246956</ele>
        <time>2026-03-20T12:29:22.066Z</time>
      </trkpt>
      <trkpt lat="51.206472" lon="9.331011">
        <ele>232.214257</ele>
        <time>2026-03-20T12:29:35.911Z</time>
      </trkpt>
      <trkpt lat="51.206396" lon="9.330860">
        <ele>232.495219</ele>
        <time>2026-03-20T12:29:39.962Z</time>
      </trkpt>
      <trkpt lat="51.206695" lon="9.330513">
        <ele>233.351143</ele>
        <time>2026-03-20T12:29:52.298Z</time>
      </trkpt>
      <trkpt lat="51.207395" lon="9.329996">
        <ele>235.531819</ele>
        <time>2026-03-20T12:30:19.059Z</time>
      </trkpt>
      <trkpt lat="51.207905" lon="9.329580">
        <ele>237.213855</ele>
        <time>2026-03-20T12:30:39.982Z</time>
      </trkpt>
      <trkpt lat="51.208451" lon="9.328891">
        <ele>239.060741</ele>
        <time>2026-03-20T12:31:03.008Z</time>
      </trkpt>
      <trkpt lat="51.209299" lon="9.327915">
        <ele>240.175073</ele>
        <time>2026-03-20T12:31:31.752Z</time>
      </trkpt>
      <trkpt lat="51.209638" lon="9.327408">
        <ele>240.670228</ele>
        <time>2026-03-20T12:31:42.475Z</time>
      </trkpt>
      <trkpt lat="51.209806" lon="9.327029">
        <ele>240.887882</ele>
        <time>2026-03-20T12:31:48.778Z</time>
      </trkpt>
      <trkpt lat="51.210341" lon="9.325509">
        <ele>241.114675</ele>
        <time>2026-03-20T12:32:12.311Z</time>
      </trkpt>
      <trkpt lat="51.210478" lon="9.325276">
        <ele>241.156242</ele>
        <time>2026-03-20T12:32:17.167Z</time>
      </trkpt>
      <trkpt lat="51.210653" lon="9.325096">
        <ele>241.199470</ele>
        <time>2026-03-20T12:32:22.344Z</time>
      </trkpt>
      <trkpt lat="51.211364" lon="9.324315">
        <ele>242.531019</ele>
        <time>2026-03-20T12:32:45.550Z</time>
      </trkpt>
      <trkpt lat="51.211571" lon="9.323984">
        <ele>243.093787</ele>
        <time>2026-03-20T12:32:54.073Z</time>
      </trkpt>
      <trkpt lat="51.211713" lon="9.323673">
        <ele>243.556848</ele>
        <time>2026-03-20T12:33:01.442Z</time>
      </trkpt>
      <trkpt lat="51.212063" lon="9.322867">
        <ele>244.796976</ele>
        <time>2026-03-20T12:33:21.380Z</time>
      </trkpt>
      <trkpt lat="51.212207" lon="9.322607">
        <ele>245.796591</ele>
        <time>2026-03-20T12:33:29.065Z</time>
      </trkpt>
      <trkpt lat="51.212666" lon="9.321963">
        <ele>248.606380</ele>
        <time>2026-03-20T12:33:52.696Z</time>
      </trkpt>
      <trkpt lat="51.213569" lon="9.320830">
        <ele>253.996033</ele>
        <time>2026-03-20T12:34:43.574Z</time>
      </trkpt>
      <trkpt lat="51.214006" lon="9.320401">
        <ele>256.632509</ele>
        <time>2026-03-20T12:35:06.548Z</time>
      </trkpt>
      <trkpt lat="51.214247" lon="9.320165">
        <ele>258.085499</ele>
        <time>2026-03-20T12:35:18.885Z</time>
      </trkpt>
      <trkpt lat="51.215189" lon="9.319346">
        <ele>263.316568</ele>
        <time>2026-03-20T12:36:03.237Z</time>
      </trkpt>
      <trkpt lat="51.216162" lon="9.318005">
        <ele>268.585696</ele>
        <time>2026-03-20T12:36:53.023Z</time>
      </trkpt>
      <trkpt lat="51.216791" lon="9.317096">
        <ele>271.031106</ele>
        <time>2026-03-20T12:37:23.125Z</time>
      </trkpt>
      <trkpt lat="51.217056" lon="9.316669">
        <ele>271.932801</ele>
        <time>2026-03-20T12:37:35.327Z</time>
      </trkpt>
      <trkpt lat="51.217608" lon="9.315496">
        <ele>273.955170</ele>
        <time>2026-03-20T12:38:02.163Z</time>
      </trkpt>
      <trkpt lat="51.217917" lon="9.314943">
        <ele>274.259655</ele>
        <time>2026-03-20T12:38:14.368Z</time>
      </trkpt>
      <trkpt lat="51.218516" lon="9.313975">
        <ele>274.818740</ele>
        <time>2026-03-20T12:38:35.322Z</time>
      </trkpt>
      <trkpt lat="51.218616" lon="9.313732">
        <ele>274.938202</ele>
        <time>2026-03-20T12:38:39.511Z</time>
      </trkpt>
      <trkpt lat="51.218851" lon="9.312405">
        <ele>274.422969</ele>
        <time>2026-03-20T12:38:57.908Z</time>
      </trkpt>
      <trkpt lat="51.219076" lon="9.311835">
        <ele>274.014648</ele>
        <time>2026-03-20T12:39:06.041Z</time>
      </trkpt>
      <trkpt lat="51.219237" lon="9.311242">
        <ele>273.622958</ele>
        <time>2026-03-20T12:39:13.548Z</time>
      </trkpt>
      <trkpt lat="51.219462" lon="9.310142">
        <ele>272.170112</ele>
        <time>2026-03-20T12:39:26.385Z</time>
      </trkpt>
      <trkpt lat="51.219604" lon="9.309735">
        <ele>271.364731</ele>
        <time>2026-03-20T12:39:31.401Z</time>
      </trkpt>
      <trkpt lat="51.219792" lon="9.309302">
        <ele>270.453940</ele>
        <time>2026-03-20T12:39:36.887Z</time>
      </trkpt>
      <trkpt lat="51.220235" lon="9.308672">
        <ele>268.816542</ele>
        <time>2026-03-20T12:39:46.504Z</time>
      </trkpt>
      <trkpt lat="51.220558" lon="9.308142">
        <ele>267.428496</ele>
        <time>2026-03-20T12:39:53.854Z</time>
      </trkpt>
      <trkpt lat="51.220773" lon="9.307789">
        <ele>266.464124</ele>
        <time>2026-03-20T12:39:58.763Z</time>
      </trkpt>
      <trkpt lat="51.221156" lon="9.306837">
        <ele>264.248065</ele>
        <time>2026-03-20T12:40:10.217Z</time>
      </trkpt>
      <trkpt lat="51.221697" lon="9.305480">
        <ele>261.963497</ele>
        <time>2026-03-20T12:40:27.497Z</time>
      </trkpt>
      <trkpt lat="51.221904" lon="9.305148">
        <ele>261.530148</ele>
        <time>2026-03-20T12:40:32.872Z</time>
      </trkpt>
      <trkpt lat="51.222193" lon="9.304886">
        <ele>261.039295</ele>
        <time>2026-03-20T12:40:39.085Z</time>
      </trkpt>
      <trkpt lat="51.222294" lon="9.304852">
        <ele>260.886841</ele>
        <time>2026-03-20T12:40:41.031Z</time>
      </trkpt>
      <trkpt lat="51.223494" lon="9.304577">
        <ele>260.103302</ele>
        <time>2026-03-20T12:41:05.261Z</time>
      </trkpt>
      <trkpt lat="51.223766" lon="9.304457">
        <ele>260.112307</ele>
        <time>2026-03-20T12:41:11.527Z</time>
      </trkpt>
      <trkpt lat="51.223949" lon="9.304264">
        <ele>260.119306</ele>
        <time>2026-03-20T12:41:16.538Z</time>
      </trkpt>
      <trkpt lat="51.224139" lon="9.303943">
        <ele>260.128134</ele>
        <time>2026-03-20T12:41:23.099Z</time>
      </trkpt>
      <trkpt lat="51.224213" lon="9.303770">
        <ele>260.132321</ele>
        <time>2026-03-20T12:41:26.408Z</time>
      </trkpt>
      <trkpt lat="51.224254" lon="9.303572">
        <ele>260.136489</ele>
        <time>2026-03-20T12:41:29.765Z</time>
      </trkpt>
      <trkpt lat="51.224292" lon="9.303384">
        <ele>260.203658</ele>
        <time>2026-03-20T12:41:32.978Z</time>
      </trkpt>
      <trkpt lat="51.224370" lon="9.303131">
        <ele>260.554108</ele>
        <time>2026-03-20T12:41:37.627Z</time>
      </trkpt>
      <trkpt lat="51.224606" lon="9.302552">
        <ele>261.412635</ele>
        <time>2026-03-20T12:41:49.687Z</time>
      </trkpt>
      <trkpt lat="51.224669" lon="9.302454">
        <ele>261.587167</ele>
        <time>2026-03-20T12:41:52.288Z</time>
      </trkpt>
      <trkpt lat="51.224755" lon="9.302387">
        <ele>261.777052</ele>
        <time>2026-03-20T12:41:55.196Z</time>
      </trkpt>
      <trkpt lat="51.225041" lon="9.302396">
        <ele>262.344690</ele>
        <time>2026-03-20T12:42:04.218Z</time>
      </trkpt>
      <trkpt lat="51.225311" lon="9.302513">
        <ele>262.899848</ele>
        <time>2026-03-20T12:42:13.279Z</time>
      </trkpt>
      <trkpt lat="51.225383" lon="9.302503">
        <ele>263.043262</ele>
        <time>2026-03-20T12:42:15.652Z</time>
      </trkpt>
      <trkpt lat="51.225443" lon="9.302435">
        <ele>263.189265</ele>
        <time>2026-03-20T12:42:17.984Z</time>
      </trkpt>
      <trkpt lat="51.225589" lon="9.302141">
        <ele>263.655552</ele>
        <time>2026-03-20T12:42:25.889Z</time>
      </trkpt>
      <trkpt lat="51.225785" lon="9.301884">
        <ele>264.248073</ele>
        <time>2026-03-20T12:42:34.357Z</time>
      </trkpt>
      <trkpt lat="51.225938" lon="9.301740">
        <ele>264.670360</ele>
        <time>2026-03-20T12:42:40.227Z</time>
      </trkpt>
      <trkpt lat="51.226109" lon="9.301531">
        <ele>265.182390</ele>
        <time>2026-03-20T12:42:47.423Z</time>
      </trkpt>
      <trkpt lat="51.226279" lon="9.301307">
        <ele>265.706458</ele>
        <time>2026-03-20T12:42:54.862Z</time>
      </trkpt>
      <trkpt lat="51.226379" lon="9.301062">
        <ele>266.141923</ele>
        <time>2026-03-20T12:43:01.082Z</time>
      </trkpt>
      <trkpt lat="51.226443" lon="9.300976">
        <ele>266.340811</ele>
        <time>2026-03-20T12:43:03.792Z</time>
      </trkpt>
      <trkpt lat="51.226770" lon="9.300713">
        <ele>267.211392</ele>
        <time>2026-03-20T12:43:15.238Z</time>
      </trkpt>
      <trkpt lat="51.227207" lon="9.300392">
        <ele>268.166301</ele>
        <time>2026-03-20T12:43:28.880Z</time>
      </trkpt>
      <trkpt lat="51.227325" lon="9.300285">
        <ele>268.324215</ele>
        <time>2026-03-20T12:43:32.727Z</time>
      </trkpt>
      <trkpt lat="51.227367" lon="9.300122">
        <ele>268.452665</ele>
        <time>2026-03-20T12:43:35.747Z</time>
      </trkpt>
      <trkpt lat="51.227544" lon="9.300111">
        <ele>268.658799</ele>
        <time>2026-03-20T12:43:40.408Z</time>
      </trkpt>
      <trkpt lat="51.227636" lon="9.300163">
        <ele>268.772369</ele>
        <time>2026-03-20T12:43:42.946Z</time>
      </trkpt>
      <trkpt lat="51.227709" lon="9.300293">
        <ele>268.899617</ele>
        <time>2026-03-20T12:43:45.797Z</time>
      </trkpt>
      <trkpt lat="51.227794" lon="9.300879">
        <ele>269.337971</ele>
        <time>2026-03-20T12:43:55.315Z</time>
      </trkpt>
      <trkpt lat="51.227868" lon="9.301347">
        <ele>269.689729</ele>
        <time>2026-03-20T12:44:02.651Z</time>
      </trkpt>
      <trkpt lat="51.227894" lon="9.301717">
        <ele>269.961058</ele>
        <time>2026-03-20T12:44:08.704Z</time>
      </trkpt>
      <trkpt lat="51.227718" lon="9.302301">
        <ele>270.669227</ele>
        <time>2026-03-20T12:44:20.568Z</time>
      </trkpt>
      <trkpt lat="51.227715" lon="9.302429">
        <ele>270.824598</ele>
        <time>2026-03-20T12:44:22.965Z</time>
      </trkpt>
      <trkpt lat="51.227754" lon="9.302562">
        <ele>271.002735</ele>
        <time>2026-03-20T12:44:25.753Z</time>
      </trkpt>
      <trkpt lat="51.227951" lon="9.302765">
        <ele>271.456868</ele>
        <time>2026-03-20T12:44:32.773Z</time>
      </trkpt>
      <trkpt lat="51.228000" lon="9.302805">
        <ele>271.563462</ele>
        <time>2026-03-20T12:44:34.417Z</time>
      </trkpt>
      <trkpt lat="51.228389" lon="9.302931">
        <ele>272.332288</ele>
        <time>2026-03-20T12:44:46.442Z</time>
      </trkpt>
      <trkpt lat="51.228583" lon="9.303010">
        <ele>272.720086</ele>
        <time>2026-03-20T12:44:52.748Z</time>
      </trkpt>
      <trkpt lat="51.229011" lon="9.303205">
        <ele>273.582361</ele>
        <time>2026-03-20T12:45:07.072Z</time>
      </trkpt>
      <trkpt lat="51.230443" lon="9.303953">
        <ele>276.525827</ele>
        <time>2026-03-20T12:45:52.287Z</time>
      </trkpt>
      <trkpt lat="51.230528" lon="9.304096">
        <ele>276.767030</ele>
        <time>2026-03-20T12:45:55.916Z</time>
      </trkpt>
      <trkpt lat="51.230928" lon="9.304336">
        <ele>277.524019</ele>
        <time>2026-03-20T12:46:08.442Z</time>
      </trkpt>
      <trkpt lat="51.231691" lon="9.304695">
        <ele>278.847966</ele>
        <time>2026-03-20T12:46:31.458Z</time>
      </trkpt>
      <trkpt lat="51.232634" lon="9.304929">
        <ele>280.522479</ele>
        <time>2026-03-20T12:46:58.612Z</time>
      </trkpt>
      <trkpt lat="51.233096" lon="9.305157">
        <ele>281.516470</ele>
        <time>2026-03-20T12:47:12.769Z</time>
      </trkpt>
      <trkpt lat="51.233593" lon="9.305510">
        <ele>282.634574</ele>
        <time>2026-03-20T12:47:29.593Z</time>
      </trkpt>
      <trkpt lat="51.234509" lon="9.305746">
        <ele>284.551578</ele>
        <time>2026-03-20T12:47:59.509Z</time>
      </trkpt>
      <trkpt lat="51.235012" lon="9.305823">
        <ele>285.603340</ele>
        <time>2026-03-20T12:48:15.490Z</time>
      </trkpt>
      <trkpt lat="51.235010" lon="9.305714">
        <ele>285.745454</ele>
        <time>2026-03-20T12:48:17.588Z</time>
      </trkpt>
      <trkpt lat="51.235244" lon="9.305725">
        <ele>286.232722</ele>
        <time>2026-03-20T12:48:24.624Z</time>
      </trkpt>
      <trkpt lat="51.236577" lon="9.305722">
        <ele>288.684436</ele>
        <time>2026-03-20T12:49:02.889Z</time>
      </trkpt>
      <trkpt lat="51.236887" lon="9.305748">
        <ele>289.191156</ele>
        <time>2026-03-20T12:49:11.820Z</time>
      </trkpt>
      <trkpt lat="51.237337" lon="9.305848">
        <ele>289.932781</ele>
        <time>2026-03-20T12:49:24.678Z</time>
      </trkpt>
      <trkpt lat="51.237618" lon="9.306014">
        <ele>290.421835</ele>
        <time>2026-03-20T12:49:33.322Z</time>
      </trkpt>
      <trkpt lat="51.237890" lon="9.306283">
        <ele>291.066388</ele>
        <time>2026-03-20T12:49:42.681Z</time>
      </trkpt>
      <trkpt lat="51.238054" lon="9.306691">
        <ele>291.683853</ele>
        <time>2026-03-20T12:49:51.552Z</time>
      </trkpt>
      <trkpt lat="51.238127" lon="9.306719">
        <ele>291.836563</ele>
        <time>2026-03-20T12:49:53.772Z</time>
      </trkpt>
      <trkpt lat="51.238466" lon="9.306864">
        <ele>292.550417</ele>
        <time>2026-03-20T12:50:04.212Z</time>
      </trkpt>
      <trkpt lat="51.238844" lon="9.306887">
        <ele>293.319861</ele>
        <time>2026-03-20T12:50:15.823Z</time>
      </trkpt>
      <trkpt lat="51.239054" lon="9.306850">
        <ele>293.749611</ele>
        <time>2026-03-20T12:50:22.619Z</time>
      </trkpt>
      <trkpt lat="51.239379" lon="9.306639">
        <ele>294.559498</ele>
        <time>2026-03-20T12:50:34.171Z</time>
      </trkpt>
      <trkpt lat="51.240058" lon="9.306238">
        <ele>296.428495</ele>
        <time>2026-03-20T12:50:57.829Z</time>
      </trkpt>
      <trkpt lat="51.240217" lon="9.306176">
        <ele>296.851049</ele>
        <time>2026-03-20T12:51:03.104Z</time>
      </trkpt>
      <trkpt lat="51.240394" lon="9.306136">
        <ele>297.312571</ele>
        <time>2026-03-20T12:51:08.808Z</time>
      </trkpt>
      <trkpt lat="51.240777" lon="9.306181">
        <ele>298.304054</ele>
        <time>2026-03-20T12:51:21.102Z</time>
      </trkpt>
      <trkpt lat="51.241070" lon="9.306331">
        <ele>299.157968</ele>
        <time>2026-03-20T12:51:31.279Z</time>
      </trkpt>
      <trkpt lat="51.241653" lon="9.306667">
        <ele>301.031052</ele>
        <time>2026-03-20T12:51:52.448Z</time>
      </trkpt>
      <trkpt lat="51.242237" lon="9.306825">
        <ele>302.821118</ele>
        <time>2026-03-20T12:52:13.117Z</time>
      </trkpt>
      <trkpt lat="51.242576" lon="9.306997">
        <ele>303.896062</ele>
        <time>2026-03-20T12:52:25.723Z</time>
      </trkpt>
      <trkpt lat="51.243064" lon="9.307317">
        <ele>305.524205</ele>
        <time>2026-03-20T12:52:44.189Z</time>
      </trkpt>
      <trkpt lat="51.243579" lon="9.307708">
        <ele>307.292226</ele>
        <time>2026-03-20T12:53:03.595Z</time>
      </trkpt>
      <trkpt lat="51.244590" lon="9.308159">
        <ele>310.720503</ele>
        <time>2026-03-20T12:53:39.711Z</time>
      </trkpt>
      <trkpt lat="51.244904" lon="9.308318">
        <ele>311.967709</ele>
        <time>2026-03-20T12:53:51.423Z</time>
      </trkpt>
      <trkpt lat="51.245426" lon="9.308685">
        <ele>314.127119</ele>
        <time>2026-03-20T12:54:12.062Z</time>
      </trkpt>
      <trkpt lat="51.245870" lon="9.309042">
        <ele>316.009181</ele>
        <time>2026-03-20T12:54:31.724Z</time>
      </trkpt>
      <trkpt lat="51.246296" lon="9.309281">
        <ele>318.339829</ele>
        <time>2026-03-20T12:54:50.775Z</time>
      </trkpt>
      <trkpt lat="51.246602" lon="9.309405">
        <ele>320.182666</ele>
        <time>2026-03-20T12:55:04.636Z</time>
      </trkpt>
      <trkpt lat="51.246864" lon="9.309396">
        <ele>321.712437</ele>
        <time>2026-03-20T12:55:16.385Z</time>
      </trkpt>
      <trkpt lat="51.247528" lon="9.309353">
        <ele>325.591699</ele>
        <time>2026-03-20T12:55:47.253Z</time>
      </trkpt>
      <trkpt lat="51.248436" lon="9.309376">
        <ele>332.405782</ele>
        <time>2026-03-20T12:56:33.274Z</time>
      </trkpt>
      <trkpt lat="51.249081" lon="9.309299">
        <ele>337.676472</ele>
        <time>2026-03-20T12:57:10.371Z</time>
      </trkpt>
      <trkpt lat="51.249267" lon="9.309229">
        <ele>339.233653</ele>
        <time>2026-03-20T12:57:21.644Z</time>
      </trkpt>
      <trkpt lat="51.249502" lon="9.309143">
        <ele>341.198241</ele>
        <time>2026-03-20T12:57:35.690Z</time>
      </trkpt>
      <trkpt lat="51.249904" lon="9.308930">
        <ele>344.537968</ele>
        <time>2026-03-20T12:58:00.675Z</time>
      </trkpt>
      <trkpt lat="51.250269" lon="9.308660">
        <ele>347.690445</ele>
        <time>2026-03-20T12:58:24.142Z</time>
      </trkpt>
      <trkpt lat="51.251445" lon="9.307569">
        <ele>358.221868</ele>
        <time>2026-03-20T12:59:32.154Z</time>
      </trkpt>
      <trkpt lat="51.252009" lon="9.307171">
        <ele>362.811396</ele>
        <time>2026-03-20T13:00:04.106Z</time>
      </trkpt>
      <trkpt lat="51.254646" lon="9.305565">
        <ele>383.189867</ele>
        <time>2026-03-20T13:02:34.039Z</time>
      </trkpt>
      <trkpt lat="51.255193" lon="9.305286">
        <ele>385.232445</ele>
        <time>2026-03-20T13:02:58.239Z</time>
      </trkpt>
      <trkpt lat="51.255593" lon="9.305259">
        <ele>386.656632</ele>
        <time>2026-03-20T13:03:12.141Z</time>
      </trkpt>
      <trkpt lat="51.256126" lon="9.305410">
        <ele>388.582241</ele>
        <time>2026-03-20T13:03:27.404Z</time>
      </trkpt>
      <trkpt lat="51.256835" lon="9.305938">
        <ele>389.792797</ele>
        <time>2026-03-20T13:03:45.806Z</time>
      </trkpt>
      <trkpt lat="51.257316" lon="9.306183">
        <ele>390.391103</ele>
        <time>2026-03-20T13:03:59.120Z</time>
      </trkpt>
      <trkpt lat="51.257545" lon="9.306248">
        <ele>390.666745</ele>
        <time>2026-03-20T13:04:05.681Z</time>
      </trkpt>
      <trkpt lat="51.257871" lon="9.306286">
        <ele>391.054123</ele>
        <time>2026-03-20T13:04:15.364Z</time>
      </trkpt>
      <trkpt lat="51.258843" lon="9.306237">
        <ele>392.921600</ele>
        <time>2026-03-20T13:04:45.379Z</time>
      </trkpt>
      <trkpt lat="51.259919" lon="9.306272">
        <ele>395.056300</ele>
        <time>2026-03-20T13:05:17.614Z</time>
      </trkpt>
      <trkpt lat="51.260548" lon="9.306361">
        <ele>396.323820</ele>
        <time>2026-03-20T13:05:35.668Z</time>
      </trkpt>
      <trkpt lat="51.260923" lon="9.306428">
        <ele>397.081241</ele>
        <time>2026-03-20T13:05:46.264Z</time>
      </trkpt>
      <trkpt lat="51.261216" lon="9.306434">
        <ele>397.669423</ele>
        <time>2026-03-20T13:05:54.955Z</time>
      </trkpt>
      <trkpt lat="51.261418" lon="9.306437">
        <ele>398.074912</ele>
        <time>2026-03-20T13:06:01.413Z</time>
      </trkpt>
      <trkpt lat="51.261893" lon="9.306361">
        <ele>399.808835</ele>
        <time>2026-03-20T13:06:18.236Z</time>
      </trkpt>
      <trkpt lat="51.261931" lon="9.306673">
        <ele>400.635495</ele>
        <time>2026-03-20T13:06:25.856Z</time>
      </trkpt>
      <trkpt lat="51.261932" lon="9.307702">
        <ele>403.311669</ele>
        <time>2026-03-20T13:06:52.257Z</time>
      </trkpt>
      <trkpt lat="51.262021" lon="9.308056">
        <ele>404.303861</ele>
        <time>2026-03-20T13:07:02.507Z</time>
      </trkpt>
      <trkpt lat="51.262167" lon="9.308293">
        <ele>405.168800</ele>
        <time>2026-03-20T13:07:11.500Z</time>
      </trkpt>
      <trkpt lat="51.262353" lon="9.308525">
        <ele>405.803699</ele>
        <time>2026-03-20T13:07:21.494Z</time>
      </trkpt>
      <trkpt lat="51.262460" lon="9.308722">
        <ele>405.840352</ele>
        <time>2026-03-20T13:07:28.053Z</time>
      </trkpt>
      <trkpt lat="51.262647" lon="9.309276">
        <ele>405.928796</ele>
        <time>2026-03-20T13:07:42.266Z</time>
      </trkpt>
      <trkpt lat="51.262764" lon="9.309495">
        <ele>405.969257</ele>
        <time>2026-03-20T13:07:47.521Z</time>
      </trkpt>
      <trkpt lat="51.263063" lon="9.309880">
        <ele>406.055476</ele>
        <time>2026-03-20T13:07:56.051Z</time>
      </trkpt>
      <trkpt lat="51.263141" lon="9.310050">
        <ele>406.085096</ele>
        <time>2026-03-20T13:07:58.461Z</time>
      </trkpt>
      <trkpt lat="51.263246" lon="9.309818">
        <ele>406.125326</ele>
        <time>2026-03-20T13:08:01.515Z</time>
      </trkpt>
      <trkpt lat="51.263347" lon="9.309708">
        <ele>406.152770</ele>
        <time>2026-03-20T13:08:03.492Z</time>
      </trkpt>
      <trkpt lat="51.264983" lon="9.308608">
        <ele>396.464434</ele>
        <time>2026-03-20T13:08:29.171Z</time>
      </trkpt>
      <trkpt lat="51.266322" lon="9.307729">
        <ele>387.792839</ele>
        <time>2026-03-20T13:08:50.543Z</time>
      </trkpt>
      <trkpt lat="51.269496" lon="9.305541">
        <ele>367.942684</ele>
        <time>2026-03-20T13:09:40.785Z</time>
      </trkpt>
      <trkpt lat="51.269643" lon="9.305541">
        <ele>367.251687</ele>
        <time>2026-03-20T13:09:43.069Z</time>
      </trkpt>
      <trkpt lat="51.271532" lon="9.306161">
        <ele>363.655647</ele>
        <time>2026-03-20T13:10:18.213Z</time>
      </trkpt>
      <trkpt lat="51.272273" lon="9.306841">
        <ele>363.891791</ele>
        <time>2026-03-20T13:10:42.927Z</time>
      </trkpt>
      <trkpt lat="51.272989" lon="9.307575">
        <ele>364.917022</ele>
        <time>2026-03-20T13:11:08.471Z</time>
      </trkpt>
      <trkpt lat="51.273530" lon="9.307706">
        <ele>365.493280</ele>
        <time>2026-03-20T13:11:21.677Z</time>
      </trkpt>
      <trkpt lat="51.273963" lon="9.307870">
        <ele>365.399103</ele>
        <time>2026-03-20T13:11:30.989Z</time>
      </trkpt>
      <trkpt lat="51.274522" lon="9.308001">
        <ele>365.279533</ele>
        <time>2026-03-20T13:11:42.480Z</time>
      </trkpt>
      <trkpt lat="51.274726" lon="9.308089">
        <ele>365.234814</ele>
        <time>2026-03-20T13:11:46.872Z</time>
      </trkpt>
      <trkpt lat="51.275871" lon="9.309001">
        <ele>363.980147</ele>
        <time>2026-03-20T13:12:14.635Z</time>
      </trkpt>
      <trkpt lat="51.276403" lon="9.309147">
        <ele>363.167673</ele>
        <time>2026-03-20T13:12:24.522Z</time>
      </trkpt>
      <trkpt lat="51.276712" lon="9.309195">
        <ele>362.700380</ele>
        <time>2026-03-20T13:12:29.744Z</time>
      </trkpt>
      <trkpt lat="51.277041" lon="9.309190">
        <ele>361.877121</ele>
        <time>2026-03-20T13:12:35.027Z</time>
      </trkpt>
      <trkpt lat="51.278377" lon="9.309067">
        <ele>356.755105</ele>
        <time>2026-03-20T13:12:55.760Z</time>
      </trkpt>
      <trkpt lat="51.278395" lon="9.309017">
        <ele>356.616983</ele>
        <time>2026-03-20T13:12:56.305Z</time>
      </trkpt>
      <trkpt lat="51.278496" lon="9.309121">
        <ele>356.157153</ele>
        <time>2026-03-20T13:12:58.228Z</time>
      </trkpt>
      <trkpt lat="51.279048" lon="9.309325">
        <ele>354.721168</ele>
        <time>2026-03-20T13:13:07.439Z</time>
      </trkpt>
      <trkpt lat="51.279531" lon="9.309612">
        <ele>353.684123</ele>
        <time>2026-03-20T13:13:16.214Z</time>
      </trkpt>
      <trkpt lat="51.280254" lon="9.310280">
        <ele>352.003511</ele>
        <time>2026-03-20T13:13:31.646Z</time>
      </trkpt>
      <trkpt lat="51.280417" lon="9.310398">
        <ele>352.161520</ele>
        <time>2026-03-20T13:13:35.357Z</time>
      </trkpt>
      <trkpt lat="51.280657" lon="9.310476">
        <ele>352.613907</ele>
        <time>2026-03-20T13:13:40.837Z</time>
      </trkpt>
      <trkpt lat="51.280808" lon="9.310483">
        <ele>352.892946</ele>
        <time>2026-03-20T13:13:44.539Z</time>
      </trkpt>
      <trkpt lat="51.281146" lon="9.310401">
        <ele>353.524436</ele>
        <time>2026-03-20T13:13:53.855Z</time>
      </trkpt>
      <trkpt lat="51.281220" lon="9.310694">
        <ele>353.889522</ele>
        <time>2026-03-20T13:13:59.778Z</time>
      </trkpt>
      <trkpt lat="51.281371" lon="9.311285">
        <ele>354.627131</ele>
        <time>2026-03-20T13:14:13.198Z</time>
      </trkpt>
      <trkpt lat="51.281458" lon="9.311661">
        <ele>355.090330</ele>
        <time>2026-03-20T13:14:22.814Z</time>
      </trkpt>
      <trkpt lat="51.281685" lon="9.311707">
        <ele>355.807423</ele>
        <time>2026-03-20T13:14:32.137Z</time>
      </trkpt>
      <trkpt lat="51.281810" lon="9.311693">
        <ele>356.284875</ele>
        <time>2026-03-20T13:14:37.404Z</time>
      </trkpt>
      <trkpt lat="51.282072" lon="9.311644">
        <ele>357.289975</ele>
        <time>2026-03-20T13:14:48.847Z</time>
      </trkpt>
      <trkpt lat="51.282325" lon="9.311462">
        <ele>358.347066</ele>
        <time>2026-03-20T13:15:00.808Z</time>
      </trkpt>
      <trkpt lat="51.282427" lon="9.311651">
        <ele>358.941995</ele>
        <time>2026-03-20T13:15:07.239Z</time>
      </trkpt>
      <trkpt lat="51.282583" lon="9.312362">
        <ele>360.737721</ele>
        <time>2026-03-20T13:15:25.142Z</time>
      </trkpt>
      <trkpt lat="51.282957" lon="9.312332">
        <ele>362.096404</ele>
        <time>2026-03-20T13:15:37.758Z</time>
      </trkpt>
      <trkpt lat="51.283129" lon="9.312279">
        <ele>362.159556</ele>
        <time>2026-03-20T13:15:42.978Z</time>
      </trkpt>
      <trkpt lat="51.284521" lon="9.311518">
        <ele>362.689936</ele>
        <time>2026-03-20T13:16:14.051Z</time>
      </trkpt>
      <trkpt lat="51.284870" lon="9.311293">
        <ele>363.087724</ele>
        <time>2026-03-20T13:16:22.241Z</time>
      </trkpt>
      <trkpt lat="51.284988" lon="9.311237">
        <ele>363.264487</ele>
        <time>2026-03-20T13:16:25.157Z</time>
      </trkpt>
      <trkpt lat="51.285234" lon="9.311190">
        <ele>363.620272</ele>
        <time>2026-03-20T13:16:31.495Z</time>
      </trkpt>
      <trkpt lat="51.285357" lon="9.311166">
        <ele>363.798218</ele>
        <time>2026-03-20T13:16:34.896Z</time>
      </trkpt>
      <trkpt lat="51.285711" lon="9.311061">
        <ele>364.315258</ele>
        <time>2026-03-20T13:16:45.459Z</time>
      </trkpt>
      <trkpt lat="51.286194" lon="9.310763">
        <ele>365.058727</ele>
        <time>2026-03-20T13:17:01.868Z</time>
      </trkpt>
      <trkpt lat="51.286439" lon="9.310556">
        <ele>365.524474</ele>
        <time>2026-03-20T13:17:10.947Z</time>
      </trkpt>
      <trkpt lat="51.287014" lon="9.309994">
        <ele>366.974962</ele>
        <time>2026-03-20T13:17:32.529Z</time>
      </trkpt>
      <trkpt lat="51.288284" lon="9.308271">
        <ele>371.123563</ele>
        <time>2026-03-20T13:18:22.178Z</time>
      </trkpt>
      <trkpt lat="51.288490" lon="9.308096">
        <ele>371.832577</ele>
        <time>2026-03-20T13:18:29.956Z</time>
      </trkpt>
      <trkpt lat="51.290000" lon="9.307023">
        <ele>377.467639</ele>
        <time>2026-03-20T13:19:32.867Z</time>
      </trkpt>
      <trkpt lat="51.290345" lon="9.307022">
        <ele>378.808800</ele>
        <time>2026-03-20T13:19:45.874Z</time>
      </trkpt>
      <trkpt lat="51.290592" lon="9.306960">
        <ele>379.780751</ele>
        <time>2026-03-20T13:19:55.286Z</time>
      </trkpt>
      <trkpt lat="51.291154" lon="9.306263">
        <ele>382.341947</ele>
        <time>2026-03-20T13:20:22.224Z</time>
      </trkpt>
      <trkpt lat="51.291646" lon="9.305897">
        <ele>383.971270</ele>
        <time>2026-03-20T13:20:41.920Z</time>
      </trkpt>
      <trkpt lat="51.292012" lon="9.305488">
        <ele>385.311981</ele>
        <time>2026-03-20T13:20:57.459Z</time>
      </trkpt>
      <trkpt lat="51.292199" lon="9.305383">
        <ele>385.907079</ele>
        <time>2026-03-20T13:21:04.284Z</time>
      </trkpt>
      <trkpt lat="51.293192" lon="9.305182">
        <ele>387.176738</ele>
        <time>2026-03-20T13:21:33.484Z</time>
      </trkpt>
      <trkpt lat="51.293750" lon="9.305032">
        <ele>387.290989</ele>
        <time>2026-03-20T13:21:46.059Z</time>
      </trkpt>
      <trkpt lat="51.294573" lon="9.304979">
        <ele>386.850258</ele>
        <time>2026-03-20T13:22:01.848Z</time>
      </trkpt>
      <trkpt lat="51.295593" lon="9.304820">
        <ele>384.103194</ele>
        <time>2026-03-20T13:22:19.282Z</time>
      </trkpt>
      <trkpt lat="51.297820" lon="9.303975">
        <ele>376.227233</ele>
        <time>2026-03-20T13:22:55.399Z</time>
      </trkpt>
      <trkpt lat="51.298275" lon="9.303849">
        <ele>374.864432</ele>
        <time>2026-03-20T13:23:02.963Z</time>
      </trkpt>
      <trkpt lat="51.298565" lon="9.303880">
        <ele>374.046957</ele>
        <time>2026-03-20T13:23:07.859Z</time>
      </trkpt>
      <trkpt lat="51.299505" lon="9.304164">
        <ele>371.356348</ele>
        <time>2026-03-20T13:23:24.173Z</time>
      </trkpt>
      <trkpt lat="51.300973" lon="9.304627">
        <ele>366.685055</ele>
        <time>2026-03-20T13:23:48.767Z</time>
      </trkpt>
      <trkpt lat="51.303655" lon="9.305772">
        <ele>358.029215</ele>
        <time>2026-03-20T13:24:33.140Z</time>
      </trkpt>
      <trkpt lat="51.304585" lon="9.306202">
        <ele>356.362972</ele>
        <time>2026-03-20T13:24:50.848Z</time>
      </trkpt>
      <trkpt lat="51.305104" lon="9.306375">
        <ele>355.940529</ele>
        <time>2026-03-20T13:25:02.879Z</time>
      </trkpt>
      <trkpt lat="51.305418" lon="9.306422">
        <ele>356.127288</ele>
        <time>2026-03-20T13:25:11.102Z</time>
      </trkpt>
      <trkpt lat="51.305844" lon="9.306423">
        <ele>356.379559</ele>
        <time>2026-03-20T13:25:23.773Z</time>
      </trkpt>
      <trkpt lat="51.306180" lon="9.306368">
        <ele>356.579573</ele>
        <time>2026-03-20T13:25:33.264Z</time>
      </trkpt>
      <trkpt lat="51.306871" lon="9.306275">
        <ele>356.562014</ele>
        <time>2026-03-20T13:25:49.301Z</time>
      </trkpt>
      <trkpt lat="51.308249" lon="9.306075">
        <ele>354.191793</ele>
        <time>2026-03-20T13:26:13.605Z</time>
      </trkpt>
      <trkpt lat="51.311162" lon="9.305521">
        <ele>347.067493</ele>
        <time>2026-03-20T13:27:02.857Z</time>
      </trkpt>
      <trkpt lat="51.311922" lon="9.305708">
        <ele>345.393663</ele>
        <time>2026-03-20T13:27:16.642Z</time>
      </trkpt>
      <trkpt lat="51.312044" lon="9.305708">
        <ele>345.128092</ele>
        <time>2026-03-20T13:27:18.869Z</time>
      </trkpt>
      <trkpt lat="51.312865" lon="9.305475">
        <ele>343.649036</ele>
        <time>2026-03-20T13:27:34.120Z</time>
      </trkpt>
      <trkpt lat="51.313089" lon="9.305456">
        <ele>343.251363</ele>
        <time>2026-03-20T13:27:38.186Z</time>
      </trkpt>
      <trkpt lat="51.313343" lon="9.305499">
        <ele>342.798548</ele>
        <time>2026-03-20T13:27:42.753Z</time>
      </trkpt>
      <trkpt lat="51.314878" lon="9.306066">
        <ele>339.735330</ele>
        <time>2026-03-20T13:28:10.084Z</time>
      </trkpt>
      <trkpt lat="51.316231" lon="9.306614">
        <ele>337.683930</ele>
        <time>2026-03-20T13:28:34.945Z</time>
      </trkpt>
      <trkpt lat="51.317529" lon="9.307105">
        <ele>336.598233</ele>
        <time>2026-03-20T13:29:03.039Z</time>
      </trkpt>
      <trkpt lat="51.318140" lon="9.307320">
        <ele>336.354951</ele>
        <time>2026-03-20T13:29:16.782Z</time>
      </trkpt>
      <trkpt lat="51.318498" lon="9.307339">
        <ele>336.215656</ele>
        <time>2026-03-20T13:29:24.316Z</time>
      </trkpt>
      <trkpt lat="51.319135" lon="9.307275">
        <ele>335.942665</ele>
        <time>2026-03-20T13:29:37.290Z</time>
      </trkpt>
      <trkpt lat="51.319453" lon="9.307307">
        <ele>335.638494</ele>
        <time>2026-03-20T13:29:43.672Z</time>
      </trkpt>
      <trkpt lat="51.320205" lon="9.307508">
        <ele>334.910669</ele>
        <time>2026-03-20T13:29:58.258Z</time>
      </trkpt>
      <trkpt lat="51.320548" lon="9.307623">
        <ele>334.576122</ele>
        <time>2026-03-20T13:30:04.750Z</time>
      </trkpt>
      <trkpt lat="51.320827" lon="9.307703">
        <ele>334.305539</ele>
        <time>2026-03-20T13:30:09.895Z</time>
      </trkpt>
      <trkpt lat="51.321656" lon="9.307640">
        <ele>334.079260</ele>
        <time>2026-03-20T13:30:27.392Z</time>
      </trkpt>
      <trkpt lat="51.321823" lon="9.307662">
        <ele>334.039343</ele>
        <time>2026-03-20T13:30:31.406Z</time>
      </trkpt>
      <trkpt lat="51.321885" lon="9.307785">
        <ele>334.015818</ele>
        <time>2026-03-20T13:30:33.760Z</time>
      </trkpt>
      <trkpt lat="51.321906" lon="9.307907">
        <ele>333.996980</ele>
        <time>2026-03-20T13:30:35.680Z</time>
      </trkpt>
      <trkpt lat="51.321904" lon="9.308312">
        <ele>333.936685</ele>
        <time>2026-03-20T13:30:41.531Z</time>
      </trkpt>
      <trkpt lat="51.321901" lon="9.308409">
        <ele>333.922226</ele>
        <time>2026-03-20T13:30:42.967Z</time>
      </trkpt>
      <trkpt lat="51.321892" lon="9.308739">
        <ele>333.873052</ele>
        <time>2026-03-20T13:30:47.573Z</time>
      </trkpt>
      <trkpt lat="51.321928" lon="9.308905">
        <ele>333.846893</ele>
        <time>2026-03-20T13:30:49.938Z</time>
      </trkpt>
      <trkpt lat="51.321963" lon="9.308948">
        <ele>333.825766</ele>
        <time>2026-03-20T13:30:50.866Z</time>
      </trkpt>
      <trkpt lat="51.322021" lon="9.308987">
        <ele>333.749933</ele>
        <time>2026-03-20T13:30:52.171Z</time>
      </trkpt>
      <trkpt lat="51.322106" lon="9.308980">
        <ele>333.647341</ele>
        <time>2026-03-20T13:30:53.978Z</time>
      </trkpt>
      <trkpt lat="51.322534" lon="9.308723">
        <ele>333.096318</ele>
        <time>2026-03-20T13:31:03.546Z</time>
      </trkpt>
      <trkpt lat="51.322817" lon="9.308594">
        <ele>332.741630</ele>
        <time>2026-03-20T13:31:09.006Z</time>
      </trkpt>
      <trkpt lat="51.323102" lon="9.308498">
        <ele>332.390572</ele>
        <time>2026-03-20T13:31:13.966Z</time>
      </trkpt>
      <trkpt lat="51.323625" lon="9.308476">
        <ele>331.759949</ele>
        <time>2026-03-20T13:31:22.887Z</time>
      </trkpt>
      <trkpt lat="51.323736" lon="9.308747">
        <ele>331.809267</ele>
        <time>2026-03-20T13:31:27.991Z</time>
      </trkpt>
      <trkpt lat="51.324118" lon="9.308850">
        <ele>332.225600</ele>
        <time>2026-03-20T13:31:38.840Z</time>
      </trkpt>
      <trkpt lat="51.324195" lon="9.308969">
        <ele>332.340646</ele>
        <time>2026-03-20T13:31:42.236Z</time>
      </trkpt>
      <trkpt lat="51.324274" lon="9.309208">
        <ele>332.522233</ele>
        <time>2026-03-20T13:31:47.815Z</time>
      </trkpt>
      <trkpt lat="51.324427" lon="9.309345">
        <ele>332.710658</ele>
        <time>2026-03-20T13:31:53.904Z</time>
      </trkpt>
      <trkpt lat="51.324461" lon="9.309449">
        <ele>332.789486</ele>
        <time>2026-03-20T13:31:56.589Z</time>
      </trkpt>
      <trkpt lat="51.324383" lon="9.309537">
        <ele>332.892054</ele>
        <time>2026-03-20T13:31:59.517Z</time>
      </trkpt>
      <trkpt lat="51.324136" lon="9.310280">
        <ele>333.457276</ele>
        <time>2026-03-20T13:32:17.177Z</time>
      </trkpt>
      <trkpt lat="51.324126" lon="9.310452">
        <ele>333.573292</ele>
        <time>2026-03-20T13:32:21.084Z</time>
      </trkpt>
      <trkpt lat="51.324257" lon="9.311638">
        <ele>335.548398</ele>
        <time>2026-03-20T13:32:47.856Z</time>
      </trkpt>
      <trkpt lat="51.324298" lon="9.312012">
        <ele>336.185620</ele>
        <time>2026-03-20T13:32:55.990Z</time>
      </trkpt>
      <trkpt lat="51.324469" lon="9.312299">
        <ele>336.851089</ele>
        <time>2026-03-20T13:33:04.484Z</time>
      </trkpt>
      <trkpt lat="51.324505" lon="9.312248">
        <ele>336.980207</ele>
        <time>2026-03-20T13:33:06.037Z</time>
      </trkpt>
      <trkpt lat="51.324876" lon="9.312243">
        <ele>337.976547</ele>
        <time>2026-03-20T13:33:18.405Z</time>
      </trkpt>
      <trkpt lat="51.325574" lon="9.312266">
        <ele>339.341003</ele>
        <time>2026-03-20T13:33:40.281Z</time>
      </trkpt>
      <trkpt lat="51.325642" lon="9.312269">
        <ele>339.457892</ele>
        <time>2026-03-20T13:33:42.409Z</time>
      </trkpt>
      <trkpt lat="51.325948" lon="9.312264">
        <ele>339.983721</ele>
        <time>2026-03-20T13:33:51.999Z</time>
      </trkpt>
      <trkpt lat="51.326259" lon="9.312256">
        <ele>340.518182</ele>
        <time>2026-03-20T13:34:01.537Z</time>
      </trkpt>
      <trkpt lat="51.326494" lon="9.312264">
        <ele>340.922076</ele>
        <time>2026-03-20T13:34:08.361Z</time>
      </trkpt>
      <trkpt lat="51.327397" lon="9.312281">
        <ele>341.681448</ele>
        <time>2026-03-20T13:34:32.461Z</time>
      </trkpt>
      <trkpt lat="51.327428" lon="9.312254">
        <ele>341.691457</ele>
        <time>2026-03-20T13:34:33.398Z</time>
      </trkpt>
      <trkpt lat="51.327907" lon="9.312816">
        <ele>341.859893</ele>
        <time>2026-03-20T13:34:48.100Z</time>
      </trkpt>
      <trkpt lat="51.328150" lon="9.313133">
        <ele>341.948799</ele>
        <time>2026-03-20T13:34:55.044Z</time>
      </trkpt>
      <trkpt lat="51.328431" lon="9.313574">
        <ele>341.854497</ele>
        <time>2026-03-20T13:35:03.119Z</time>
      </trkpt>
      <trkpt lat="51.329092" lon="9.314934">
        <ele>339.695040</ele>
        <time>2026-03-20T13:35:22.257Z</time>
      </trkpt>
      <trkpt lat="51.329379" lon="9.315504">
        <ele>338.777574</ele>
        <time>2026-03-20T13:35:29.715Z</time>
      </trkpt>
      <trkpt lat="51.329752" lon="9.316133">
        <ele>337.903552</ele>
        <time>2026-03-20T13:35:38.740Z</time>
      </trkpt>
      <trkpt lat="51.330029" lon="9.316427">
        <ele>337.429524</ele>
        <time>2026-03-20T13:35:44.516Z</time>
      </trkpt>
      <trkpt lat="51.330586" lon="9.317105">
        <ele>336.431495</ele>
        <time>2026-03-20T13:35:58.170Z</time>
      </trkpt>
      <trkpt lat="51.331612" lon="9.318404">
        <ele>335.241357</ele>
        <time>2026-03-20T13:36:25.999Z</time>
      </trkpt>
      <trkpt lat="51.331932" lon="9.318848">
        <ele>334.952163</ele>
        <time>2026-03-20T13:36:34.308Z</time>
      </trkpt>
      <trkpt lat="51.332123" lon="9.319663">
        <ele>334.703705</ele>
        <time>2026-03-20T13:36:44.614Z</time>
      </trkpt>
      <trkpt lat="51.332318" lon="9.320111">
        <ele>335.010915</ele>
        <time>2026-03-20T13:36:50.777Z</time>
      </trkpt>
      <trkpt lat="51.332525" lon="9.320458">
        <ele>335.280857</ele>
        <time>2026-03-20T13:36:56.838Z</time>
      </trkpt>
      <trkpt lat="51.332739" lon="9.320722">
        <ele>335.524176</ele>
        <time>2026-03-20T13:37:03.261Z</time>
      </trkpt>
      <trkpt lat="51.332825" lon="9.320781">
        <ele>335.608437</ele>
        <time>2026-03-20T13:37:05.679Z</time>
      </trkpt>
      <trkpt lat="51.333118" lon="9.320892">
        <ele>335.879586</ele>
        <time>2026-03-20T13:37:14.664Z</time>
      </trkpt>
      <trkpt lat="51.333587" lon="9.320972">
        <ele>336.495071</ele>
        <time>2026-03-20T13:37:31.084Z</time>
      </trkpt>
      <trkpt lat="51.333658" lon="9.320996">
        <ele>336.805866</ele>
        <time>2026-03-20T13:37:33.822Z</time>
      </trkpt>
      <trkpt lat="51.334042" lon="9.321378">
        <ele>338.742283</ele>
        <time>2026-03-20T13:37:52.007Z</time>
      </trkpt>
      <trkpt lat="51.334371" lon="9.321614">
        <ele>340.286402</ele>
        <time>2026-03-20T13:38:07.643Z</time>
      </trkpt>
      <trkpt lat="51.334494" lon="9.321758">
        <ele>340.939081</ele>
        <time>2026-03-20T13:38:14.275Z</time>
      </trkpt>
      <trkpt lat="51.334568" lon="9.321935">
        <ele>341.508966</ele>
        <time>2026-03-20T13:38:20.079Z</time>
      </trkpt>
      <trkpt lat="51.334664" lon="9.322484">
        <ele>343.034457</ele>
        <time>2026-03-20T13:38:34.772Z</time>
      </trkpt>
      <trkpt lat="51.335069" lon="9.323786">
        <ele>345.988890</ele>
        <time>2026-03-20T13:39:06.729Z</time>
      </trkpt>
      <trkpt lat="51.335355" lon="9.324096">
        <ele>347.001209</ele>
        <time>2026-03-20T13:39:17.599Z</time>
      </trkpt>
      <trkpt lat="51.335692" lon="9.324145">
        <ele>347.992953</ele>
        <time>2026-03-20T13:39:28.058Z</time>
      </trkpt>
      <trkpt lat="51.335974" lon="9.323947">
        <ele>348.895457</ele>
        <time>2026-03-20T13:39:38.305Z</time>
      </trkpt>
      <trkpt lat="51.336160" lon="9.323620">
        <ele>349.671593</ele>
        <time>2026-03-20T13:39:47.824Z</time>
      </trkpt>
      <trkpt lat="51.336352" lon="9.323390">
        <ele>350.324922</ele>
        <time>2026-03-20T13:39:56.129Z</time>
      </trkpt>
      <trkpt lat="51.336502" lon="9.323358">
        <ele>350.737180</ele>
        <time>2026-03-20T13:40:01.383Z</time>
      </trkpt>
      <trkpt lat="51.336641" lon="9.323396">
        <ele>351.121341</ele>
        <time>2026-03-20T13:40:06.253Z</time>
      </trkpt>
      <trkpt lat="51.336726" lon="9.323461">
        <ele>351.377976</ele>
        <time>2026-03-20T13:40:09.456Z</time>
      </trkpt>
      <trkpt lat="51.336803" lon="9.323586">
        <ele>351.676749</ele>
        <time>2026-03-20T13:40:13.270Z</time>
      </trkpt>
      <trkpt lat="51.336854" lon="9.323565">
        <ele>351.820212</ele>
        <time>2026-03-20T13:40:14.994Z</time>
      </trkpt>
      <trkpt lat="51.337013" lon="9.323733">
        <ele>352.339238</ele>
        <time>2026-03-20T13:40:21.481Z</time>
      </trkpt>
      <trkpt lat="51.337228" lon="9.324155">
        <ele>353.266022</ele>
        <time>2026-03-20T13:40:32.942Z</time>
      </trkpt>
      <trkpt lat="51.337386" lon="9.324568">
        <ele>354.090256</ele>
        <time>2026-03-20T13:40:42.891Z</time>
      </trkpt>
      <trkpt lat="51.337706" lon="9.325657">
        <ele>354.914385</ele>
        <time>2026-03-20T13:41:04.188Z</time>
      </trkpt>
      <trkpt lat="51.337929" lon="9.326512">
        <ele>355.530947</ele>
        <time>2026-03-20T13:41:18.842Z</time>
      </trkpt>
      <trkpt lat="51.338338" lon="9.328003">
        <ele>355.848777</ele>
        <time>2026-03-20T13:41:42.360Z</time>
      </trkpt>
      <trkpt lat="51.338380" lon="9.328102">
        <ele>355.821456</ele>
        <time>2026-03-20T13:41:43.952Z</time>
      </trkpt>
      <trkpt lat="51.338711" lon="9.329372">
        <ele>355.507298</ele>
        <time>2026-03-20T13:42:01.650Z</time>
      </trkpt>
      <trkpt lat="51.338765" lon="9.329353">
        <ele>355.487093</ele>
        <time>2026-03-20T13:42:02.751Z</time>
      </trkpt>
      <trkpt lat="51.338848" lon="9.329282">
        <ele>355.452702</ele>
        <time>2026-03-20T13:42:04.630Z</time>
      </trkpt>
      <trkpt lat="51.340109" lon="9.334299">
        <ele>352.005522</ele>
        <time>2026-03-20T13:43:09.652Z</time>
      </trkpt>
      <trkpt lat="51.340564" lon="9.336137">
        <ele>350.373656</ele>
        <time>2026-03-20T13:43:32.216Z</time>
      </trkpt>
      <trkpt lat="51.340591" lon="9.336350">
        <ele>350.182882</ele>
        <time>2026-03-20T13:43:34.584Z</time>
      </trkpt>
      <trkpt lat="51.340534" lon="9.336351">
        <ele>350.102785</ele>
        <time>2026-03-20T13:43:35.625Z</time>
      </trkpt>
      <trkpt lat="51.340657" lon="9.336918">
        <ele>349.575938</ele>
        <time>2026-03-20T13:43:42.283Z</time>
      </trkpt>
      <trkpt lat="51.340790" lon="9.337459">
        <ele>349.065618</ele>
        <time>2026-03-20T13:43:49.234Z</time>
      </trkpt>
      <trkpt lat="51.340797" lon="9.337487">
        <ele>349.039146</ele>
        <time>2026-03-20T13:43:49.633Z</time>
      </trkpt>
      <trkpt lat="51.340957" lon="9.338308">
        <ele>348.962270</ele>
        <time>2026-03-20T13:44:01.030Z</time>
      </trkpt>
      <trkpt lat="51.341151" lon="9.339807">
        <ele>348.853836</ele>
        <time>2026-03-20T13:44:22.773Z</time>
      </trkpt>
      <trkpt lat="51.341299" lon="9.340871">
        <ele>349.112920</ele>
        <time>2026-03-20T13:44:37.968Z</time>
      </trkpt>
      <trkpt lat="51.341510" lon="9.341835">
        <ele>349.630944</ele>
        <time>2026-03-20T13:44:53.591Z</time>
      </trkpt>
      <trkpt lat="51.341611" lon="9.342338">
        <ele>349.898888</ele>
        <time>2026-03-20T13:45:02.850Z</time>
      </trkpt>
      <trkpt lat="51.341665" lon="9.342640">
        <ele>350.058194</ele>
        <time>2026-03-20T13:45:08.525Z</time>
      </trkpt>
      <trkpt lat="51.341812" lon="9.343475">
        <ele>350.356995</ele>
        <time>2026-03-20T13:45:23.947Z</time>
      </trkpt>
      <trkpt lat="51.341874" lon="9.343816">
        <ele>350.421597</ele>
        <time>2026-03-20T13:45:30.214Z</time>
      </trkpt>
      <trkpt lat="51.342126" lon="9.344977">
        <ele>350.645171</ele>
        <time>2026-03-20T13:45:47.693Z</time>
      </trkpt>
      <trkpt lat="51.342248" lon="9.346061">
        <ele>350.888339</ele>
        <time>2026-03-20T13:46:01.042Z</time>
      </trkpt>
      <trkpt lat="51.342268" lon="9.346303">
        <ele>350.976225</ele>
        <time>2026-03-20T13:46:04.188Z</time>
      </trkpt>
      <trkpt lat="51.342312" lon="9.346799">
        <ele>351.156590</ele>
        <time>2026-03-20T13:46:11.075Z</time>
      </trkpt>
      <trkpt lat="51.342323" lon="9.346920">
        <ele>351.200612</ele>
        <time>2026-03-20T13:46:12.856Z</time>
      </trkpt>
      <trkpt lat="51.342384" lon="9.347578">
        <ele>351.440105</ele>
        <time>2026-03-20T13:46:23.244Z</time>
      </trkpt>
      <trkpt lat="51.342531" lon="9.349021">
        <ele>352.318995</ele>
        <time>2026-03-20T13:46:48.804Z</time>
      </trkpt>
      <trkpt lat="51.342697" lon="9.349884">
        <ele>353.539202</ele>
        <time>2026-03-20T13:47:05.517Z</time>
      </trkpt>
      <trkpt lat="51.342863" lon="9.350624">
        <ele>354.601684</ele>
        <time>2026-03-20T13:47:20.812Z</time>
      </trkpt>
      <trkpt lat="51.342871" lon="9.350670">
        <ele>354.666207</ele>
        <time>2026-03-20T13:47:21.771Z</time>
      </trkpt>
      <trkpt lat="51.342913" lon="9.351331">
        <ele>355.564019</ele>
        <time>2026-03-20T13:47:35.394Z</time>
      </trkpt>
      <trkpt lat="51.342892" lon="9.352279">
        <ele>357.257255</ele>
        <time>2026-03-20T13:47:55.766Z</time>
      </trkpt>
      <trkpt lat="51.342880" lon="9.352805">
        <ele>358.230595</ele>
        <time>2026-03-20T13:48:07.401Z</time>
      </trkpt>
      <trkpt lat="51.342908" lon="9.353336">
        <ele>359.216025</ele>
        <time>2026-03-20T13:48:19.190Z</time>
      </trkpt>
      <trkpt lat="51.343100" lon="9.354510">
        <ele>361.322991</ele>
        <time>2026-03-20T13:48:45.035Z</time>
      </trkpt>
      <trkpt lat="51.343212" lon="9.356542">
        <ele>363.821030</ele>
        <time>2026-03-20T13:49:23.734Z</time>
      </trkpt>
      <trkpt lat="51.343298" lon="9.357208">
        <ele>364.631433</ele>
        <time>2026-03-20T13:49:35.375Z</time>
      </trkpt>
      <trkpt lat="51.343379" lon="9.357591">
        <ele>364.976003</ele>
        <time>2026-03-20T13:49:42.117Z</time>
      </trkpt>
      <trkpt lat="51.343415" lon="9.357738">
        <ele>365.110551</ele>
        <time>2026-03-20T13:49:44.714Z</time>
      </trkpt>
      <trkpt lat="51.343720" lon="9.358848">
        <ele>366.143898</ele>
        <time>2026-03-20T13:50:04.603Z</time>
      </trkpt>
      <trkpt lat="51.343864" lon="9.359514">
        <ele>366.744458</ele>
        <time>2026-03-20T13:50:16.879Z</time>
      </trkpt>
      <trkpt lat="51.343919" lon="9.359920">
        <ele>367.159137</ele>
        <time>2026-03-20T13:50:24.478Z</time>
      </trkpt>
      <trkpt lat="51.343936" lon="9.360331">
        <ele>367.839604</ele>
        <time>2026-03-20T13:50:32.300Z</time>
      </trkpt>
      <trkpt lat="51.343958" lon="9.360839">
        <ele>368.680844</ele>
        <time>2026-03-20T13:50:42.315Z</time>
      </trkpt>
      <trkpt lat="51.343958" lon="9.363124">
        <ele>372.668984</ele>
        <time>2026-03-20T13:51:31.097Z</time>
      </trkpt>
      <trkpt lat="51.343932" lon="9.364198">
        <ele>375.014110</ele>
        <time>2026-03-20T13:51:55.251Z</time>
      </trkpt>
      <trkpt lat="51.343870" lon="9.364983">
        <ele>376.740545</ele>
        <time>2026-03-20T13:52:13.396Z</time>
      </trkpt>
      <trkpt lat="51.343799" lon="9.365417">
        <ele>377.719432</ele>
        <time>2026-03-20T13:52:23.809Z</time>
      </trkpt>
      <trkpt lat="51.343421" lon="9.366729">
        <ele>381.267499</ele>
        <time>2026-03-20T13:52:58.240Z</time>
      </trkpt>
      <trkpt lat="51.342678" lon="9.369306">
        <ele>387.513202</ele>
        <time>2026-03-20T13:54:06.663Z</time>
      </trkpt>
      <trkpt lat="51.342148" lon="9.371156">
        <ele>389.955472</ele>
        <time>2026-03-20T13:54:47.738Z</time>
      </trkpt>
      <trkpt lat="51.342005" lon="9.371744">
        <ele>389.079415</ele>
        <time>2026-03-20T13:54:55.072Z</time>
      </trkpt>
      <trkpt lat="51.341975" lon="9.372013">
        <ele>388.700034</ele>
        <time>2026-03-20T13:54:57.966Z</time>
      </trkpt>
      <trkpt lat="51.341986" lon="9.372424">
        <ele>388.128883</ele>
        <time>2026-03-20T13:55:02.123Z</time>
      </trkpt>
      <trkpt lat="51.342047" lon="9.372787">
        <ele>387.606981</ele>
        <time>2026-03-20T13:55:05.779Z</time>
      </trkpt>
      <trkpt lat="51.342228" lon="9.373268">
        <ele>386.827360</ele>
        <time>2026-03-20T13:55:11.141Z</time>
      </trkpt>
      <trkpt lat="51.342385" lon="9.373521">
        <ele>386.194901</ele>
        <time>2026-03-20T13:55:14.519Z</time>
      </trkpt>
      <trkpt lat="51.342534" lon="9.373699">
        <ele>385.461363</ele>
        <time>2026-03-20T13:55:17.323Z</time>
      </trkpt>
      <trkpt lat="51.342701" lon="9.373831">
        <ele>384.726516</ele>
        <time>2026-03-20T13:55:20.188Z</time>
      </trkpt>
      <trkpt lat="51.342838" lon="9.373895">
        <ele>384.163430</ele>
        <time>2026-03-20T13:55:22.430Z</time>
      </trkpt>
      <trkpt lat="51.343101" lon="9.373957">
        <ele>383.114558</ele>
        <time>2026-03-20T13:55:26.658Z</time>
      </trkpt>
      <trkpt lat="51.343591" lon="9.374039">
        <ele>381.170700</ele>
        <time>2026-03-20T13:55:34.579Z</time>
      </trkpt>
      <trkpt lat="51.343793" lon="9.374079">
        <ele>380.367624</ele>
        <time>2026-03-20T13:55:37.859Z</time>
      </trkpt>
      <trkpt lat="51.344226" lon="9.374152">
        <ele>378.673125</ele>
        <time>2026-03-20T13:55:44.808Z</time>
      </trkpt>
      <trkpt lat="51.345195" lon="9.374391">
        <ele>374.923280</ele>
        <time>2026-03-20T13:56:00.085Z</time>
      </trkpt>
      <trkpt lat="51.346192" lon="9.374776">
        <ele>371.345926</ele>
        <time>2026-03-20T13:56:16.467Z</time>
      </trkpt>
      <trkpt lat="51.346695" lon="9.374970">
        <ele>369.812747</ele>
        <time>2026-03-20T13:56:25.175Z</time>
      </trkpt>
      <trkpt lat="51.346873" lon="9.375027">
        <ele>369.274832</ele>
        <time>2026-03-20T13:56:28.269Z</time>
      </trkpt>
      <trkpt lat="51.347199" lon="9.375041">
        <ele>368.308450</ele>
        <time>2026-03-20T13:56:33.873Z</time>
      </trkpt>
      <trkpt lat="51.347475" lon="9.374970">
        <ele>367.480090</ele>
        <time>2026-03-20T13:56:38.606Z</time>
      </trkpt>
      <trkpt lat="51.348167" lon="9.374500">
        <ele>364.374205</ele>
        <time>2026-03-20T13:56:50.539Z</time>
      </trkpt>
      <trkpt lat="51.348310" lon="9.374484">
        <ele>363.758167</ele>
        <time>2026-03-20T13:56:52.793Z</time>
      </trkpt>
      <trkpt lat="51.348379" lon="9.374511">
        <ele>363.452914</ele>
        <time>2026-03-20T13:56:53.895Z</time>
      </trkpt>
      <trkpt lat="51.348455" lon="9.374592">
        <ele>363.060560</ele>
        <time>2026-03-20T13:56:55.313Z</time>
      </trkpt>
      <trkpt lat="51.348538" lon="9.374791">
        <ele>362.418271</ele>
        <time>2026-03-20T13:56:57.616Z</time>
      </trkpt>
      <trkpt lat="51.348573" lon="9.375029">
        <ele>361.761982</ele>
        <time>2026-03-20T13:56:59.971Z</time>
      </trkpt>
      <trkpt lat="51.348552" lon="9.375289">
        <ele>361.058300</ele>
        <time>2026-03-20T13:57:02.479Z</time>
      </trkpt>
      <trkpt lat="51.348424" lon="9.375563">
        <ele>360.139893</ele>
        <time>2026-03-20T13:57:05.743Z</time>
      </trkpt>
      <trkpt lat="51.347498" lon="9.376373">
        <ele>354.283760</ele>
        <time>2026-03-20T13:57:21.206Z</time>
      </trkpt>
      <trkpt lat="51.347188" lon="9.376626">
        <ele>352.277671</ele>
        <time>2026-03-20T13:57:26.266Z</time>
      </trkpt>
      <trkpt lat="51.346799" lon="9.376880">
        <ele>349.855582</ele>
        <time>2026-03-20T13:57:32.399Z</time>
      </trkpt>
      <trkpt lat="51.346582" lon="9.377036">
        <ele>348.713005</ele>
        <time>2026-03-20T13:57:35.893Z</time>
      </trkpt>
      <trkpt lat="51.345760" lon="9.377279">
        <ele>345.672833</ele>
        <time>2026-03-20T13:57:48.997Z</time>
      </trkpt>
      <trkpt lat="51.345225" lon="9.377479">
        <ele>343.674683</ele>
        <time>2026-03-20T13:57:58.781Z</time>
      </trkpt>
      <trkpt lat="51.345001" lon="9.377618">
        <ele>342.800932</ele>
        <time>2026-03-20T13:58:02.725Z</time>
      </trkpt>
      <trkpt lat="51.344705" lon="9.377924">
        <ele>341.192685</ele>
        <time>2026-03-20T13:58:08.485Z</time>
      </trkpt>
      <trkpt lat="51.344753" lon="9.377949">
        <ele>340.951585</ele>
        <time>2026-03-20T13:58:09.291Z</time>
      </trkpt>
      <trkpt lat="51.344884" lon="9.377948">
        <ele>340.325858</ele>
        <time>2026-03-20T13:58:11.404Z</time>
      </trkpt>
      <trkpt lat="51.345434" lon="9.377724">
        <ele>337.615113</ele>
        <time>2026-03-20T13:58:20.143Z</time>
      </trkpt>
      <trkpt lat="51.345873" lon="9.377537">
        <ele>335.445281</ele>
        <time>2026-03-20T13:58:26.723Z</time>
      </trkpt>
      <trkpt lat="51.346251" lon="9.377607">
        <ele>333.642763</ele>
        <time>2026-03-20T13:58:32.224Z</time>
      </trkpt>
      <trkpt lat="51.346724" lon="9.378007">
        <ele>331.199514</ele>
        <time>2026-03-20T13:58:40.182Z</time>
      </trkpt>
      <trkpt lat="51.347359" lon="9.378202">
        <ele>328.246338</ele>
        <time>2026-03-20T13:58:49.956Z</time>
      </trkpt>
      <trkpt lat="51.347745" lon="9.378262">
        <ele>326.475028</ele>
        <time>2026-03-20T13:58:56.135Z</time>
      </trkpt>
      <trkpt lat="51.348135" lon="9.378191">
        <ele>325.441483</ele>
        <time>2026-03-20T13:59:02.831Z</time>
      </trkpt>
      <trkpt lat="51.348748" lon="9.378022">
        <ele>324.609263</ele>
        <time>2026-03-20T13:59:15.006Z</time>
      </trkpt>
      <trkpt lat="51.349128" lon="9.377711">
        <ele>324.038279</ele>
        <time>2026-03-20T13:59:24.530Z</time>
      </trkpt>
      <trkpt lat="51.349856" lon="9.377004">
        <ele>321.386123</ele>
        <time>2026-03-20T13:59:40.891Z</time>
      </trkpt>
      <trkpt lat="51.350235" lon="9.376746">
        <ele>318.984464</ele>
        <time>2026-03-20T13:59:47.337Z</time>
      </trkpt>
      <trkpt lat="51.350409" lon="9.376670">
        <ele>317.932681</ele>
        <time>2026-03-20T13:59:49.995Z</time>
      </trkpt>
      <trkpt lat="51.350553" lon="9.376617">
        <ele>317.071024</ele>
        <time>2026-03-20T13:59:52.128Z</time>
      </trkpt>
      <trkpt lat="51.350807" lon="9.376587">
        <ele>315.585763</ele>
        <time>2026-03-20T13:59:55.680Z</time>
      </trkpt>
      <trkpt lat="51.351070" lon="9.376637">
        <ele>314.041269</ele>
        <time>2026-03-20T13:59:59.277Z</time>
      </trkpt>
      <trkpt lat="51.351285" lon="9.376710">
        <ele>312.748142</ele>
        <time>2026-03-20T14:00:02.264Z</time>
      </trkpt>
      <trkpt lat="51.351633" lon="9.376942">
        <ele>310.300609</ele>
        <time>2026-03-20T14:00:07.418Z</time>
      </trkpt>
      <trkpt lat="51.351877" lon="9.377212">
        <ele>308.374847</ele>
        <time>2026-03-20T14:00:11.486Z</time>
      </trkpt>
      <trkpt lat="51.352060" lon="9.377467">
        <ele>306.799727</ele>
        <time>2026-03-20T14:00:14.899Z</time>
      </trkpt>
      <trkpt lat="51.352326" lon="9.377883">
        <ele>304.385522</ele>
        <time>2026-03-20T14:00:20.378Z</time>
      </trkpt>
      <trkpt lat="51.352625" lon="9.378281">
        <ele>301.860952</ele>
        <time>2026-03-20T14:00:26.560Z</time>
      </trkpt>
      <trkpt lat="51.352786" lon="9.378431">
        <ele>301.122327</ele>
        <time>2026-03-20T14:00:29.840Z</time>
      </trkpt>
      <trkpt lat="51.353038" lon="9.378561">
        <ele>300.928281</ele>
        <time>2026-03-20T14:00:34.919Z</time>
      </trkpt>
      <trkpt lat="51.353435" lon="9.378614">
        <ele>300.636300</ele>
        <time>2026-03-20T14:00:43.062Z</time>
      </trkpt>
      <trkpt lat="51.353523" lon="9.378610">
        <ele>300.571777</ele>
        <time>2026-03-20T14:00:44.888Z</time>
      </trkpt>
      <trkpt lat="51.354118" lon="9.378578">
        <ele>300.135440</ele>
        <time>2026-03-20T14:00:57.181Z</time>
      </trkpt>
      <trkpt lat="51.354289" lon="9.378610">
        <ele>300.009257</ele>
        <time>2026-03-20T14:01:00.888Z</time>
      </trkpt>
      <trkpt lat="51.354555" lon="9.378754">
        <ele>299.995238</ele>
        <time>2026-03-20T14:01:07.282Z</time>
      </trkpt>
      <trkpt lat="51.354879" lon="9.379048">
        <ele>300.587442</ele>
        <time>2026-03-20T14:01:16.614Z</time>
      </trkpt>
      <trkpt lat="51.356248" lon="9.376772">
        <ele>302.020439</ele>
        <time>2026-03-20T14:02:17.898Z</time>
      </trkpt>
      <trkpt lat="51.357721" lon="9.378417">
        <ele>298.143934</ele>
        <time>2026-03-20T14:02:47.534Z</time>
      </trkpt>
      <trkpt lat="51.358367" lon="9.379138">
        <ele>294.915671</ele>
        <time>2026-03-20T14:02:59.565Z</time>
      </trkpt>
      <trkpt lat="51.358778" lon="9.379597">
        <ele>292.787389</ele>
        <time>2026-03-20T14:03:07.155Z</time>
      </trkpt>
      <trkpt lat="51.359234" lon="9.380159">
        <ele>290.063689</ele>
        <time>2026-03-20T14:03:15.934Z</time>
      </trkpt>
      <trkpt lat="51.359974" lon="9.381070">
        <ele>285.645504</ele>
        <time>2026-03-20T14:03:30.088Z</time>
      </trkpt>
      <trkpt lat="51.360198" lon="9.381346">
        <ele>284.391304</ele>
        <time>2026-03-20T14:03:34.630Z</time>
      </trkpt>
      <trkpt lat="51.360279" lon="9.381446">
        <ele>283.985281</ele>
        <time>2026-03-20T14:03:36.299Z</time>
      </trkpt>
      <trkpt lat="51.361784" lon="9.383041">
        <ele>277.016877</ele>
        <time>2026-03-20T14:04:06.182Z</time>
      </trkpt>
      <trkpt lat="51.361928" lon="9.383589">
        <ele>275.877304</ele>
        <time>2026-03-20T14:04:12.195Z</time>
      </trkpt>
      <trkpt lat="51.362106" lon="9.384314">
        <ele>274.384139</ele>
        <time>2026-03-20T14:04:20.162Z</time>
      </trkpt>
      <trkpt lat="51.362899" lon="9.387330">
        <ele>268.703327</ele>
        <time>2026-03-20T14:04:54.750Z</time>
      </trkpt>
      <trkpt lat="51.362860" lon="9.387645">
        <ele>268.177663</ele>
        <time>2026-03-20T14:04:58.259Z</time>
      </trkpt>
      <trkpt lat="51.363278" lon="9.388301">
        <ele>266.724962</ele>
        <time>2026-03-20T14:05:07.974Z</time>
      </trkpt>
      <trkpt lat="51.363554" lon="9.388856">
        <ele>265.681128</ele>
        <time>2026-03-20T14:05:15.310Z</time>
      </trkpt>
      <trkpt lat="51.363893" lon="9.389802">
        <ele>264.076474</ele>
        <time>2026-03-20T14:05:26.705Z</time>
      </trkpt>
      <trkpt lat="51.364189" lon="9.390810">
        <ele>262.943378</ele>
        <time>2026-03-20T14:05:40.002Z</time>
      </trkpt>
      <trkpt lat="51.364344" lon="9.391229">
        <ele>262.695448</ele>
        <time>2026-03-20T14:05:46.255Z</time>
      </trkpt>
      <trkpt lat="51.364598" lon="9.391843">
        <ele>262.320496</ele>
        <time>2026-03-20T14:05:56.033Z</time>
      </trkpt>
      <trkpt lat="51.364706" lon="9.392051">
        <ele>262.182778</ele>
        <time>2026-03-20T14:05:59.630Z</time>
      </trkpt>
      <trkpt lat="51.365169" lon="9.392947">
        <ele>261.576647</ele>
        <time>2026-03-20T14:06:13.899Z</time>
      </trkpt>
      <trkpt lat="51.365244" lon="9.393034">
        <ele>261.494241</ele>
        <time>2026-03-20T14:06:15.575Z</time>
      </trkpt>
      <trkpt lat="51.365335" lon="9.393073">
        <ele>261.410414</ele>
        <time>2026-03-20T14:06:17.250Z</time>
      </trkpt>
      <trkpt lat="51.365536" lon="9.392855">
        <ele>261.194399</ele>
        <time>2026-03-20T14:06:21.511Z</time>
      </trkpt>
      <trkpt lat="51.365642" lon="9.392691">
        <ele>261.063251</ele>
        <time>2026-03-20T14:06:24.239Z</time>
      </trkpt>
      <trkpt lat="51.365735" lon="9.392604">
        <ele>260.967411</ele>
        <time>2026-03-20T14:06:26.352Z</time>
      </trkpt>
      <trkpt lat="51.365793" lon="9.392592">
        <ele>260.915370</ele>
        <time>2026-03-20T14:06:27.472Z</time>
      </trkpt>
      <trkpt lat="51.365922" lon="9.392655">
        <ele>260.795359</ele>
        <time>2026-03-20T14:06:30.097Z</time>
      </trkpt>
      <trkpt lat="51.365980" lon="9.392725">
        <ele>260.730734</ele>
        <time>2026-03-20T14:06:31.520Z</time>
      </trkpt>
      <trkpt lat="51.366133" lon="9.393022">
        <ele>260.516806</ele>
        <time>2026-03-20T14:06:36.228Z</time>
      </trkpt>
      <trkpt lat="51.366183" lon="9.393122">
        <ele>260.445628</ele>
        <time>2026-03-20T14:06:37.806Z</time>
      </trkpt>
      <trkpt lat="51.366220" lon="9.393282">
        <ele>260.350833</ele>
        <time>2026-03-20T14:06:39.879Z</time>
      </trkpt>
      <trkpt lat="51.366244" lon="9.393438">
        <ele>260.261569</ele>
        <time>2026-03-20T14:06:41.917Z</time>
      </trkpt>
      <trkpt lat="51.366239" lon="9.393808">
        <ele>260.149133</ele>
        <time>2026-03-20T14:06:46.636Z</time>
      </trkpt>
      <trkpt lat="51.366257" lon="9.393920">
        <ele>260.152985</ele>
        <time>2026-03-20T14:06:48.178Z</time>
      </trkpt>
      <trkpt lat="51.366843" lon="9.395325">
        <ele>260.209263</ele>
        <time>2026-03-20T14:07:15.326Z</time>
      </trkpt>
      <trkpt lat="51.367398" lon="9.396541">
        <ele>259.218219</ele>
        <time>2026-03-20T14:07:34.554Z</time>
      </trkpt>
      <trkpt lat="51.367455" lon="9.396669">
        <ele>258.945491</ele>
        <time>2026-03-20T14:07:36.332Z</time>
      </trkpt>
      <trkpt lat="51.367693" lon="9.397417">
        <ele>257.489193</ele>
        <time>2026-03-20T14:07:45.286Z</time>
      </trkpt>
      <trkpt lat="51.367800" lon="9.398197">
        <ele>256.103904</ele>
        <time>2026-03-20T14:07:53.255Z</time>
      </trkpt>
      <trkpt lat="51.367816" lon="9.398547">
        <ele>255.495159</ele>
        <time>2026-03-20T14:07:56.592Z</time>
      </trkpt>
      <trkpt lat="51.367799" lon="9.398806">
        <ele>254.901257</ele>
        <time>2026-03-20T14:07:59.049Z</time>
      </trkpt>
      <trkpt lat="51.367760" lon="9.399309">
        <ele>253.393926</ele>
        <time>2026-03-20T14:08:03.728Z</time>
      </trkpt>
      <trkpt lat="51.367733" lon="9.399654">
        <ele>252.359922</ele>
        <time>2026-03-20T14:08:06.932Z</time>
      </trkpt>
      <trkpt lat="51.367680" lon="9.400410">
        <ele>250.097567</ele>
        <time>2026-03-20T14:08:14.061Z</time>
      </trkpt>
      <trkpt lat="51.367646" lon="9.400639">
        <ele>249.397565</ele>
        <time>2026-03-20T14:08:16.289Z</time>
      </trkpt>
      <trkpt lat="51.367585" lon="9.401040">
        <ele>248.170163</ele>
        <time>2026-03-20T14:08:20.201Z</time>
      </trkpt>
      <trkpt lat="51.367489" lon="9.401756">
        <ele>246.299582</ele>
        <time>2026-03-20T14:08:27.249Z</time>
      </trkpt>
      <trkpt lat="51.366994" lon="9.404303">
        <ele>241.946928</ele>
        <time>2026-03-20T14:08:55.776Z</time>
      </trkpt>
      <trkpt lat="51.366939" lon="9.404746">
        <ele>241.467577</ele>
        <time>2026-03-20T14:09:01.020Z</time>
      </trkpt>
      <trkpt lat="51.366899" lon="9.405318">
        <ele>240.856731</ele>
        <time>2026-03-20T14:09:07.744Z</time>
      </trkpt>
      <trkpt lat="51.366856" lon="9.406756">
        <ele>239.328864</ele>
        <time>2026-03-20T14:09:24.149Z</time>
      </trkpt>
      <trkpt lat="51.366872" lon="9.408064">
        <ele>237.563440</ele>
        <time>2026-03-20T14:09:38.462Z</time>
      </trkpt>
      <trkpt lat="51.366969" lon="9.410621">
        <ele>233.834046</ele>
        <time>2026-03-20T14:10:05.548Z</time>
      </trkpt>
      <trkpt lat="51.367083" lon="9.412122">
        <ele>231.731459</ele>
        <time>2026-03-20T14:10:21.573Z</time>
      </trkpt>
      <trkpt lat="51.367137" lon="9.412874">
        <ele>230.678881</ele>
        <time>2026-03-20T14:10:29.877Z</time>
      </trkpt>
      <trkpt lat="51.367130" lon="9.412977">
        <ele>230.628213</ele>
        <time>2026-03-20T14:10:31.065Z</time>
      </trkpt>
      <trkpt lat="51.367094" lon="9.413057">
        <ele>230.602224</ele>
        <time>2026-03-20T14:10:32.186Z</time>
      </trkpt>
      <trkpt lat="51.367036" lon="9.413167">
        <ele>230.564278</ele>
        <time>2026-03-20T14:10:35.186Z</time>
      </trkpt>
      <trkpt lat="51.366978" lon="9.413393">
        <ele>230.499880</ele>
        <time>2026-03-20T14:10:38.116Z</time>
      </trkpt>
      <trkpt lat="51.367066" lon="9.413799">
        <ele>230.386614</ele>
        <time>2026-03-20T14:10:43.510Z</time>
      </trkpt>
      <trkpt lat="51.367133" lon="9.413969">
        <ele>230.333630</ele>
        <time>2026-03-20T14:10:46.166Z</time>
      </trkpt>
      <trkpt lat="51.367178" lon="9.414211">
        <ele>230.267082</ele>
        <time>2026-03-20T14:10:49.579Z</time>
      </trkpt>
      <trkpt lat="51.367210" lon="9.414628">
        <ele>230.156356</ele>
        <time>2026-03-20T14:10:55.404Z</time>
      </trkpt>
      <trkpt lat="51.367155" lon="9.415739">
        <ele>229.828362</ele>
        <time>2026-03-20T14:11:11.894Z</time>
      </trkpt>
      <trkpt lat="51.367029" lon="9.416819">
        <ele>229.186352</ele>
        <time>2026-03-20T14:11:27.062Z</time>
      </trkpt>
      <trkpt lat="51.367011" lon="9.416973">
        <ele>229.094800</ele>
        <time>2026-03-20T14:11:29.680Z</time>
      </trkpt>
      <trkpt lat="51.366961" lon="9.417110">
        <ele>229.002071</ele>
        <time>2026-03-20T14:11:32.290Z</time>
      </trkpt>
      <trkpt lat="51.366932" lon="9.417133">
        <ele>228.971783</ele>
        <time>2026-03-20T14:11:33.134Z</time>
      </trkpt>
      <trkpt lat="51.366915" lon="9.417323">
        <ele>228.859624</ele>
        <time>2026-03-20T14:11:36.211Z</time>
      </trkpt>
      <trkpt lat="51.366918" lon="9.417440">
        <ele>228.791199</ele>
        <time>2026-03-20T14:11:38.070Z</time>
      </trkpt>
      <trkpt lat="51.366990" lon="9.417666">
        <ele>228.642938</ele>
        <time>2026-03-20T14:11:42.050Z</time>
      </trkpt>
      <trkpt lat="51.366989" lon="9.417791">
        <ele>228.569889</ele>
        <time>2026-03-20T14:11:43.976Z</time>
      </trkpt>
      <trkpt lat="51.366844" lon="9.418903">
        <ele>227.358794</ele>
        <time>2026-03-20T14:12:00.907Z</time>
      </trkpt>
      <trkpt lat="51.366753" lon="9.419924">
        <ele>225.661349</ele>
        <time>2026-03-20T14:12:11.605Z</time>
      </trkpt>
      <trkpt lat="51.366758" lon="9.420165">
        <ele>225.264480</ele>
        <time>2026-03-20T14:12:14.103Z</time>
      </trkpt>
      <trkpt lat="51.366804" lon="9.420255">
        <ele>225.073048</ele>
        <time>2026-03-20T14:12:15.312Z</time>
      </trkpt>
      <trkpt lat="51.366805" lon="9.420429">
        <ele>224.786659</ele>
        <time>2026-03-20T14:12:17.117Z</time>
      </trkpt>
      <trkpt lat="51.366802" lon="9.420579">
        <ele>224.539655</ele>
        <time>2026-03-20T14:12:18.682Z</time>
      </trkpt>
      <trkpt lat="51.366796" lon="9.420856">
        <ele>224.083482</ele>
        <time>2026-03-20T14:12:21.593Z</time>
      </trkpt>
      <trkpt lat="51.366652" lon="9.422106">
        <ele>222.117623</ele>
        <time>2026-03-20T14:12:34.836Z</time>
      </trkpt>
      <trkpt lat="51.366577" lon="9.422391">
        <ele>221.652153</ele>
        <time>2026-03-20T14:12:38.036Z</time>
      </trkpt>
      <trkpt lat="51.366532" lon="9.422558">
        <ele>221.378409</ele>
        <time>2026-03-20T14:12:39.902Z</time>
      </trkpt>
      <trkpt lat="51.366457" lon="9.422796">
        <ele>220.977178</ele>
        <time>2026-03-20T14:12:42.671Z</time>
      </trkpt>
      <trkpt lat="51.366407" lon="9.423054">
        <ele>220.570611</ele>
        <time>2026-03-20T14:12:45.514Z</time>
      </trkpt>
      <trkpt lat="51.366404" lon="9.423360">
        <ele>220.110023</ele>
        <time>2026-03-20T14:12:48.769Z</time>
      </trkpt>
      <trkpt lat="51.366440" lon="9.423589">
        <ele>219.754620</ele>
        <time>2026-03-20T14:12:51.358Z</time>
      </trkpt>
      <trkpt lat="51.366475" lon="9.423813">
        <ele>219.407103</ele>
        <time>2026-03-20T14:12:53.947Z</time>
      </trkpt>
      <trkpt lat="51.366496" lon="9.423944">
        <ele>219.203552</ele>
        <time>2026-03-20T14:12:55.489Z</time>
      </trkpt>
      <trkpt lat="51.366535" lon="9.424272">
        <ele>218.995182</ele>
        <time>2026-03-20T14:12:59.378Z</time>
      </trkpt>
      <trkpt lat="51.366563" lon="9.424499">
        <ele>218.885685</ele>
        <time>2026-03-20T14:13:02.124Z</time>
      </trkpt>
      <trkpt lat="51.366510" lon="9.424886">
        <ele>218.698196</ele>
        <time>2026-03-20T14:13:06.882Z</time>
      </trkpt>
      <trkpt lat="51.366019" lon="9.425440">
        <ele>218.242971</ele>
        <time>2026-03-20T14:13:19.096Z</time>
      </trkpt>
      <trkpt lat="51.365869" lon="9.425682">
        <ele>218.081599</ele>
        <time>2026-03-20T14:13:23.561Z</time>
      </trkpt>
      <trkpt lat="51.365760" lon="9.425919">
        <ele>217.942300</ele>
        <time>2026-03-20T14:13:27.497Z</time>
      </trkpt>
      <trkpt lat="51.365654" lon="9.426250">
        <ele>217.766426</ele>
        <time>2026-03-20T14:13:32.603Z</time>
      </trkpt>
      <trkpt lat="51.365471" lon="9.427021">
        <ele>217.497364</ele>
        <time>2026-03-20T14:13:43.573Z</time>
      </trkpt>
      <trkpt lat="51.365432" lon="9.427194">
        <ele>217.437365</ele>
        <time>2026-03-20T14:13:45.902Z</time>
      </trkpt>
      <trkpt lat="51.365388" lon="9.427381">
        <ele>217.372178</ele>
        <time>2026-03-20T14:13:48.412Z</time>
      </trkpt>
      <trkpt lat="51.365308" lon="9.427722">
        <ele>217.253349</ele>
        <time>2026-03-20T14:13:52.992Z</time>
      </trkpt>
      <trkpt lat="51.365238" lon="9.428153">
        <ele>217.108076</ele>
        <time>2026-03-20T14:13:58.597Z</time>
      </trkpt>
      <trkpt lat="51.365285" lon="9.428165">
        <ele>217.083210</ele>
        <time>2026-03-20T14:13:59.533Z</time>
      </trkpt>
      <trkpt lat="51.365157" lon="9.429465">
        <ele>216.458326</ele>
        <time>2026-03-20T14:14:16.284Z</time>
      </trkpt>
      <trkpt lat="51.365085" lon="9.430441">
        <ele>215.775647</ele>
        <time>2026-03-20T14:14:28.069Z</time>
      </trkpt>
      <trkpt lat="51.365039" lon="9.430993">
        <ele>215.388808</ele>
        <time>2026-03-20T14:14:34.615Z</time>
      </trkpt>
      <trkpt lat="51.365049" lon="9.431612">
        <ele>214.958686</ele>
        <time>2026-03-20T14:14:41.790Z</time>
      </trkpt>
      <trkpt lat="51.365274" lon="9.434724">
        <ele>211.807650</ele>
        <time>2026-03-20T14:15:17.088Z</time>
      </trkpt>
      <trkpt lat="51.365290" lon="9.434928">
        <ele>211.622291</ele>
        <time>2026-03-20T14:15:19.377Z</time>
      </trkpt>
      <trkpt lat="51.365350" lon="9.435730">
        <ele>210.894087</ele>
        <time>2026-03-20T14:15:28.495Z</time>
      </trkpt>
      <trkpt lat="51.365390" lon="9.436759">
        <ele>209.964611</ele>
        <time>2026-03-20T14:15:40.321Z</time>
      </trkpt>
      <trkpt lat="51.365354" lon="9.437355">
        <ele>209.424787</ele>
        <time>2026-03-20T14:15:47.398Z</time>
      </trkpt>
      <trkpt lat="51.365090" lon="9.439336">
        <ele>207.942356</ele>
        <time>2026-03-20T14:16:11.866Z</time>
      </trkpt>
      <trkpt lat="51.364988" lon="9.439859">
        <ele>207.550254</ele>
        <time>2026-03-20T14:16:18.572Z</time>
      </trkpt>
      <trkpt lat="51.364738" lon="9.441602">
        <ele>205.561500</ele>
        <time>2026-03-20T14:16:38.682Z</time>
      </trkpt>
      <trkpt lat="51.365225" lon="9.441740">
        <ele>204.564128</ele>
        <time>2026-03-20T14:16:47.097Z</time>
      </trkpt>
      <trkpt lat="51.365182" lon="9.443552">
        <ele>203.014821</ele>
        <time>2026-03-20T14:17:06.484Z</time>
      </trkpt>
      <trkpt lat="51.365281" lon="9.445892">
        <ele>201.883989</ele>
        <time>2026-03-20T14:17:38.662Z</time>
      </trkpt>
      <trkpt lat="51.365318" lon="9.445992">
        <ele>201.855762</ele>
        <time>2026-03-20T14:17:40.530Z</time>
      </trkpt>
      <trkpt lat="51.365401" lon="9.446034">
        <ele>201.821907</ele>
        <time>2026-03-20T14:17:44.008Z</time>
      </trkpt>
      <trkpt lat="51.365466" lon="9.446040">
        <ele>201.796584</ele>
        <time>2026-03-20T14:17:45.669Z</time>
      </trkpt>
      <trkpt lat="51.365448" lon="9.446243">
        <ele>201.746794</ele>
        <time>2026-03-20T14:17:48.915Z</time>
      </trkpt>
      <trkpt lat="51.365477" lon="9.446711">
        <ele>201.632589</ele>
        <time>2026-03-20T14:17:56.215Z</time>
      </trkpt>
      <trkpt lat="51.365535" lon="9.446916">
        <ele>201.577936</ele>
        <time>2026-03-20T14:17:59.336Z</time>
      </trkpt>
      <trkpt lat="51.365591" lon="9.446942">
        <ele>201.555258</ele>
        <time>2026-03-20T14:18:00.532Z</time>
      </trkpt>
      <trkpt lat="51.366384" lon="9.446921">
        <ele>201.065424</ele>
        <time>2026-03-20T14:18:15.385Z</time>
      </trkpt>
      <trkpt lat="51.366449" lon="9.446986">
        <ele>200.941607</ele>
        <time>2026-03-20T14:18:16.704Z</time>
      </trkpt>
      <trkpt lat="51.366467" lon="9.447055">
        <ele>200.866166</ele>
        <time>2026-03-20T14:18:17.481Z</time>
      </trkpt>
      <trkpt lat="51.366475" lon="9.447467">
        <ele>200.450332</ele>
        <time>2026-03-20T14:18:21.883Z</time>
      </trkpt>
      <trkpt lat="51.366445" lon="9.447836">
        <ele>200.074936</ele>
        <time>2026-03-20T14:18:25.931Z</time>
      </trkpt>
      <trkpt lat="51.366252" lon="9.448809">
        <ele>199.045005</ele>
        <time>2026-03-20T14:18:37.156Z</time>
      </trkpt>
      <trkpt lat="51.366024" lon="9.449602">
        <ele>198.290051</ele>
        <time>2026-03-20T14:18:47.827Z</time>
      </trkpt>
      <trkpt lat="51.365146" lon="9.451297">
        <ele>197.263973</ele>
        <time>2026-03-20T14:19:16.548Z</time>
      </trkpt>
      <trkpt lat="51.365133" lon="9.451364">
        <ele>197.231285</ele>
        <time>2026-03-20T14:19:17.402Z</time>
      </trkpt>
      <trkpt lat="51.365086" lon="9.451552">
        <ele>197.136937</ele>
        <time>2026-03-20T14:19:19.825Z</time>
      </trkpt>
      <trkpt lat="51.365065" lon="9.452848">
        <ele>195.820473</ele>
        <time>2026-03-20T14:19:34.396Z</time>
      </trkpt>
      <trkpt lat="51.365041" lon="9.453093">
        <ele>195.547509</ele>
        <time>2026-03-20T14:19:37.118Z</time>
      </trkpt>
      <trkpt lat="51.364809" lon="9.453883">
        <ele>194.586593</ele>
        <time>2026-03-20T14:19:46.744Z</time>
      </trkpt>
      <trkpt lat="51.364821" lon="9.454543">
        <ele>193.866221</ele>
        <time>2026-03-20T14:19:53.972Z</time>
      </trkpt>
      <trkpt lat="51.364839" lon="9.455202">
        <ele>193.324062</ele>
        <time>2026-03-20T14:20:01.256Z</time>
      </trkpt>
      <trkpt lat="51.364810" lon="9.455934">
        <ele>192.721211</ele>
        <time>2026-03-20T14:20:09.649Z</time>
      </trkpt>
      <trkpt lat="51.364777" lon="9.456224">
        <ele>192.478930</ele>
        <time>2026-03-20T14:20:13.091Z</time>
      </trkpt>
      <trkpt lat="51.364697" lon="9.456937">
        <ele>191.883517</ele>
        <time>2026-03-20T14:20:21.701Z</time>
      </trkpt>
      <trkpt lat="51.364671" lon="9.457167">
        <ele>191.691403</ele>
        <time>2026-03-20T14:20:24.518Z</time>
      </trkpt>
      <trkpt lat="51.364665" lon="9.457219">
        <ele>191.647940</ele>
        <time>2026-03-20T14:20:25.170Z</time>
      </trkpt>
      <trkpt lat="51.364636" lon="9.457501">
        <ele>191.556510</ele>
        <time>2026-03-20T14:20:28.749Z</time>
      </trkpt>
      <trkpt lat="51.364598" lon="9.457871">
        <ele>191.672480</ele>
        <time>2026-03-20T14:20:33.676Z</time>
      </trkpt>
      <trkpt lat="51.364528" lon="9.458555">
        <ele>191.886846</ele>
        <time>2026-03-20T14:20:43.383Z</time>
      </trkpt>
      <trkpt lat="51.364522" lon="9.458678">
        <ele>191.925003</ele>
        <time>2026-03-20T14:20:45.223Z</time>
      </trkpt>
      <trkpt lat="51.364519" lon="9.458731">
        <ele>191.941462</ele>
        <time>2026-03-20T14:20:46.036Z</time>
      </trkpt>
      <trkpt lat="51.364517" lon="9.458801">
        <ele>191.963134</ele>
        <time>2026-03-20T14:20:47.101Z</time>
      </trkpt>
      <trkpt lat="51.364516" lon="9.459119">
        <ele>192.061485</ele>
        <time>2026-03-20T14:20:52.144Z</time>
      </trkpt>
      <trkpt lat="51.364560" lon="9.459474">
        <ele>192.173419</ele>
        <time>2026-03-20T14:20:58.080Z</time>
      </trkpt>
      <trkpt lat="51.364696" lon="9.459794">
        <ele>192.293140</ele>
        <time>2026-03-20T14:21:04.593Z</time>
      </trkpt>
      <trkpt lat="51.364841" lon="9.460019">
        <ele>192.393145</ele>
        <time>2026-03-20T14:21:10.126Z</time>
      </trkpt>
      <trkpt lat="51.365255" lon="9.460404">
        <ele>193.204682</ele>
        <time>2026-03-20T14:21:23.650Z</time>
      </trkpt>
      <trkpt lat="51.365362" lon="9.460586">
        <ele>193.481995</ele>
        <time>2026-03-20T14:21:28.240Z</time>
      </trkpt>
      <trkpt lat="51.365671" lon="9.461244">
        <ele>194.395337</ele>
        <time>2026-03-20T14:21:43.470Z</time>
      </trkpt>
      <trkpt lat="51.365748" lon="9.461562">
        <ele>194.773693</ele>
        <time>2026-03-20T14:21:49.828Z</time>
      </trkpt>
      <trkpt lat="51.365779" lon="9.461899">
        <ele>195.151560</ele>
        <time>2026-03-20T14:21:56.210Z</time>
      </trkpt>
      <trkpt lat="51.365782" lon="9.462246">
        <ele>195.536522</ele>
        <time>2026-03-20T14:22:02.793Z</time>
      </trkpt>
      <trkpt lat="51.365778" lon="9.462769">
        <ele>196.286477</ele>
        <time>2026-03-20T14:22:12.866Z</time>
      </trkpt>
      <trkpt lat="51.365772" lon="9.463369">
        <ele>197.172494</ele>
        <time>2026-03-20T14:22:24.619Z</time>
      </trkpt>
      <trkpt lat="51.365767" lon="9.463938">
        <ele>198.012708</ele>
        <time>2026-03-20T14:22:35.859Z</time>
      </trkpt>
      <trkpt lat="51.365758" lon="9.464805">
        <ele>199.293015</ele>
        <time>2026-03-20T14:22:53.121Z</time>
      </trkpt>
      <trkpt lat="51.365722" lon="9.465637">
        <ele>200.479157</ele>
        <time>2026-03-20T14:23:10.466Z</time>
      </trkpt>
      <trkpt lat="51.365716" lon="9.465838">
        <ele>200.756111</ele>
        <time>2026-03-20T14:23:14.580Z</time>
      </trkpt>
      <trkpt lat="51.365687" lon="9.466457">
        <ele>201.610442</ele>
        <time>2026-03-20T14:23:27.280Z</time>
      </trkpt>
      <trkpt lat="51.365682" lon="9.466511">
        <ele>201.685575</ele>
        <time>2026-03-20T14:23:28.345Z</time>
      </trkpt>
      <trkpt lat="51.365630" lon="9.467041">
        <ele>202.423971</ele>
        <time>2026-03-20T14:23:39.053Z</time>
      </trkpt>
      <trkpt lat="51.365552" lon="9.467780">
        <ele>203.455498</ele>
        <time>2026-03-20T14:23:53.090Z</time>
      </trkpt>
      <trkpt lat="51.365455" lon="9.468713">
        <ele>204.197268</ele>
        <time>2026-03-20T14:24:09.374Z</time>
      </trkpt>
      <trkpt lat="51.365448" lon="9.468786">
        <ele>204.238025</ele>
        <time>2026-03-20T14:24:10.585Z</time>
      </trkpt>
      <trkpt lat="51.365407" lon="9.469252">
        <ele>204.497726</ele>
        <time>2026-03-20T14:24:18.299Z</time>
      </trkpt>
      <trkpt lat="51.365388" lon="9.469467">
        <ele>204.617556</ele>
        <time>2026-03-20T14:24:21.811Z</time>
      </trkpt>
      <trkpt lat="51.365343" lon="9.469824">
        <ele>204.818541</ele>
        <time>2026-03-20T14:24:27.578Z</time>
      </trkpt>
      <trkpt lat="51.365271" lon="9.470447">
        <ele>205.168183</ele>
        <time>2026-03-20T14:24:37.210Z</time>
      </trkpt>
      <trkpt lat="51.365201" lon="9.471272">
        <ele>205.308018</ele>
        <time>2026-03-20T14:24:49.319Z</time>
      </trkpt>
      <trkpt lat="51.365169" lon="9.471705">
        <ele>205.191656</ele>
        <time>2026-03-20T14:24:55.617Z</time>
      </trkpt>
      <trkpt lat="51.365141" lon="9.472007">
        <ele>205.110177</ele>
        <time>2026-03-20T14:24:59.811Z</time>
      </trkpt>
      <trkpt lat="51.365124" lon="9.472185">
        <ele>205.062122</ele>
        <time>2026-03-20T14:25:02.237Z</time>
      </trkpt>
      <trkpt lat="51.365093" lon="9.472521">
        <ele>204.971479</ele>
        <time>2026-03-20T14:25:06.664Z</time>
      </trkpt>
      <trkpt lat="51.365088" lon="9.472891">
        <ele>204.872713</ele>
        <time>2026-03-20T14:25:11.312Z</time>
      </trkpt>
      <trkpt lat="51.365121" lon="9.473118">
        <ele>204.810513</ele>
        <time>2026-03-20T14:25:14.144Z</time>
      </trkpt>
      <trkpt lat="51.365038" lon="9.473312">
        <ele>204.747751</ele>
        <time>2026-03-20T14:25:16.959Z</time>
      </trkpt>
      <trkpt lat="51.364911" lon="9.474150">
        <ele>203.997012</ele>
        <time>2026-03-20T14:25:27.122Z</time>
      </trkpt>
      <trkpt lat="51.364571" lon="9.474217">
        <ele>203.244546</ele>
        <time>2026-03-20T14:25:33.327Z</time>
      </trkpt>
      <trkpt lat="51.364424" lon="9.474316">
        <ele>202.894264</ele>
        <time>2026-03-20T14:25:36.132Z</time>
      </trkpt>
      <trkpt lat="51.364273" lon="9.474503">
        <ele>202.474995</ele>
        <time>2026-03-20T14:25:39.463Z</time>
      </trkpt>
      <trkpt lat="51.364219" lon="9.474714">
        <ele>202.162248</ele>
        <time>2026-03-20T14:25:41.901Z</time>
      </trkpt>
      <trkpt lat="51.363852" lon="9.475898">
        <ele>200.169469</ele>
        <time>2026-03-20T14:26:00.608Z</time>
      </trkpt>
      <trkpt lat="51.363228" lon="9.479216">
        <ele>194.332119</ele>
        <time>2026-03-20T14:26:35.374Z</time>
      </trkpt>
      <trkpt lat="51.363237" lon="9.479294">
        <ele>194.299891</ele>
        <time>2026-03-20T14:26:36.258Z</time>
      </trkpt>
      <trkpt lat="51.363254" lon="9.479443">
        <ele>194.238349</ele>
        <time>2026-03-20T14:26:37.962Z</time>
      </trkpt>
      <trkpt lat="51.363115" lon="9.479656">
        <ele>194.113165</ele>
        <time>2026-03-20T14:26:41.529Z</time>
      </trkpt>
      <trkpt lat="51.363714" lon="9.482390">
        <ele>195.737328</ele>
        <time>2026-03-20T14:27:31.645Z</time>
      </trkpt>
      <trkpt lat="51.363908" lon="9.483096">
        <ele>196.978007</ele>
        <time>2026-03-20T14:27:49.232Z</time>
      </trkpt>
      <trkpt lat="51.364626" lon="9.485234">
        <ele>202.002024</ele>
        <time>2026-03-20T14:28:45.889Z</time>
      </trkpt>
      <trkpt lat="51.364682" lon="9.485365">
        <ele>202.361379</ele>
        <time>2026-03-20T14:28:49.311Z</time>
      </trkpt>
      <trkpt lat="51.365341" lon="9.485983">
        <ele>205.194741</ele>
        <time>2026-03-20T14:29:16.294Z</time>
      </trkpt>
      <trkpt lat="51.365398" lon="9.486128">
        <ele>205.635598</ele>
        <time>2026-03-20T14:29:20.136Z</time>
      </trkpt>
      <trkpt lat="51.365411" lon="9.486267">
        <ele>205.997220</ele>
        <time>2026-03-20T14:29:23.298Z</time>
      </trkpt>
      <trkpt lat="51.365300" lon="9.489227">
        <ele>213.557424</ele>
        <time>2026-03-20T14:30:37.015Z</time>
      </trkpt>
      <trkpt lat="51.365313" lon="9.489366">
        <ele>213.902982</ele>
        <time>2026-03-20T14:30:40.583Z</time>
      </trkpt>
      <trkpt lat="51.365522" lon="9.489830">
        <ele>215.309659</ele>
        <time>2026-03-20T14:30:55.166Z</time>
      </trkpt>
      <trkpt lat="51.366135" lon="9.490989">
        <ele>219.044154</ele>
        <time>2026-03-20T14:31:31.268Z</time>
      </trkpt>
      <trkpt lat="51.366193" lon="9.491050">
        <ele>219.171442</ele>
        <time>2026-03-20T14:31:33.605Z</time>
      </trkpt>
      <trkpt lat="51.366210" lon="9.491308">
        <ele>219.254033</ele>
        <time>2026-03-20T14:31:38.729Z</time>
      </trkpt>
      <trkpt lat="51.366295" lon="9.491542">
        <ele>219.340219</ele>
        <time>2026-03-20T14:31:43.753Z</time>
      </trkpt>
      <trkpt lat="51.366210" lon="9.491308">
        <ele>219.426405</ele>
        <time>2026-03-20T14:31:48.451Z</time>
      </trkpt>
      <trkpt lat="51.366014" lon="9.491395">
        <ele>219.530113</ele>
        <time>2026-03-20T14:31:53.735Z</time>
      </trkpt>
      <trkpt lat="51.365546" lon="9.491501">
        <ele>219.771122</ele>
        <time>2026-03-20T14:32:04.468Z</time>
      </trkpt>
      <trkpt lat="51.365382" lon="9.491506">
        <ele>219.854761</ele>
        <time>2026-03-20T14:32:07.634Z</time>
      </trkpt>
      <trkpt lat="51.364541" lon="9.490932">
        <ele>219.096733</ele>
        <time>2026-03-20T14:32:24.480Z</time>
      </trkpt>
      <trkpt lat="51.363042" lon="9.489879">
        <ele>214.993127</ele>
        <time>2026-03-20T14:32:53.303Z</time>
      </trkpt>
      <trkpt lat="51.362996" lon="9.489847">
        <ele>214.758875</ele>
        <time>2026-03-20T14:32:54.109Z</time>
      </trkpt>
      <trkpt lat="51.360717" lon="9.488660">
        <ele>202.606677</ele>
        <time>2026-03-20T14:33:29.706Z</time>
      </trkpt>
      <trkpt lat="51.359043" lon="9.487822">
        <ele>192.717852</ele>
        <time>2026-03-20T14:33:55.561Z</time>
      </trkpt>
      <trkpt lat="51.358463" lon="9.487537">
        <ele>189.300497</ele>
        <time>2026-03-20T14:34:04.587Z</time>
      </trkpt>
      <trkpt lat="51.358310" lon="9.487597">
        <ele>188.413216</ele>
        <time>2026-03-20T14:34:06.930Z</time>
      </trkpt>
      <trkpt lat="51.356832" lon="9.488195">
        <ele>180.331292</ele>
        <time>2026-03-20T14:34:29.657Z</time>
      </trkpt>
      <trkpt lat="51.356618" lon="9.487135">
        <ele>177.354168</ele>
        <time>2026-03-20T14:34:44.127Z</time>
      </trkpt>
      <trkpt lat="51.356559" lon="9.486665">
        <ele>176.411186</ele>
        <time>2026-03-20T14:34:50.625Z</time>
      </trkpt>
      <trkpt lat="51.356516" lon="9.485899">
        <ele>174.898390</ele>
        <time>2026-03-20T14:35:01.335Z</time>
      </trkpt>
      <trkpt lat="51.356480" lon="9.485819">
        <ele>174.704429</ele>
        <time>2026-03-20T14:35:02.736Z</time>
      </trkpt>
      <trkpt lat="51.356480" lon="9.485665">
        <ele>174.401511</ele>
        <time>2026-03-20T14:35:04.948Z</time>
      </trkpt>
      <trkpt lat="51.356530" lon="9.485104">
        <ele>173.286842</ele>
        <time>2026-03-20T14:35:13.381Z</time>
      </trkpt>
      <trkpt lat="51.356464" lon="9.485069">
        <ele>173.067849</ele>
        <time>2026-03-20T14:35:14.635Z</time>
      </trkpt>
      <trkpt lat="51.356193" lon="9.485064">
        <ele>172.815698</ele>
        <time>2026-03-20T14:35:19.994Z</time>
      </trkpt>
      <trkpt lat="51.356058" lon="9.484945">
        <ele>172.910191</ele>
        <time>2026-03-20T14:35:23.236Z</time>
      </trkpt>
      <trkpt lat="51.355658" lon="9.484263">
        <ele>173.268466</ele>
        <time>2026-03-20T14:35:37.302Z</time>
      </trkpt>
      <trkpt lat="51.355617" lon="9.484194">
        <ele>173.304938</ele>
        <time>2026-03-20T14:35:38.837Z</time>
      </trkpt>
      <trkpt lat="51.355534" lon="9.483970">
        <ele>173.404676</ele>
        <time>2026-03-20T14:35:43.253Z</time>
      </trkpt>
      <trkpt lat="51.355499" lon="9.483838">
        <ele>173.459590</ele>
        <time>2026-03-20T14:35:45.894Z</time>
      </trkpt>
      <trkpt lat="51.355454" lon="9.483436">
        <ele>173.615980</ele>
        <time>2026-03-20T14:35:53.721Z</time>
      </trkpt>
      <trkpt lat="51.355426" lon="9.482891">
        <ele>173.842777</ele>
        <time>2026-03-20T14:36:04.512Z</time>
      </trkpt>
      <trkpt lat="51.355360" lon="9.482480">
        <ele>174.594844</ele>
        <time>2026-03-20T14:36:12.998Z</time>
      </trkpt>
      <trkpt lat="51.355305" lon="9.482167">
        <ele>175.171082</ele>
        <time>2026-03-20T14:36:19.718Z</time>
      </trkpt>
      <trkpt lat="51.355289" lon="9.481955">
        <ele>175.549521</ele>
        <time>2026-03-20T14:36:25.038Z</time>
      </trkpt>
      <trkpt lat="51.355402" lon="9.481332">
        <ele>176.699225</ele>
        <time>2026-03-20T14:36:42.638Z</time>
      </trkpt>
      <trkpt lat="51.355402" lon="9.480363">
        <ele>178.416480</ele>
        <time>2026-03-20T14:37:08.926Z</time>
      </trkpt>
      <trkpt lat="51.355402" lon="9.480302">
        <ele>178.524584</ele>
        <time>2026-03-20T14:37:10.438Z</time>
      </trkpt>
      <trkpt lat="51.355001" lon="9.480044">
        <ele>179.090828</ele>
        <time>2026-03-20T14:37:26.988Z</time>
      </trkpt>
      <trkpt lat="51.354992" lon="9.480059">
        <ele>179.098235</ele>
        <time>2026-03-20T14:37:27.388Z</time>
      </trkpt>
      <trkpt lat="51.354581" lon="9.479855">
        <ele>179.343583</ele>
        <time>2026-03-20T14:37:40.112Z</time>
      </trkpt>
      <trkpt lat="51.353197" lon="9.478690">
        <ele>179.214586</ele>
        <time>2026-03-20T14:38:11.890Z</time>
      </trkpt>
      <trkpt lat="51.353128" lon="9.478529">
        <ele>179.034887</ele>
        <time>2026-03-20T14:38:14.101Z</time>
      </trkpt>
      <trkpt lat="51.353099" lon="9.478353">
        <ele>178.867374</ele>
        <time>2026-03-20T14:38:16.163Z</time>
      </trkpt>
      <trkpt lat="51.352693" lon="9.478504">
        <ele>178.253168</ele>
        <time>2026-03-20T14:38:23.670Z</time>
      </trkpt>
      <trkpt lat="51.351742" lon="9.478946">
        <ele>176.457658</ele>
        <time>2026-03-20T14:38:41.007Z</time>
      </trkpt>
      <trkpt lat="51.351565" lon="9.479020">
        <ele>176.008935</ele>
        <time>2026-03-20T14:38:44.124Z</time>
      </trkpt>
      <trkpt lat="51.350458" lon="9.479376">
        <ele>173.239323</ele>
        <time>2026-03-20T14:39:03.195Z</time>
      </trkpt>
      <trkpt lat="51.349981" lon="9.479554">
        <ele>172.039346</ele>
        <time>2026-03-20T14:39:11.418Z</time>
      </trkpt>
      <trkpt lat="51.349729" lon="9.479661">
        <ele>171.400916</ele>
        <time>2026-03-20T14:39:15.802Z</time>
      </trkpt>
      <trkpt lat="51.348620" lon="9.480063">
        <ele>168.616454</ele>
        <time>2026-03-20T14:39:35.248Z</time>
      </trkpt>
      <trkpt lat="51.348090" lon="9.480199">
        <ele>167.678550</ele>
        <time>2026-03-20T14:39:44.607Z</time>
      </trkpt>
      <trkpt lat="51.347590" lon="9.480302">
        <ele>166.837487</ele>
        <time>2026-03-20T14:39:53.642Z</time>
      </trkpt>
      <trkpt lat="51.347486" lon="9.480351">
        <ele>166.656619</ele>
        <time>2026-03-20T14:39:55.629Z</time>
      </trkpt>
      <trkpt lat="51.347129" lon="9.480650">
        <ele>165.984437</ele>
        <time>2026-03-20T14:40:03.058Z</time>
      </trkpt>
      <trkpt lat="51.346900" lon="9.480863">
        <ele>165.542583</ele>
        <time>2026-03-20T14:40:07.983Z</time>
      </trkpt>
      <trkpt lat="51.346367" lon="9.481404">
        <ele>165.078802</ele>
        <time>2026-03-20T14:40:20.201Z</time>
      </trkpt>
      <trkpt lat="51.346136" lon="9.481704">
        <ele>164.876968</ele>
        <time>2026-03-20T14:40:26.157Z</time>
      </trkpt>
      <trkpt lat="51.346015" lon="9.481852">
        <ele>164.773643</ele>
        <time>2026-03-20T14:40:29.255Z</time>
      </trkpt>
      <trkpt lat="51.345768" lon="9.482132">
        <ele>164.568277</ele>
        <time>2026-03-20T14:40:35.523Z</time>
      </trkpt>
      <trkpt lat="51.345619" lon="9.482221">
        <ele>164.460364</ele>
        <time>2026-03-20T14:40:38.850Z</time>
      </trkpt>
      <trkpt lat="51.345311" lon="9.482366">
        <ele>164.256703</ele>
        <time>2026-03-20T14:40:45.633Z</time>
      </trkpt>
      <trkpt lat="51.344593" lon="9.482482">
        <ele>164.120340</ele>
        <time>2026-03-20T14:41:01.419Z</time>
      </trkpt>
      <trkpt lat="51.344275" lon="9.482591">
        <ele>164.058889</ele>
        <time>2026-03-20T14:41:08.290Z</time>
      </trkpt>
      <trkpt lat="51.344090" lon="9.482721">
        <ele>164.020712</ele>
        <time>2026-03-20T14:41:12.606Z</time>
      </trkpt>
      <trkpt lat="51.343449" lon="9.483298">
        <ele>163.832906</ele>
        <time>2026-03-20T14:41:28.488Z</time>
      </trkpt>
      <trkpt lat="51.343364" lon="9.483376">
        <ele>163.792091</ele>
        <time>2026-03-20T14:41:30.597Z</time>
      </trkpt>
      <trkpt lat="51.342602" lon="9.484069">
        <ele>163.427004</ele>
        <time>2026-03-20T14:41:49.606Z</time>
      </trkpt>
      <trkpt lat="51.341997" lon="9.484693">
        <ele>162.980606</ele>
        <time>2026-03-20T14:42:04.191Z</time>
      </trkpt>
      <trkpt lat="51.341724" lon="9.485049">
        <ele>162.364713</ele>
        <time>2026-03-20T14:42:10.665Z</time>
      </trkpt>
      <trkpt lat="51.341597" lon="9.485195">
        <ele>162.091226</ele>
        <time>2026-03-20T14:42:13.456Z</time>
      </trkpt>
      <trkpt lat="51.341448" lon="9.485267">
        <ele>161.818990</ele>
        <time>2026-03-20T14:42:16.196Z</time>
      </trkpt>
      <trkpt lat="51.341455" lon="9.485369">
        <ele>161.706870</ele>
        <time>2026-03-20T14:42:17.735Z</time>
      </trkpt>
      <trkpt lat="51.341448" lon="9.485523">
        <ele>161.538157</ele>
        <time>2026-03-20T14:42:20.044Z</time>
      </trkpt>
      <trkpt lat="51.341444" lon="9.486229">
        <ele>160.766717</ele>
        <time>2026-03-20T14:42:30.506Z</time>
      </trkpt>
      <trkpt lat="51.341432" lon="9.486279">
        <ele>160.708191</ele>
        <time>2026-03-20T14:42:31.291Z</time>
      </trkpt>
      <trkpt lat="51.341461" lon="9.486305">
        <ele>160.650053</ele>
        <time>2026-03-20T14:42:31.870Z</time>
      </trkpt>
      <trkpt lat="51.341589" lon="9.486420">
        <ele>160.393313</ele>
        <time>2026-03-20T14:42:34.416Z</time>
      </trkpt>
      <trkpt lat="51.341607" lon="9.486437">
        <ele>160.356757</ele>
        <time>2026-03-20T14:42:34.779Z</time>
      </trkpt>
      <trkpt lat="51.341586" lon="9.486482">
        <ele>160.295383</ele>
        <time>2026-03-20T14:42:35.392Z</time>
      </trkpt>
      <trkpt lat="51.341009" lon="9.488036">
        <ele>158.414396</ele>
        <time>2026-03-20T14:42:55.405Z</time>
      </trkpt>
      <trkpt lat="51.340966" lon="9.488185">
        <ele>158.244963</ele>
        <time>2026-03-20T14:42:57.306Z</time>
      </trkpt>
      <trkpt lat="51.340879" lon="9.488725">
        <ele>157.669282</ele>
        <time>2026-03-20T14:43:03.769Z</time>
      </trkpt>
      <trkpt lat="51.340774" lon="9.488969">
        <ele>157.363421</ele>
        <time>2026-03-20T14:43:07.213Z</time>
      </trkpt>
      <trkpt lat="51.340598" lon="9.489247">
        <ele>156.990785</ele>
        <time>2026-03-20T14:43:11.844Z</time>
      </trkpt>
      <trkpt lat="51.339159" lon="9.493250">
        <ele>154.409979</ele>
        <time>2026-03-20T14:44:07.450Z</time>
      </trkpt>
      <trkpt lat="51.339056" lon="9.493554">
        <ele>154.270051</ele>
        <time>2026-03-20T14:44:11.963Z</time>
      </trkpt>
      <trkpt lat="51.339057" lon="9.493640">
        <ele>154.235248</ele>
        <time>2026-03-20T14:44:13.108Z</time>
      </trkpt>
      <trkpt lat="51.338956" lon="9.493868">
        <ele>154.122157</ele>
        <time>2026-03-20T14:44:16.884Z</time>
      </trkpt>
      <trkpt lat="51.338825" lon="9.494163">
        <ele>153.989878</ele>
        <time>2026-03-20T14:44:21.871Z</time>
      </trkpt>
      <trkpt lat="51.338686" lon="9.494384">
        <ele>154.010837</ele>
        <time>2026-03-20T14:44:26.327Z</time>
      </trkpt>
      <trkpt lat="51.338500" lon="9.494594">
        <ele>154.035187</ele>
        <time>2026-03-20T14:44:31.626Z</time>
      </trkpt>
      <trkpt lat="51.337348" lon="9.495172">
        <ele>154.164341</ele>
        <time>2026-03-20T14:45:00.083Z</time>
      </trkpt>
      <trkpt lat="51.336992" lon="9.495351">
        <ele>154.075665</ele>
        <time>2026-03-20T14:45:07.944Z</time>
      </trkpt>
      <trkpt lat="51.336631" lon="9.495533">
        <ele>153.898940</ele>
        <time>2026-03-20T14:45:15.537Z</time>
      </trkpt>
      <trkpt lat="51.336247" lon="9.495755">
        <ele>153.708302</ele>
        <time>2026-03-20T14:45:23.769Z</time>
      </trkpt>
      <trkpt lat="51.336040" lon="9.495952">
        <ele>153.595854</ele>
        <time>2026-03-20T14:45:28.620Z</time>
      </trkpt>
      <trkpt lat="51.335937" lon="9.496061">
        <ele>153.538200</ele>
        <time>2026-03-20T14:45:31.126Z</time>
      </trkpt>
      <trkpt lat="51.335704" lon="9.496298">
        <ele>153.409296</ele>
        <time>2026-03-20T14:45:36.830Z</time>
      </trkpt>
      <trkpt lat="51.335424" lon="9.496573">
        <ele>153.299214</ele>
        <time>2026-03-20T14:45:43.741Z</time>
      </trkpt>
      <trkpt lat="51.335396" lon="9.496600">
        <ele>153.291769</ele>
        <time>2026-03-20T14:45:44.427Z</time>
      </trkpt>
      <trkpt lat="51.335158" lon="9.496833">
        <ele>153.228230</ele>
        <time>2026-03-20T14:45:50.324Z</time>
      </trkpt>
      <trkpt lat="51.334095" lon="9.497927">
        <ele>152.940408</ele>
        <time>2026-03-20T14:46:17.840Z</time>
      </trkpt>
      <trkpt lat="51.333874" lon="9.498154">
        <ele>152.864037</ele>
        <time>2026-03-20T14:46:23.261Z</time>
      </trkpt>
      <trkpt lat="51.333644" lon="9.498391">
        <ele>152.781184</ele>
        <time>2026-03-20T14:46:29.028Z</time>
      </trkpt>
      <trkpt lat="51.333266" lon="9.498780">
        <ele>152.645069</ele>
        <time>2026-03-20T14:46:38.655Z</time>
      </trkpt>
      <trkpt lat="51.333220" lon="9.498825">
        <ele>152.628739</ele>
        <time>2026-03-20T14:46:39.810Z</time>
      </trkpt>
      <trkpt lat="51.332953" lon="9.499083">
        <ele>152.534273</ele>
        <time>2026-03-20T14:46:46.413Z</time>
      </trkpt>
      <trkpt lat="51.332639" lon="9.499326">
        <ele>152.428632</ele>
        <time>2026-03-20T14:46:53.763Z</time>
      </trkpt>
      <trkpt lat="51.331586" lon="9.499949">
        <ele>151.452900</ele>
        <time>2026-03-20T14:47:16.859Z</time>
      </trkpt>
      <trkpt lat="51.331251" lon="9.500262">
        <ele>151.084293</ele>
        <time>2026-03-20T14:47:24.068Z</time>
      </trkpt>
      <trkpt lat="51.330569" lon="9.501380">
        <ele>150.150928</ele>
        <time>2026-03-20T14:47:41.756Z</time>
      </trkpt>
      <trkpt lat="51.330495" lon="9.501504">
        <ele>150.048009</ele>
        <time>2026-03-20T14:47:43.716Z</time>
      </trkpt>
      <trkpt lat="51.330364" lon="9.501646">
        <ele>149.896023</ele>
        <time>2026-03-20T14:47:46.633Z</time>
      </trkpt>
      <trkpt lat="51.330013" lon="9.501799">
        <ele>149.546568</ele>
        <time>2026-03-20T14:47:53.603Z</time>
      </trkpt>
      <trkpt lat="51.329815" lon="9.501872">
        <ele>149.351387</ele>
        <time>2026-03-20T14:47:57.712Z</time>
      </trkpt>
      <trkpt lat="51.329660" lon="9.501974">
        <ele>149.190397</ele>
        <time>2026-03-20T14:48:01.227Z</time>
      </trkpt>
      <trkpt lat="51.329334" lon="9.502291">
        <ele>149.035470</ele>
        <time>2026-03-20T14:48:09.595Z</time>
      </trkpt>
      <trkpt lat="51.328764" lon="9.502899">
        <ele>149.489753</ele>
        <time>2026-03-20T14:48:26.185Z</time>
      </trkpt>
      <trkpt lat="51.328772" lon="9.503372">
        <ele>149.685832</ele>
        <time>2026-03-20T14:48:33.810Z</time>
      </trkpt>
      <trkpt lat="51.328641" lon="9.504016">
        <ele>149.966486</ele>
        <time>2026-03-20T14:48:45.302Z</time>
      </trkpt>
      <trkpt lat="51.328423" lon="9.505195">
        <ele>150.274121</ele>
        <time>2026-03-20T14:49:05.315Z</time>
      </trkpt>
      <trkpt lat="51.327804" lon="9.505665">
        <ele>150.453925</ele>
        <time>2026-03-20T14:49:22.221Z</time>
      </trkpt>
      <trkpt lat="51.327307" lon="9.505964">
        <ele>150.593266</ele>
        <time>2026-03-20T14:49:33.428Z</time>
      </trkpt>
      <trkpt lat="51.327033" lon="9.506202">
        <ele>150.313228</ele>
        <time>2026-03-20T14:49:39.431Z</time>
      </trkpt>
      <trkpt lat="51.326052" lon="9.506866">
        <ele>148.938254</ele>
        <time>2026-03-20T14:49:58.908Z</time>
      </trkpt>
      <trkpt lat="51.325995" lon="9.506970">
        <ele>148.826665</ele>
        <time>2026-03-20T14:50:00.445Z</time>
      </trkpt>
      <trkpt lat="51.325808" lon="9.507054">
        <ele>148.575940</ele>
        <time>2026-03-20T14:50:03.932Z</time>
      </trkpt>
      <trkpt lat="51.325614" lon="9.507096">
        <ele>148.323226</ele>
        <time>2026-03-20T14:50:07.516Z</time>
      </trkpt>
      <trkpt lat="51.325138" lon="9.507184">
        <ele>148.698050</ele>
        <time>2026-03-20T14:50:16.703Z</time>
      </trkpt>
      <trkpt lat="51.324355" lon="9.507292">
        <ele>149.399143</ele>
        <time>2026-03-20T14:50:35.629Z</time>
      </trkpt>
      <trkpt lat="51.324208" lon="9.507298">
        <ele>149.530322</ele>
        <time>2026-03-20T14:50:40.410Z</time>
      </trkpt>
      <trkpt lat="51.323569" lon="9.507176">
        <ele>150.330678</ele>
        <time>2026-03-20T14:51:03.697Z</time>
      </trkpt>
      <trkpt lat="51.323502" lon="9.508113">
        <ele>151.429056</ele>
        <time>2026-03-20T14:51:24.345Z</time>
      </trkpt>
      <trkpt lat="51.323475" lon="9.508432">
        <ele>151.803965</ele>
        <time>2026-03-20T14:51:30.834Z</time>
      </trkpt>
      <trkpt lat="51.323407" lon="9.508596">
        <ele>152.033182</ele>
        <time>2026-03-20T14:51:34.642Z</time>
      </trkpt>
      <trkpt lat="51.323038" lon="9.508552">
        <ele>152.722772</ele>
        <time>2026-03-20T14:51:45.376Z</time>
      </trkpt>
      <trkpt lat="51.322849" lon="9.508526">
        <ele>153.076299</ele>
        <time>2026-03-20T14:51:49.804Z</time>
      </trkpt>
      <trkpt lat="51.322706" lon="9.508510">
        <ele>153.106836</ele>
        <time>2026-03-20T14:51:52.692Z</time>
      </trkpt>
      <trkpt lat="51.322262" lon="9.508459">
        <ele>151.865446</ele>
        <time>2026-03-20T14:52:00.474Z</time>
      </trkpt>
      <trkpt lat="51.322047" lon="9.508427">
        <ele>151.263277</ele>
        <time>2026-03-20T14:52:04.066Z</time>
      </trkpt>
      <trkpt lat="51.321875" lon="9.508403">
        <ele>150.781792</ele>
        <time>2026-03-20T14:52:06.892Z</time>
      </trkpt>
      <trkpt lat="51.321416" lon="9.508232">
        <ele>149.467520</ele>
        <time>2026-03-20T14:52:14.389Z</time>
      </trkpt>
      <trkpt lat="51.320748" lon="9.507967">
        <ele>147.453816</ele>
        <time>2026-03-20T14:52:25.134Z</time>
      </trkpt>
      <trkpt lat="51.320405" lon="9.507829">
        <ele>146.331438</ele>
        <time>2026-03-20T14:52:30.764Z</time>
      </trkpt>
      <trkpt lat="51.320139" lon="9.507694">
        <ele>145.445853</ele>
        <time>2026-03-20T14:52:35.209Z</time>
      </trkpt>
      <trkpt lat="51.320127" lon="9.507684">
        <ele>145.402917</ele>
        <time>2026-03-20T14:52:35.426Z</time>
      </trkpt>
      <trkpt lat="51.319875" lon="9.507533">
        <ele>144.548969</ele>
        <time>2026-03-20T14:52:39.713Z</time>
      </trkpt>
      <trkpt lat="51.319658" lon="9.507368">
        <ele>143.786527</ele>
        <time>2026-03-20T14:52:43.568Z</time>
      </trkpt>
      <trkpt lat="51.319344" lon="9.508154">
        <ele>142.454812</ele>
        <time>2026-03-20T14:52:53.875Z</time>
      </trkpt>
      <trkpt lat="51.319169" lon="9.508626">
        <ele>142.325372</ele>
        <time>2026-03-20T14:53:00.637Z</time>
      </trkpt>
      <trkpt lat="51.319162" lon="9.508719">
        <ele>142.303278</ele>
        <time>2026-03-20T14:53:01.815Z</time>
      </trkpt>
      <trkpt lat="51.319128" lon="9.508657">
        <ele>142.283824</ele>
        <time>2026-03-20T14:53:02.857Z</time>
      </trkpt>
      <trkpt lat="51.319093" lon="9.508620">
        <ele>142.267993</ele>
        <time>2026-03-20T14:53:03.681Z</time>
      </trkpt>
      <trkpt lat="51.318976" lon="9.508496">
        <ele>142.215032</ele>
        <time>2026-03-20T14:53:06.474Z</time>
      </trkpt>
      <trkpt lat="51.318924" lon="9.508437">
        <ele>142.190975</ele>
        <time>2026-03-20T14:53:07.793Z</time>
      </trkpt>
      <trkpt lat="51.318889" lon="9.508448">
        <ele>142.177514</ele>
        <time>2026-03-20T14:53:08.505Z</time>
      </trkpt>
      <trkpt lat="51.318837" lon="9.508433">
        <ele>142.157573</ele>
        <time>2026-03-20T14:53:09.602Z</time>
      </trkpt>
      <trkpt lat="51.318680" lon="9.508265">
        <ele>142.086295</ele>
        <time>2026-03-20T14:53:13.604Z</time>
      </trkpt>
      <trkpt lat="51.317952" lon="9.507506">
        <ele>142.105074</ele>
        <time>2026-03-20T14:53:35.360Z</time>
      </trkpt>
      <trkpt lat="51.317555" lon="9.507076">
        <ele>142.639962</ele>
        <time>2026-03-20T14:53:48.721Z</time>
      </trkpt>
      <trkpt lat="51.316733" lon="9.506190">
        <ele>143.745778</ele>
        <time>2026-03-20T14:54:15.702Z</time>
      </trkpt>
      <trkpt lat="51.316385" lon="9.505770">
        <ele>144.096314</ele>
        <time>2026-03-20T14:54:27.212Z</time>
      </trkpt>
      <trkpt lat="51.316176" lon="9.505483">
        <ele>144.293592</ele>
        <time>2026-03-20T14:54:34.477Z</time>
      </trkpt>
      <trkpt lat="51.316078" lon="9.505339">
        <ele>144.388898</ele>
        <time>2026-03-20T14:54:37.972Z</time>
      </trkpt>
      <trkpt lat="51.316043" lon="9.505293">
        <ele>144.421341</ele>
        <time>2026-03-20T14:54:39.190Z</time>
      </trkpt>
      <trkpt lat="51.315955" lon="9.505174">
        <ele>144.503871</ele>
        <time>2026-03-20T14:54:42.189Z</time>
      </trkpt>
      <trkpt lat="51.315900" lon="9.505100">
        <ele>144.555343</ele>
        <time>2026-03-20T14:54:44.089Z</time>
      </trkpt>
      <trkpt lat="51.315857" lon="9.505043">
        <ele>144.595341</ele>
        <time>2026-03-20T14:54:45.537Z</time>
      </trkpt>
      <trkpt lat="51.315833" lon="9.505087">
        <ele>144.621485</ele>
        <time>2026-03-20T14:54:46.781Z</time>
      </trkpt>
      <trkpt lat="51.315670" lon="9.504898">
        <ele>144.765674</ele>
        <time>2026-03-20T14:54:53.371Z</time>
      </trkpt>
      <trkpt lat="51.315449" lon="9.504426">
        <ele>145.029699</ele>
        <time>2026-03-20T14:55:02.262Z</time>
      </trkpt>
      <trkpt lat="51.315174" lon="9.503756">
        <ele>145.141096</ele>
        <time>2026-03-20T14:55:13.693Z</time>
      </trkpt>
      <trkpt lat="51.315170" lon="9.503713">
        <ele>145.141096</ele>
        <time>2026-03-20T14:55:14.289Z</time>
      </trkpt>
      <trkpt lat="51.315146" lon="9.503651">
        <ele>145.141096</ele>
        <time>2026-03-20T14:55:15.283Z</time>
      </trkpt>
      <trkpt lat="51.315137" lon="9.503669">
        <ele>145.141096</ele>
        <time>2026-03-20T14:55:15.606Z</time>
      </trkpt>
      <trkpt lat="51.315103" lon="9.503709">
        <ele>145.141096</ele>
        <time>2026-03-20T14:55:16.603Z</time>
      </trkpt>
      <trkpt lat="51.315016" lon="9.503812">
        <ele>145.141096</ele>
        <time>2026-03-20T14:55:19.002Z</time>
      </trkpt>
      <trkpt lat="51.314959" lon="9.503877">
        <ele>145.141096</ele>
        <time>2026-03-20T14:55:20.641Z</time>
      </trkpt>
      <trkpt lat="51.314973" lon="9.503910">
        <ele>145.141096</ele>
        <time>2026-03-20T14:55:21.320Z</time>
      </trkpt>
      <trkpt lat="51.314704" lon="9.504208">
        <ele>145.141096</ele>
        <time>2026-03-20T14:55:28.322Z</time>
      </trkpt>
    </trkseg>
  </trk>
</gpx>